<?xml version='1.0' encoding='UTF-8'?><gpx version="1.1" creator="JPX - https://github.com/jenetics/jpx" xmlns="http://www.topografix.com/GPX/1/1"><trk><trkseg><trkpt lat="45.09911845202444" lon="8.292154729785802"><ele>195.16666666666666</ele><time>2026-03-28T12:30:39Z</time></trkpt><trkpt lat="45.098995429534085" lon="8.292226638652105"><ele>195.33333333333331</ele><time>2026-03-28T12:35:18Z</time></trkpt><trkpt lat="45.098964240888456" lon="8.292328858320419"><ele>195.5</ele><time>2026-03-28T12:35:19Z</time></trkpt><trkpt lat="45.098929388638524" lon="8.29241717080832"><ele>195.66666666666666</ele><time>2026-03-28T12:35:20Z</time></trkpt><trkpt lat="45.09891121024708" lon="8.292506897452155"><ele>195.83333333333331</ele><time>2026-03-28T12:35:21Z</time></trkpt><trkpt lat="45.09893263233146" lon="8.29259713435337"><ele>196.0</ele><time>2026-03-28T12:35:22Z</time></trkpt><trkpt lat="45.09899906880856" lon="8.292693987575072"><ele>194.49999999999997</ele><time>2026-03-28T12:35:24Z</time></trkpt><trkpt lat="45.099045086276476" lon="8.292788450417712"><ele>193.0</ele><time>2026-03-28T12:35:26Z</time></trkpt><trkpt lat="45.0990039028222" lon="8.292898636987701"><ele>191.5</ele><time>2026-03-28T12:35:42Z</time></trkpt><trkpt lat="45.098950355371414" lon="8.292961940260556"><ele>190.0</ele><time>2026-03-28T12:35:43Z</time></trkpt><trkpt lat="45.0988828279831" lon="8.293017461007647"><ele>188.5</ele><time>2026-03-28T12:35:44Z</time></trkpt><trkpt lat="45.098799999050144" lon="8.293076295285896"><ele>187.0</ele><time>2026-03-28T12:35:45Z</time></trkpt><trkpt lat="45.09871000797133" lon="8.293145852566818"><ele>186.8</ele><time>2026-03-28T12:35:46Z</time></trkpt><trkpt lat="45.09861970260197" lon="8.293223240480824"><ele>186.6</ele><time>2026-03-28T12:35:47Z</time></trkpt><trkpt lat="45.0985191885166" lon="8.2933197394766"><ele>186.4</ele><time>2026-03-28T12:35:48Z</time></trkpt><trkpt lat="45.09842964276992" lon="8.293405627310726"><ele>186.20000000000002</ele><time>2026-03-28T12:35:48.999Z</time></trkpt><trkpt lat="45.09834495516284" lon="8.293494397814548"><ele>186.0</ele><time>2026-03-28T12:35:49.999Z</time></trkpt><trkpt lat="45.09825008942285" lon="8.293589907185984"><ele>187.25</ele><time>2026-03-28T12:35:50.999Z</time></trkpt><trkpt lat="45.098149645738" lon="8.293700031352031"><ele>188.5</ele><time>2026-03-28T12:35:51.999Z</time></trkpt><trkpt lat="45.09804351575414" lon="8.29382453186188"><ele>189.75</ele><time>2026-03-28T12:35:52.999Z</time></trkpt><trkpt lat="45.097934330406616" lon="8.29394448705492"><ele>191.0</ele><time>2026-03-28T12:35:53.999Z</time></trkpt><trkpt lat="45.09783903777457" lon="8.294087967547414"><ele>191.0</ele><time>2026-03-28T12:35:54.999Z</time></trkpt><trkpt lat="45.09776616664752" lon="8.294268479924797"><ele>191.0</ele><time>2026-03-28T12:35:55.999Z</time></trkpt><trkpt lat="45.09771460959076" lon="8.294457758071388"><ele>191.0</ele><time>2026-03-28T12:35:56.999Z</time></trkpt><trkpt lat="45.097683057082335" lon="8.294656341403446"><ele>191.0</ele><time>2026-03-28T12:35:57.999Z</time></trkpt><trkpt lat="45.097654054312436" lon="8.29485934860601"><ele>191.5</ele><time>2026-03-28T12:35:58.999Z</time></trkpt><trkpt lat="45.09762832413842" lon="8.295058044963652"><ele>192.0</ele><time>2026-03-28T12:35:59.999Z</time></trkpt><trkpt lat="45.09759877946606" lon="8.295253082372211"><ele>192.5</ele><time>2026-03-28T12:36:00.999Z</time></trkpt><trkpt lat="45.09755217021683" lon="8.295442806314817"><ele>193.0</ele><time>2026-03-28T12:36:01.999Z</time></trkpt><trkpt lat="45.09749398627845" lon="8.295627225482038"><ele>193.25</ele><time>2026-03-28T12:36:02.999Z</time></trkpt><trkpt lat="45.097433642821684" lon="8.295810508215423"><ele>193.5</ele><time>2026-03-28T12:36:03.999Z</time></trkpt><trkpt lat="45.097369230461304" lon="8.295984392958639"><ele>193.75</ele><time>2026-03-28T12:36:04.999Z</time></trkpt><trkpt lat="45.097312292107425" lon="8.29615394013364"><ele>194.0</ele><time>2026-03-28T12:36:05.999Z</time></trkpt><trkpt lat="45.09726441240499" lon="8.296302340221445"><ele>194.79999999999998</ele><time>2026-03-28T12:36:06.999Z</time></trkpt><trkpt lat="45.097224325694725" lon="8.296435185745263"><ele>195.6</ele><time>2026-03-28T12:36:07.999Z</time></trkpt><trkpt lat="45.0971917368948" lon="8.296555522481066"><ele>196.4</ele><time>2026-03-28T12:36:08.999Z</time></trkpt><trkpt lat="45.09716658636919" lon="8.29666947120178"><ele>197.2</ele><time>2026-03-28T12:36:09.999Z</time></trkpt><trkpt lat="45.09713795505022" lon="8.296787933151107"><ele>198.0</ele><time>2026-03-28T12:36:10.999Z</time></trkpt><trkpt lat="45.097132795624255" lon="8.2969442823982"><ele>198.0</ele><time>2026-03-28T12:36:11.999Z</time></trkpt><trkpt lat="45.09699073568295" lon="8.297123415680458"><ele>198.0</ele><time>2026-03-28T12:36:12.999Z</time></trkpt><trkpt lat="45.09689183055575" lon="8.297360688872601"><ele>198.0</ele><time>2026-03-28T12:36:13.999Z</time></trkpt><trkpt lat="45.096813603666845" lon="8.297568023034735"><ele>196.2</ele><time>2026-03-28T12:36:14.999Z</time></trkpt><trkpt lat="45.096737169211885" lon="8.297735305785388"><ele>194.4</ele><time>2026-03-28T12:36:15.999Z</time></trkpt><trkpt lat="45.096675332099835" lon="8.297904247712113"><ele>192.6</ele><time>2026-03-28T12:36:16.999Z</time></trkpt><trkpt lat="45.096632386038344" lon="8.298021935680552"><ele>190.79999999999998</ele><time>2026-03-28T12:36:17.999Z</time></trkpt><trkpt lat="45.09659728331041" lon="8.298114309927184"><ele>189.0</ele><time>2026-03-28T12:36:18.999Z</time></trkpt><trkpt lat="45.096539887662196" lon="8.298226526725076"><ele>185.25</ele><time>2026-03-28T12:36:20.999Z</time></trkpt><trkpt lat="45.0964086285082" lon="8.29820616809078"><ele>181.5</ele><time>2026-03-28T12:36:22.999Z</time></trkpt><trkpt lat="45.09633014431825" lon="8.298162916504776"><ele>177.75</ele><time>2026-03-28T12:36:23.999Z</time></trkpt><trkpt lat="45.096227855047225" lon="8.29811979868583"><ele>174.0</ele><time>2026-03-28T12:36:24.999Z</time></trkpt><trkpt lat="45.096094790194265" lon="8.298086148506984"><ele>174.0</ele><time>2026-03-28T12:36:25.999Z</time></trkpt><trkpt lat="45.09594690872587" lon="8.29808700988797"><ele>174.0</ele><time>2026-03-28T12:36:26.999Z</time></trkpt><trkpt lat="45.09579384084082" lon="8.298151737111269"><ele>174.0</ele><time>2026-03-28T12:36:27.999Z</time></trkpt><trkpt lat="45.09563525012462" lon="8.298241433807467"><ele>176.33333333333334</ele><time>2026-03-28T12:36:28.999Z</time></trkpt><trkpt lat="45.095466970564544" lon="8.298324810008314"><ele>178.66666666666669</ele><time>2026-03-28T12:36:29.999Z</time></trkpt><trkpt lat="45.09528210014465" lon="8.298392994929952"><ele>181.0</ele><time>2026-03-28T12:36:30.999Z</time></trkpt><trkpt lat="45.09510142620888" lon="8.298452832451778"><ele>181.0</ele><time>2026-03-28T12:36:31.999Z</time></trkpt><trkpt lat="45.094968168701186" lon="8.298493024417226"><ele>181.0</ele><time>2026-03-28T12:36:32.999Z</time></trkpt><trkpt lat="45.09486215316929" lon="8.298556564862004"><ele>181.0</ele><time>2026-03-28T12:36:33.999Z</time></trkpt><trkpt lat="45.09479114054162" lon="8.298658496450695"><ele>181.0</ele><time>2026-03-28T12:36:34.999Z</time></trkpt><trkpt lat="45.094757338494624" lon="8.29882145183726"><ele>184.33333333333334</ele><time>2026-03-28T12:36:35.999Z</time></trkpt><trkpt lat="45.094715679911836" lon="8.299052495054317"><ele>187.66666666666666</ele><time>2026-03-28T12:36:36.999Z</time></trkpt><trkpt lat="45.09466957479149" lon="8.299299947794127"><ele>191.0</ele><time>2026-03-28T12:36:37.999Z</time></trkpt><trkpt lat="45.09460251475379" lon="8.2995172887705"><ele>191.0</ele><time>2026-03-28T12:36:38.999Z</time></trkpt><trkpt lat="45.09453849978609" lon="8.2997128103691"><ele>191.0</ele><time>2026-03-28T12:36:39.999Z</time></trkpt><trkpt lat="45.094464601632886" lon="8.299859164130854"><ele>191.0</ele><time>2026-03-28T12:36:40.999Z</time></trkpt><trkpt lat="45.09438515690698" lon="8.2999522770489"><ele>191.0</ele><time>2026-03-28T12:36:41.999Z</time></trkpt><trkpt lat="45.09431189045419" lon="8.300011522168477"><ele>191.0</ele><time>2026-03-28T12:36:42.999Z</time></trkpt><trkpt lat="45.094224056171605" lon="8.300014170390103"><ele>191.0</ele><time>2026-03-28T12:36:44.999Z</time></trkpt><trkpt lat="45.09420017384881" lon="8.299834986043296"><ele>191.0</ele><time>2026-03-28T12:36:46.999Z</time></trkpt><trkpt lat="45.09418501181157" lon="8.29968624306954"><ele>191.0</ele><time>2026-03-28T12:36:47.999Z</time></trkpt><trkpt lat="45.094161323570056" lon="8.29950983945412"><ele>191.0</ele><time>2026-03-28T12:36:48.999Z</time></trkpt><trkpt lat="45.094066113819764" lon="8.299311856396175"><ele>190.25</ele><time>2026-03-28T12:36:49.999Z</time></trkpt><trkpt lat="45.09402767876472" lon="8.29911066670577"><ele>189.5</ele><time>2026-03-28T12:36:50.999Z</time></trkpt><trkpt lat="45.093990386742256" lon="8.298923854650157"><ele>188.75</ele><time>2026-03-28T12:36:51.999Z</time></trkpt><trkpt lat="45.09393983169044" lon="8.298722682814937"><ele>188.0</ele><time>2026-03-28T12:36:52.999Z</time></trkpt><trkpt lat="45.09389084834444" lon="8.298494864791962"><ele>188.0</ele><time>2026-03-28T12:36:53.999Z</time></trkpt><trkpt lat="45.093853823956515" lon="8.298312296875864"><ele>188.0</ele><time>2026-03-28T12:36:54.999Z</time></trkpt><trkpt lat="45.09382286172148" lon="8.298149344284482"><ele>188.0</ele><time>2026-03-28T12:36:55.999Z</time></trkpt><trkpt lat="45.09379657503308" lon="8.298004478946647"><ele>188.0</ele><time>2026-03-28T12:36:56.999Z</time></trkpt><trkpt lat="45.093765667313995" lon="8.297817104465025"><ele>191.5</ele><time>2026-03-28T12:36:57.999Z</time></trkpt><trkpt lat="45.093736069742114" lon="8.297601377417488"><ele>195.0</ele><time>2026-03-28T12:36:58.999Z</time></trkpt><trkpt lat="45.093706547732545" lon="8.297400355664502"><ele>198.5</ele><time>2026-03-28T12:36:59.999Z</time></trkpt><trkpt lat="45.09368093329033" lon="8.297271877833891"><ele>202.0</ele><time>2026-03-28T12:37:00.999Z</time></trkpt><trkpt lat="45.09366209532867" lon="8.297186074265888"><ele>204.8</ele><time>2026-03-28T12:37:01.999Z</time></trkpt><trkpt lat="45.09363855062844" lon="8.297078833575597"><ele>207.6</ele><time>2026-03-28T12:37:03.999Z</time></trkpt><trkpt lat="45.093611873296865" lon="8.296957380896188"><ele>210.40000000000003</ele><time>2026-03-28T12:37:04.999Z</time></trkpt><trkpt lat="45.093573481232895" lon="8.296783319283914"><ele>213.20000000000002</ele><time>2026-03-28T12:37:05.999Z</time></trkpt><trkpt lat="45.09354205070769" lon="8.296637513431273"><ele>216.0</ele><time>2026-03-28T12:37:06.999Z</time></trkpt><trkpt lat="45.09351202696174" lon="8.29649471860942"><ele>219.25</ele><time>2026-03-28T12:37:07.999Z</time></trkpt><trkpt lat="45.09348267791536" lon="8.296352147880897"><ele>222.5</ele><time>2026-03-28T12:37:08.999Z</time></trkpt><trkpt lat="45.09344870840857" lon="8.296184442805584"><ele>225.75</ele><time>2026-03-28T12:37:09.999Z</time></trkpt><trkpt lat="45.09340675044216" lon="8.295971045476245"><ele>229.0</ele><time>2026-03-28T12:37:10.999Z</time></trkpt><trkpt lat="45.093370285802195" lon="8.295776356525684"><ele>232.0</ele><time>2026-03-28T12:37:11.999Z</time></trkpt><trkpt lat="45.09332465808855" lon="8.295554160713397"><ele>235.0</ele><time>2026-03-28T12:37:12.999Z</time></trkpt><trkpt lat="45.09325761838014" lon="8.295345312734423"><ele>238.0</ele><time>2026-03-28T12:37:13.999Z</time></trkpt><trkpt lat="45.093166454672186" lon="8.295207916711705"><ele>241.66666666666666</ele><time>2026-03-28T12:37:14.999Z</time></trkpt><trkpt lat="45.0931033623663" lon="8.295148911800178"><ele>245.33333333333331</ele><time>2026-03-28T12:37:15.999Z</time></trkpt><trkpt lat="45.093059135681045" lon="8.295060272843962"><ele>249.0</ele><time>2026-03-28T12:37:16.999Z</time></trkpt><trkpt lat="45.0932674094762" lon="8.294625817270397"><ele>242.75</ele><time>2026-03-28T12:37:17.999Z</time></trkpt><trkpt lat="45.0932331402222" lon="8.294485169535136"><ele>236.5</ele><time>2026-03-28T12:37:18.999Z</time></trkpt><trkpt lat="45.093185402584446" lon="8.294340633438477"><ele>230.25</ele><time>2026-03-28T12:37:19.999Z</time></trkpt><trkpt lat="45.09314358441197" lon="8.294194031609738"><ele>224.0</ele><time>2026-03-28T12:37:20.999Z</time></trkpt><trkpt lat="45.09310453548915" lon="8.294010594587965"><ele>226.25</ele><time>2026-03-28T12:37:21.999Z</time></trkpt><trkpt lat="45.09310387703724" lon="8.293817783635344"><ele>228.5</ele><time>2026-03-28T12:37:22.999Z</time></trkpt><trkpt lat="45.09308793243001" lon="8.293600084187828"><ele>230.75</ele><time>2026-03-28T12:37:23.999Z</time></trkpt><trkpt lat="45.093093189539" lon="8.293379102559124"><ele>233.0</ele><time>2026-03-28T12:37:24.999Z</time></trkpt><trkpt lat="45.09309802656823" lon="8.293188010917024"><ele>235.75</ele><time>2026-03-28T12:37:25.999Z</time></trkpt><trkpt lat="45.09310735743625" lon="8.293003202746453"><ele>238.5</ele><time>2026-03-28T12:37:26.999Z</time></trkpt><trkpt lat="45.093089159916914" lon="8.292832897190813"><ele>241.25</ele><time>2026-03-28T12:37:27.999Z</time></trkpt><trkpt lat="45.093064833305" lon="8.292641811139541"><ele>244.0</ele><time>2026-03-28T12:37:28.999Z</time></trkpt><trkpt lat="45.093036619224705" lon="8.292481335665762"><ele>244.0</ele><time>2026-03-28T12:37:29.999Z</time></trkpt><trkpt lat="45.093012555616866" lon="8.292345107882834"><ele>244.0</ele><time>2026-03-28T12:37:30.999Z</time></trkpt><trkpt lat="45.09292298963927" lon="8.292147986631402"><ele>244.0</ele><time>2026-03-28T12:37:32.999Z</time></trkpt><trkpt lat="45.092902552936835" lon="8.291962217261164"><ele>244.0</ele><time>2026-03-28T12:37:33.999Z</time></trkpt><trkpt lat="45.09290887320394" lon="8.291798973641002"><ele>246.0</ele><time>2026-03-28T12:37:34.999Z</time></trkpt><trkpt lat="45.09293357274076" lon="8.291640390608553"><ele>247.99999999999997</ele><time>2026-03-28T12:37:35.999Z</time></trkpt><trkpt lat="45.092964990675625" lon="8.291458906446037"><ele>249.99999999999997</ele><time>2026-03-28T12:37:37.999Z</time></trkpt><trkpt lat="45.09300504898712" lon="8.291348456990605"><ele>252.0</ele><time>2026-03-28T12:37:38.999Z</time></trkpt><trkpt lat="45.0930358481664" lon="8.29120933280625"><ele>254.0</ele><time>2026-03-28T12:37:39.999Z</time></trkpt><trkpt lat="45.093015539110525" lon="8.291098074927888"><ele>256.75</ele><time>2026-03-28T12:37:40.999Z</time></trkpt><trkpt lat="45.09298572115972" lon="8.290945973259525"><ele>259.5</ele><time>2026-03-28T12:37:41.999Z</time></trkpt><trkpt lat="45.092948002306386" lon="8.290763390103239"><ele>262.25</ele><time>2026-03-28T12:37:42.999Z</time></trkpt><trkpt lat="45.09290070390997" lon="8.290575761918028"><ele>265.0</ele><time>2026-03-28T12:37:43.999Z</time></trkpt><trkpt lat="45.09286291428147" lon="8.290421140109238"><ele>267.16666666666663</ele><time>2026-03-28T12:37:44.999Z</time></trkpt><trkpt lat="45.092830871031715" lon="8.290299599747787"><ele>269.3333333333333</ele><time>2026-03-28T12:37:45.999Z</time></trkpt><trkpt lat="45.09278548992658" lon="8.290203708568761"><ele>271.5</ele><time>2026-03-28T12:37:46.999Z</time></trkpt><trkpt lat="45.09273933052805" lon="8.290129657213425"><ele>273.6666666666667</ele><time>2026-03-28T12:37:48.999Z</time></trkpt><trkpt lat="45.09268939655809" lon="8.290054537483769"><ele>275.83333333333337</ele><time>2026-03-28T12:38:05.999Z</time></trkpt><trkpt lat="45.092635684802204" lon="8.289927455671648"><ele>278.0</ele><time>2026-03-28T12:38:07.999Z</time></trkpt><trkpt lat="45.09256965047808" lon="8.289795842099695"><ele>277.6</ele><time>2026-03-28T12:38:09.999Z</time></trkpt><trkpt lat="45.092512746740006" lon="8.289661589584513"><ele>277.20000000000005</ele><time>2026-03-28T12:38:11.999Z</time></trkpt><trkpt lat="45.0924271477021" lon="8.28957585022556"><ele>276.8</ele><time>2026-03-28T12:38:13.999Z</time></trkpt><trkpt lat="45.09236867724328" lon="8.289513875621001"><ele>276.40000000000003</ele><time>2026-03-28T12:38:29.999Z</time></trkpt><trkpt lat="45.09225356083833" lon="8.289598075706683"><ele>276.0</ele><time>2026-03-28T12:38:31.999Z</time></trkpt><trkpt lat="45.09216964570389" lon="8.289626127079027"><ele>278.1666666666667</ele><time>2026-03-28T12:38:32.999Z</time></trkpt><trkpt lat="45.09210915260444" lon="8.28965791047489"><ele>280.3333333333333</ele><time>2026-03-28T12:38:33.999Z</time></trkpt><trkpt lat="45.092041562133225" lon="8.289685715176478"><ele>282.5</ele><time>2026-03-28T12:38:34.999Z</time></trkpt><trkpt lat="45.0919764238425" lon="8.28972238755093"><ele>284.66666666666663</ele><time>2026-03-28T12:38:35.999Z</time></trkpt><trkpt lat="45.091879511358755" lon="8.289776892402658"><ele>286.8333333333333</ele><time>2026-03-28T12:38:36.999Z</time></trkpt><trkpt lat="45.09180078414423" lon="8.289840286477215"><ele>289.0</ele><time>2026-03-28T12:38:37.999Z</time></trkpt><trkpt lat="45.09173765244034" lon="8.289869914921573"><ele>289.0</ele><time>2026-03-28T12:38:38.999Z</time></trkpt><trkpt lat="45.09163957280527" lon="8.289870861553243"><ele>289.0</ele><time>2026-03-28T12:38:39.999Z</time></trkpt><trkpt lat="45.09155550215959" lon="8.28987251263025"><ele>289.0</ele><time>2026-03-28T12:38:40.999Z</time></trkpt><trkpt lat="45.09148923931972" lon="8.289875308540685"><ele>289.0</ele><time>2026-03-28T12:38:41.999Z</time></trkpt><trkpt lat="45.09141300980125" lon="8.289853763040503"><ele>289.0</ele><time>2026-03-28T12:38:43.999Z</time></trkpt><trkpt lat="45.09134606687233" lon="8.28982890070222"><ele>289.0</ele><time>2026-03-28T12:38:45.999Z</time></trkpt><trkpt lat="45.091280618172775" lon="8.289891077303036"><ele>291.2</ele><time>2026-03-28T12:38:47.999Z</time></trkpt><trkpt lat="45.091239697025934" lon="8.289964321481646"><ele>293.4</ele><time>2026-03-28T12:38:49.999Z</time></trkpt><trkpt lat="45.091174422355856" lon="8.290004396258421"><ele>295.6</ele><time>2026-03-28T12:38:51.998Z</time></trkpt><trkpt lat="45.09099560934919" lon="8.29014011550384"><ele>297.8</ele><time>2026-03-28T12:38:53.998Z</time></trkpt><trkpt lat="45.09093427650673" lon="8.290173739582599"><ele>300.0</ele><time>2026-03-28T12:38:54.998Z</time></trkpt><trkpt lat="45.09086575690963" lon="8.290185233541173"><ele>300.0</ele><time>2026-03-28T12:39:38.999Z</time></trkpt><trkpt lat="45.09096350645529" lon="8.290145541285774"><ele>300.0</ele><time>2026-03-28T12:40:09.999Z</time></trkpt><trkpt lat="45.091043396765706" lon="8.290093618549742"><ele>300.0</ele><time>2026-03-28T12:40:12Z</time></trkpt><trkpt lat="45.09110032041307" lon="8.290042298726641"><ele>300.0</ele><time>2026-03-28T12:40:13Z</time></trkpt><trkpt lat="45.09119543922805" lon="8.289974866117376"><ele>300.0</ele><time>2026-03-28T12:40:15Z</time></trkpt><trkpt lat="45.09125181519096" lon="8.289923117295123"><ele>300.0</ele><time>2026-03-28T12:40:17Z</time></trkpt><trkpt lat="45.091301124122644" lon="8.2898450709797"><ele>300.0</ele><time>2026-03-28T12:40:19Z</time></trkpt><trkpt lat="45.09137363057124" lon="8.28985093549613"><ele>300.0</ele><time>2026-03-28T12:40:21Z</time></trkpt><trkpt lat="45.091451570644686" lon="8.289865689549426"><ele>300.0</ele><time>2026-03-28T12:40:22Z</time></trkpt><trkpt lat="45.09153478180383" lon="8.289884485164295"><ele>300.0</ele><time>2026-03-28T12:40:24Z</time></trkpt><trkpt lat="45.09167330087844" lon="8.289904328700217"><ele>300.0</ele><time>2026-03-28T12:40:26Z</time></trkpt><trkpt lat="45.09176018192518" lon="8.289893075278703"><ele>300.0</ele><time>2026-03-28T12:40:27Z</time></trkpt><trkpt lat="45.09183255186185" lon="8.28986324192948"><ele>300.0</ele><time>2026-03-28T12:40:28Z</time></trkpt><trkpt lat="45.091907981701134" lon="8.289799424795184"><ele>300.0</ele><time>2026-03-28T12:40:29Z</time></trkpt><trkpt lat="45.09199183778944" lon="8.289743865465752"><ele>300.0</ele><time>2026-03-28T12:40:30Z</time></trkpt><trkpt lat="45.09210758662593" lon="8.289710716865521"><ele>300.0</ele><time>2026-03-28T12:40:31Z</time></trkpt><trkpt lat="45.092217733361565" lon="8.289659519726232"><ele>300.0</ele><time>2026-03-28T12:40:32Z</time></trkpt><trkpt lat="45.092309186387155" lon="8.289585845234734"><ele>300.0</ele><time>2026-03-28T12:40:33Z</time></trkpt><trkpt lat="45.09235201777488" lon="8.289516035628134"><ele>300.0</ele><time>2026-03-28T12:40:36Z</time></trkpt><trkpt lat="45.092301326127796" lon="8.28946201643081"><ele>300.0</ele><time>2026-03-28T12:40:37Z</time></trkpt><trkpt lat="45.09225338468766" lon="8.289379646137236"><ele>300.0</ele><time>2026-03-28T12:40:38Z</time></trkpt><trkpt lat="45.092176870553544" lon="8.289271761271106"><ele>300.0</ele><time>2026-03-28T12:40:39Z</time></trkpt><trkpt lat="45.09210366400273" lon="8.289133874063758"><ele>300.0</ele><time>2026-03-28T12:40:40Z</time></trkpt><trkpt lat="45.092035761965604" lon="8.288974520884281"><ele>300.0</ele><time>2026-03-28T12:40:41Z</time></trkpt><trkpt lat="45.09198240511431" lon="8.288804047583904"><ele>300.0</ele><time>2026-03-28T12:40:42Z</time></trkpt><trkpt lat="45.09192540697238" lon="8.288685912974724"><ele>300.0</ele><time>2026-03-28T12:40:43Z</time></trkpt><trkpt lat="45.09183513410649" lon="8.28850062180623"><ele>297.6</ele><time>2026-03-28T12:40:45Z</time></trkpt><trkpt lat="45.091762012754536" lon="8.288401568976635"><ele>295.2</ele><time>2026-03-28T12:40:46Z</time></trkpt><trkpt lat="45.09168503836908" lon="8.288320505103322"><ele>292.8</ele><time>2026-03-28T12:40:47Z</time></trkpt><trkpt lat="45.09160855640806" lon="8.2882392903136"><ele>290.4</ele><time>2026-03-28T12:40:48Z</time></trkpt><trkpt lat="45.091547822035324" lon="8.288131210987494"><ele>288.0</ele><time>2026-03-28T12:40:49Z</time></trkpt><trkpt lat="45.09145820280344" lon="8.287993909303195"><ele>283.5</ele><time>2026-03-28T12:40:50Z</time></trkpt><trkpt lat="45.09140539942453" lon="8.287894847166516"><ele>279.0</ele><time>2026-03-28T12:40:51Z</time></trkpt><trkpt lat="45.09134565103923" lon="8.28783692199326"><ele>274.5</ele><time>2026-03-28T12:40:52Z</time></trkpt><trkpt lat="45.091282475336946" lon="8.287822888184397"><ele>270.0</ele><time>2026-03-28T12:40:53Z</time></trkpt><trkpt lat="45.09120753107292" lon="8.28786997986998"><ele>265.5</ele><time>2026-03-28T12:40:54Z</time></trkpt><trkpt lat="45.091121070807056" lon="8.287954187483303"><ele>261.0</ele><time>2026-03-28T12:40:55Z</time></trkpt><trkpt lat="45.091034541970885" lon="8.288019782605678"><ele>261.0</ele><time>2026-03-28T12:40:56Z</time></trkpt><trkpt lat="45.090967296932696" lon="8.288069563460168"><ele>261.0</ele><time>2026-03-28T12:40:56.998Z</time></trkpt><trkpt lat="45.09088499421575" lon="8.288079235042215"><ele>261.0</ele><time>2026-03-28T12:40:57.998Z</time></trkpt><trkpt lat="45.09080868192773" lon="8.288120455189544"><ele>261.0</ele><time>2026-03-28T12:40:58.998Z</time></trkpt><trkpt lat="45.09073011456971" lon="8.288169918418808"><ele>261.0</ele><time>2026-03-28T12:40:59.998Z</time></trkpt><trkpt lat="45.09065153758132" lon="8.288218391928968"><ele>261.0</ele><time>2026-03-28T12:41:00.998Z</time></trkpt><trkpt lat="45.09057204089042" lon="8.288248748278155"><ele>262.6666666666667</ele><time>2026-03-28T12:41:01.998Z</time></trkpt><trkpt lat="45.09050102427414" lon="8.288250607297877"><ele>264.3333333333333</ele><time>2026-03-28T12:41:02.998Z</time></trkpt><trkpt lat="45.09043089672473" lon="8.288196124192801"><ele>266.0</ele><time>2026-03-28T12:41:04.998Z</time></trkpt><trkpt lat="45.0903340108574" lon="8.288171013579506"><ele>267.66666666666663</ele><time>2026-03-28T12:41:06.998Z</time></trkpt><trkpt lat="45.0902616688864" lon="8.28824490419188"><ele>269.3333333333333</ele><time>2026-03-28T12:41:08.998Z</time></trkpt><trkpt lat="45.09023775348775" lon="8.288332220941797"><ele>271.0</ele><time>2026-03-28T12:41:09.998Z</time></trkpt><trkpt lat="45.090235483797116" lon="8.288483886452813"><ele>271.0</ele><time>2026-03-28T12:41:11.999Z</time></trkpt><trkpt lat="45.09025074213105" lon="8.28862104487586"><ele>271.0</ele><time>2026-03-28T12:41:14.999Z</time></trkpt><trkpt lat="45.09028243810494" lon="8.28875571717322"><ele>271.0</ele><time>2026-03-28T12:41:16.999Z</time></trkpt><trkpt lat="45.090297168322415" lon="8.28892455227024"><ele>271.0</ele><time>2026-03-28T12:41:18.999Z</time></trkpt><trkpt lat="45.090312428505634" lon="8.28911589608549"><ele>271.5</ele><time>2026-03-28T12:41:20.999Z</time></trkpt><trkpt lat="45.090293283465954" lon="8.289243325492325"><ele>272.0</ele><time>2026-03-28T12:41:21.999Z</time></trkpt><trkpt lat="45.090272101525116" lon="8.28939705298131"><ele>272.5</ele><time>2026-03-28T12:41:22.999Z</time></trkpt><trkpt lat="45.090228561143384" lon="8.28956211320972"><ele>273.0</ele><time>2026-03-28T12:41:23.999Z</time></trkpt><trkpt lat="45.09019279650844" lon="8.289750267347364"><ele>273.25</ele><time>2026-03-28T12:41:24.999Z</time></trkpt><trkpt lat="45.09016767906925" lon="8.289947106046453"><ele>273.5</ele><time>2026-03-28T12:41:25.999Z</time></trkpt><trkpt lat="45.09014943595367" lon="8.290152584703693"><ele>273.75</ele><time>2026-03-28T12:41:26.999Z</time></trkpt><trkpt lat="45.090156987945406" lon="8.290361435488803"><ele>274.0</ele><time>2026-03-28T12:41:27.999Z</time></trkpt><trkpt lat="45.090149538449616" lon="8.2905503660069"><ele>275.0</ele><time>2026-03-28T12:41:28.999Z</time></trkpt><trkpt lat="45.09012212589507" lon="8.290734754899175"><ele>276.0</ele><time>2026-03-28T12:41:29.999Z</time></trkpt><trkpt lat="45.090059793556335" lon="8.29090140369024"><ele>277.0</ele><time>2026-03-28T12:41:30.999Z</time></trkpt><trkpt lat="45.09000605965866" lon="8.291097586353738"><ele>278.0</ele><time>2026-03-28T12:41:31.999Z</time></trkpt><trkpt lat="45.08995109908599" lon="8.291332590482801"><ele>272.0</ele><time>2026-03-28T12:41:32.999Z</time></trkpt><trkpt lat="45.089913922365085" lon="8.291554534681444"><ele>266.0</ele><time>2026-03-28T12:41:33.999Z</time></trkpt><trkpt lat="45.08989876420228" lon="8.291737668785666"><ele>260.0</ele><time>2026-03-28T12:41:34.999Z</time></trkpt><trkpt lat="45.08987416355508" lon="8.29191432800388"><ele>254.0</ele><time>2026-03-28T12:41:35.999Z</time></trkpt><trkpt lat="45.089821570641284" lon="8.292082231067187"><ele>254.0</ele><time>2026-03-28T12:41:36.999Z</time></trkpt><trkpt lat="45.08974082413979" lon="8.292240025527088"><ele>254.0</ele><time>2026-03-28T12:41:37.999Z</time></trkpt><trkpt lat="45.08965479035673" lon="8.292392126710553"><ele>254.0</ele><time>2026-03-28T12:41:38.999Z</time></trkpt><trkpt lat="45.089544732675044" lon="8.292531885498125"><ele>254.0</ele><time>2026-03-28T12:41:39.999Z</time></trkpt><trkpt lat="45.089401321771625" lon="8.292669187577406"><ele>258.0</ele><time>2026-03-28T12:41:40.999Z</time></trkpt><trkpt lat="45.08930132617437" lon="8.292797700740032"><ele>262.0</ele><time>2026-03-28T12:41:41.999Z</time></trkpt><trkpt lat="45.089234342281735" lon="8.292905397250248"><ele>266.0</ele><time>2026-03-28T12:41:42.999Z</time></trkpt><trkpt lat="45.08921967505381" lon="8.293054813604416"><ele>270.0</ele><time>2026-03-28T12:41:43.999Z</time></trkpt><trkpt lat="45.089227567167356" lon="8.293217737681484"><ele>271.6666666666667</ele><time>2026-03-28T12:41:44.999Z</time></trkpt><trkpt lat="45.0892484745884" lon="8.293405040849448"><ele>273.33333333333337</ele><time>2026-03-28T12:41:45.999Z</time></trkpt><trkpt lat="45.089281691730214" lon="8.293630153820803"><ele>275.0</ele><time>2026-03-28T12:41:46.999Z</time></trkpt><trkpt lat="45.08930832533022" lon="8.293865792286972"><ele>275.0</ele><time>2026-03-28T12:41:47.999Z</time></trkpt><trkpt lat="45.08930642891822" lon="8.294057379817854"><ele>275.0</ele><time>2026-03-28T12:41:48.999Z</time></trkpt><trkpt lat="45.08927695063858" lon="8.294230542486485"><ele>275.0</ele><time>2026-03-28T12:41:49.999Z</time></trkpt><trkpt lat="45.08923470980994" lon="8.294410259451272"><ele>275.0</ele><time>2026-03-28T12:41:50.999Z</time></trkpt><trkpt lat="45.08916882478563" lon="8.294607708540674"><ele>267.25</ele><time>2026-03-28T12:41:51.999Z</time></trkpt><trkpt lat="45.0890911398566" lon="8.294774201825263"><ele>259.5</ele><time>2026-03-28T12:41:53Z</time></trkpt><trkpt lat="45.08902228318137" lon="8.294964866371746"><ele>251.75</ele><time>2026-03-28T12:41:54Z</time></trkpt><trkpt lat="45.08898011039861" lon="8.295178422652834"><ele>244.0</ele><time>2026-03-28T12:41:55Z</time></trkpt><trkpt lat="45.08894146736288" lon="8.295389069663397"><ele>245.5</ele><time>2026-03-28T12:41:56Z</time></trkpt><trkpt lat="45.08891196281226" lon="8.295590372979754"><ele>247.0</ele><time>2026-03-28T12:41:57Z</time></trkpt><trkpt lat="45.08886035130828" lon="8.295748135072742"><ele>248.5</ele><time>2026-03-28T12:41:58Z</time></trkpt><trkpt lat="45.08879875532517" lon="8.295904422009118"><ele>250.0</ele><time>2026-03-28T12:41:59Z</time></trkpt><trkpt lat="45.08876859940573" lon="8.29605263379516"><ele>250.0</ele><time>2026-03-28T12:42:00Z</time></trkpt><trkpt lat="45.08877661063797" lon="8.296236028589773"><ele>250.0</ele><time>2026-03-28T12:42:01Z</time></trkpt><trkpt lat="45.08875802518787" lon="8.296473156005753"><ele>250.0</ele><time>2026-03-28T12:42:02Z</time></trkpt><trkpt lat="45.08872699873787" lon="8.296706894351052"><ele>253.0</ele><time>2026-03-28T12:42:03Z</time></trkpt><trkpt lat="45.08867922770425" lon="8.296854835740447"><ele>256.0</ele><time>2026-03-28T12:42:04Z</time></trkpt><trkpt lat="45.08860935808055" lon="8.296974246879802"><ele>259.0</ele><time>2026-03-28T12:42:05Z</time></trkpt><trkpt lat="45.088525748445164" lon="8.297094881259447"><ele>262.0</ele><time>2026-03-28T12:42:06Z</time></trkpt><trkpt lat="45.088445453857176" lon="8.297207780749412"><ele>262.0</ele><time>2026-03-28T12:42:07Z</time></trkpt><trkpt lat="45.08839096852483" lon="8.297264642361295"><ele>262.0</ele><time>2026-03-28T12:42:08Z</time></trkpt><trkpt lat="45.08832770880503" lon="8.297228771478064"><ele>262.0</ele><time>2026-03-28T12:42:11Z</time></trkpt><trkpt lat="45.088214503726064" lon="8.297216518001706"><ele>262.0</ele><time>2026-03-28T12:42:18Z</time></trkpt><trkpt lat="45.08811507213998" lon="8.29723471474259"><ele>262.0</ele><time>2026-03-28T12:42:19Z</time></trkpt><trkpt lat="45.08799001750979" lon="8.297272645526304"><ele>262.0</ele><time>2026-03-28T12:42:20Z</time></trkpt><trkpt lat="45.08789394503342" lon="8.297289074874183"><ele>262.0</ele><time>2026-03-28T12:42:21Z</time></trkpt><trkpt lat="45.0877853694869" lon="8.297267238000531"><ele>262.0</ele><time>2026-03-28T12:42:22Z</time></trkpt><trkpt lat="45.08765060571163" lon="8.29722362946788"><ele>262.0</ele><time>2026-03-28T12:42:23Z</time></trkpt><trkpt lat="45.087517257238076" lon="8.297171100364897"><ele>261.5</ele><time>2026-03-28T12:42:24Z</time></trkpt><trkpt lat="45.087404986918564" lon="8.297152460740406"><ele>261.0</ele><time>2026-03-28T12:42:25Z</time></trkpt><trkpt lat="45.08731173801658" lon="8.297224546172725"><ele>260.5</ele><time>2026-03-28T12:42:26Z</time></trkpt><trkpt lat="45.087188810889984" lon="8.297282369680033"><ele>260.0</ele><time>2026-03-28T12:42:27Z</time></trkpt><trkpt lat="45.087033364573635" lon="8.297368054388002"><ele>259.6666666666667</ele><time>2026-03-28T12:42:28Z</time></trkpt><trkpt lat="45.08684050602927" lon="8.297485674348252"><ele>259.3333333333333</ele><time>2026-03-28T12:42:29Z</time></trkpt><trkpt lat="45.086645288533155" lon="8.297604264473323"><ele>259.0</ele><time>2026-03-28T12:42:30Z</time></trkpt><trkpt lat="45.08648023980288" lon="8.297685568740567"><ele>255.75</ele><time>2026-03-28T12:42:31Z</time></trkpt><trkpt lat="45.086338583461774" lon="8.297793349833723"><ele>252.5</ele><time>2026-03-28T12:42:32Z</time></trkpt><trkpt lat="45.08623789179392" lon="8.297851041135043"><ele>249.25</ele><time>2026-03-28T12:42:33Z</time></trkpt><trkpt lat="45.086180391698996" lon="8.297940052499643"><ele>246.0</ele><time>2026-03-28T12:42:34Z</time></trkpt><trkpt lat="45.086111123569964" lon="8.29805143397881"><ele>246.20000000000002</ele><time>2026-03-28T12:42:35Z</time></trkpt><trkpt lat="45.08603446136928" lon="8.298156602681496"><ele>246.40000000000003</ele><time>2026-03-28T12:42:36Z</time></trkpt><trkpt lat="45.085967758693734" lon="8.298238455645482"><ele>246.6</ele><time>2026-03-28T12:42:37Z</time></trkpt><trkpt lat="45.0858796261641" lon="8.298329270537828"><ele>246.8</ele><time>2026-03-28T12:42:38Z</time></trkpt><trkpt lat="45.08579208087004" lon="8.298424197233244"><ele>247.0</ele><time>2026-03-28T12:42:39Z</time></trkpt><trkpt lat="45.08570660331102" lon="8.29853311606192"><ele>242.75</ele><time>2026-03-28T12:42:40Z</time></trkpt><trkpt lat="45.085601449519544" lon="8.298623428800127"><ele>238.5</ele><time>2026-03-28T12:42:41Z</time></trkpt><trkpt lat="45.08548344306559" lon="8.298695193043255"><ele>234.25</ele><time>2026-03-28T12:42:42Z</time></trkpt><trkpt lat="45.0853584063356" lon="8.298767387398541"><ele>230.0</ele><time>2026-03-28T12:42:43Z</time></trkpt><trkpt lat="45.085238962871635" lon="8.298810261009391"><ele>230.0</ele><time>2026-03-28T12:42:44Z</time></trkpt><trkpt lat="45.08512537865772" lon="8.298853077674877"><ele>230.0</ele><time>2026-03-28T12:42:45Z</time></trkpt><trkpt lat="45.0849977277643" lon="8.298870542920344"><ele>230.0</ele><time>2026-03-28T12:42:46Z</time></trkpt><trkpt lat="45.08486304686485" lon="8.298869342767219"><ele>230.0</ele><time>2026-03-28T12:42:47Z</time></trkpt><trkpt lat="45.08473325186924" lon="8.29890820333745"><ele>229.0</ele><time>2026-03-28T12:42:48Z</time></trkpt><trkpt lat="45.084621637080424" lon="8.298956842896663"><ele>228.0</ele><time>2026-03-28T12:42:49Z</time></trkpt><trkpt lat="45.08450991203642" lon="8.299044044161901"><ele>227.0</ele><time>2026-03-28T12:42:50Z</time></trkpt><trkpt lat="45.084395685568204" lon="8.299166233951128"><ele>226.0</ele><time>2026-03-28T12:42:51Z</time></trkpt><trkpt lat="45.08429392181083" lon="8.299309719078948"><ele>226.0</ele><time>2026-03-28T12:42:52Z</time></trkpt><trkpt lat="45.08419023066939" lon="8.29944389108212"><ele>226.0</ele><time>2026-03-28T12:42:53Z</time></trkpt><trkpt lat="45.084079109053015" lon="8.29954023724844"><ele>226.0</ele><time>2026-03-28T12:42:54Z</time></trkpt><trkpt lat="45.083991922880266" lon="8.299596369101831"><ele>226.0</ele><time>2026-03-28T12:42:55Z</time></trkpt><trkpt lat="45.083900682667334" lon="8.29968835752639"><ele>223.4</ele><time>2026-03-28T12:42:56Z</time></trkpt><trkpt lat="45.08385348297935" lon="8.299769373512081"><ele>220.8</ele><time>2026-03-28T12:42:58Z</time></trkpt><trkpt lat="45.0837441617966" lon="8.299743417159666"><ele>218.20000000000002</ele><time>2026-03-28T12:43:03.999Z</time></trkpt><trkpt lat="45.0837423946787" lon="8.299620148477098"><ele>215.60000000000002</ele><time>2026-03-28T12:43:05.999Z</time></trkpt><trkpt lat="45.0837841450428" lon="8.299530052509665"><ele>213.0</ele><time>2026-03-28T12:43:06.999Z</time></trkpt><trkpt lat="45.083825769279876" lon="8.29938472312047"><ele>212.66666666666666</ele><time>2026-03-28T12:43:07.999Z</time></trkpt><trkpt lat="45.08386445662448" lon="8.299226820412015"><ele>212.33333333333331</ele><time>2026-03-28T12:43:08.999Z</time></trkpt><trkpt lat="45.083888620837136" lon="8.299125541912435"><ele>212.0</ele><time>2026-03-28T12:43:09.999Z</time></trkpt><trkpt lat="45.0838958675411" lon="8.299032132210879"><ele>211.66666666666666</ele><time>2026-03-28T12:43:11.999Z</time></trkpt><trkpt lat="45.083830875375845" lon="8.299013149184558"><ele>211.33333333333331</ele><time>2026-03-28T12:43:12.999Z</time></trkpt><trkpt lat="45.08373819353148" lon="8.29893738969288"><ele>211.0</ele><time>2026-03-28T12:43:14.999Z</time></trkpt><trkpt lat="45.08364136291931" lon="8.298866286253054"><ele>210.0</ele><time>2026-03-28T12:43:16.999Z</time></trkpt><trkpt lat="45.08358435461062" lon="8.298777641477717"><ele>209.0</ele><time>2026-03-28T12:43:18.999Z</time></trkpt><trkpt lat="45.08352062948974" lon="8.298721889720156"><ele>208.0</ele><time>2026-03-28T12:43:19.999Z</time></trkpt><trkpt lat="45.08345175127298" lon="8.298697076988294"><ele>207.0</ele><time>2026-03-28T12:43:20.999Z</time></trkpt><trkpt lat="45.083334730032284" lon="8.298666276048971"><ele>206.0</ele><time>2026-03-28T12:43:22.999Z</time></trkpt><trkpt lat="45.08323403268745" lon="8.298774930965198"><ele>201.50000000000003</ele><time>2026-03-28T12:43:24.999Z</time></trkpt><trkpt lat="45.08319610955133" lon="8.298904329076153"><ele>197.0</ele><time>2026-03-28T12:43:26.999Z</time></trkpt><trkpt lat="45.08315214783177" lon="8.298748900658676"><ele>192.5</ele><time>2026-03-28T12:43:32.999Z</time></trkpt><trkpt lat="45.08314283087761" lon="8.298656600082062"><ele>188.0</ele><time>2026-03-28T12:43:33.999Z</time></trkpt><trkpt lat="45.083128847203156" lon="8.298556029308234"><ele>183.5</ele><time>2026-03-28T12:43:34.999Z</time></trkpt><trkpt lat="45.08311075191633" lon="8.298455929951885"><ele>179.0</ele><time>2026-03-28T12:43:35.999Z</time></trkpt><trkpt lat="45.08309673259408" lon="8.298362777569187"><ele>179.0</ele><time>2026-03-28T12:43:37Z</time></trkpt><trkpt lat="45.08319130724084" lon="8.298212628833774"><ele>179.0</ele><time>2026-03-28T12:43:39Z</time></trkpt><trkpt lat="45.08323571672823" lon="8.298129540126506"><ele>179.0</ele><time>2026-03-28T12:43:40Z</time></trkpt><trkpt lat="45.0833179404204" lon="8.298091569746104"><ele>179.0</ele><time>2026-03-28T12:43:42Z</time></trkpt><trkpt lat="45.08322041393857" lon="8.298015123807462"><ele>179.0</ele><time>2026-03-28T12:43:44Z</time></trkpt><trkpt lat="45.083134507242626" lon="8.297986414479439"><ele>178.0</ele><time>2026-03-28T12:43:45Z</time></trkpt><trkpt lat="45.08303540253101" lon="8.297949046885496"><ele>177.0</ele><time>2026-03-28T12:43:46Z</time></trkpt><trkpt lat="45.08294054827365" lon="8.297898017088798"><ele>176.0</ele><time>2026-03-28T12:43:47Z</time></trkpt><trkpt lat="45.082857731790426" lon="8.297835578452672"><ele>175.0</ele><time>2026-03-28T12:43:48Z</time></trkpt><trkpt lat="45.0827913600602" lon="8.297778194090025"><ele>174.0</ele><time>2026-03-28T12:43:49Z</time></trkpt><trkpt lat="45.08272363075217" lon="8.297732635178761"><ele>174.0</ele><time>2026-03-28T12:43:51Z</time></trkpt><trkpt lat="45.08266049860394" lon="8.29774680282363"><ele>174.0</ele><time>2026-03-28T12:43:55Z</time></trkpt><trkpt lat="45.08260349169334" lon="8.297789999058923"><ele>174.0</ele><time>2026-03-28T12:44:24Z</time></trkpt><trkpt lat="45.08252213343027" lon="8.29783037805866"><ele>174.0</ele><time>2026-03-28T12:44:27Z</time></trkpt><trkpt lat="45.082473798561224" lon="8.297909506103784"><ele>174.0</ele><time>2026-03-28T12:44:28Z</time></trkpt><trkpt lat="45.082409316718284" lon="8.298015672703862"><ele>174.0</ele><time>2026-03-28T12:44:29Z</time></trkpt><trkpt lat="45.082359895216946" lon="8.298176160281782"><ele>171.66666666666666</ele><time>2026-03-28T12:44:30Z</time></trkpt><trkpt lat="45.0822817140181" lon="8.29833288402251"><ele>169.33333333333331</ele><time>2026-03-28T12:44:31Z</time></trkpt><trkpt lat="45.08220388502549" lon="8.298530720905372"><ele>167.0</ele><time>2026-03-28T12:44:32Z</time></trkpt><trkpt lat="45.08212694033031" lon="8.298728601010055"><ele>167.5</ele><time>2026-03-28T12:44:33Z</time></trkpt><trkpt lat="45.08205134668112" lon="8.298919538413818"><ele>168.0</ele><time>2026-03-28T12:44:34Z</time></trkpt><trkpt lat="45.08197356800934" lon="8.299078413797845"><ele>168.5</ele><time>2026-03-28T12:44:35Z</time></trkpt><trkpt lat="45.081889987907246" lon="8.299241086526528"><ele>169.0</ele><time>2026-03-28T12:44:36Z</time></trkpt><trkpt lat="45.081808275285084" lon="8.299379567275178"><ele>169.0</ele><time>2026-03-28T12:44:37Z</time></trkpt><trkpt lat="45.08169545019776" lon="8.299451532134063"><ele>169.0</ele><time>2026-03-28T12:44:38Z</time></trkpt><trkpt lat="45.08159662434125" lon="8.299549199319474"><ele>169.0</ele><time>2026-03-28T12:44:39Z</time></trkpt><trkpt lat="45.08151292839018" lon="8.29965653767954"><ele>169.0</ele><time>2026-03-28T12:44:40Z</time></trkpt><trkpt lat="45.081450821176325" lon="8.299795080942872"><ele>167.25</ele><time>2026-03-28T12:44:41Z</time></trkpt><trkpt lat="45.081404805022125" lon="8.299950588071251"><ele>165.5</ele><time>2026-03-28T12:44:42Z</time></trkpt><trkpt lat="45.08136693015694" lon="8.300164662359943"><ele>163.75</ele><time>2026-03-28T12:44:43Z</time></trkpt><trkpt lat="45.08134651669688" lon="8.300391664376168"><ele>162.0</ele><time>2026-03-28T12:44:44Z</time></trkpt><trkpt lat="45.081315155894835" lon="8.300628715517844"><ele>161.66666666666666</ele><time>2026-03-28T12:44:45Z</time></trkpt><trkpt lat="45.081279871282305" lon="8.300865859648066"><ele>161.33333333333331</ele><time>2026-03-28T12:44:46Z</time></trkpt><trkpt lat="45.08124681661903" lon="8.301115598228613"><ele>161.0</ele><time>2026-03-28T12:44:47Z</time></trkpt><trkpt lat="45.08122159664349" lon="8.301320494811243"><ele>160.60000000000002</ele><time>2026-03-28T12:44:48Z</time></trkpt><trkpt lat="45.0811992460356" lon="8.301506461126753"><ele>160.20000000000002</ele><time>2026-03-28T12:44:49Z</time></trkpt><trkpt lat="45.08118075657625" lon="8.301645986147982"><ele>159.8</ele><time>2026-03-28T12:44:50Z</time></trkpt><trkpt lat="45.08116686376541" lon="8.301741163767003"><ele>159.4</ele><time>2026-03-28T12:44:51Z</time></trkpt><trkpt lat="45.08107597282922" lon="8.301847507336614"><ele>159.0</ele><time>2026-03-28T12:44:53Z</time></trkpt><trkpt lat="45.080960306422014" lon="8.301776557718869"><ele>159.0</ele><time>2026-03-28T12:44:55Z</time></trkpt><trkpt lat="45.0808711490938" lon="8.301747999932754"><ele>159.0</ele><time>2026-03-28T12:44:56Z</time></trkpt><trkpt lat="45.08075696459577" lon="8.301708082477925"><ele>159.0</ele><time>2026-03-28T12:44:57.001Z</time></trkpt><trkpt lat="45.080677457082444" lon="8.3016875540434"><ele>159.0</ele><time>2026-03-28T12:44:58.001Z</time></trkpt><trkpt lat="45.08060624511802" lon="8.301678660848046"><ele>159.0</ele><time>2026-03-28T12:45:00.001Z</time></trkpt><trkpt lat="45.08056857766768" lon="8.301922691122972"><ele>159.0</ele><time>2026-03-28T12:45:01.001Z</time></trkpt><trkpt lat="45.080541957843266" lon="8.30206885193418"><ele>159.0</ele><time>2026-03-28T12:45:02.001Z</time></trkpt><trkpt lat="45.08050983102362" lon="8.30222208596276"><ele>159.0</ele><time>2026-03-28T12:45:03.001Z</time></trkpt><trkpt lat="45.080469522662334" lon="8.302386671572622"><ele>159.0</ele><time>2026-03-28T12:45:04.001Z</time></trkpt><trkpt lat="45.080422114705065" lon="8.302546013153952"><ele>159.0</ele><time>2026-03-28T12:45:05.001Z</time></trkpt><trkpt lat="45.080374168040095" lon="8.302700479789834"><ele>159.0</ele><time>2026-03-28T12:45:06.001Z</time></trkpt><trkpt lat="45.08032982213622" lon="8.302879166447628"><ele>159.0</ele><time>2026-03-28T12:45:07.001Z</time></trkpt><trkpt lat="45.08028504974068" lon="8.303058609718793"><ele>159.0</ele><time>2026-03-28T12:45:08.001Z</time></trkpt><trkpt lat="45.08023648485535" lon="8.303233378232594"><ele>158.5</ele><time>2026-03-28T12:45:08.999Z</time></trkpt><trkpt lat="45.08019216203812" lon="8.303415612172786"><ele>158.0</ele><time>2026-03-28T12:45:09.999Z</time></trkpt><trkpt lat="45.0801484168606" lon="8.303614202330841"><ele>157.5</ele><time>2026-03-28T12:45:10.999Z</time></trkpt><trkpt lat="45.080107137397626" lon="8.303815242548017"><ele>157.0</ele><time>2026-03-28T12:45:11.999Z</time></trkpt><trkpt lat="45.08007261663587" lon="8.304014385079512"><ele>156.75</ele><time>2026-03-28T12:45:12.999Z</time></trkpt><trkpt lat="45.08003865728082" lon="8.30420392353888"><ele>156.5</ele><time>2026-03-28T12:45:13.999Z</time></trkpt><trkpt lat="45.080011808242446" lon="8.304369296454928"><ele>156.25</ele><time>2026-03-28T12:45:14.999Z</time></trkpt><trkpt lat="45.07998420462147" lon="8.30452125341239"><ele>156.0</ele><time>2026-03-28T12:45:15.999Z</time></trkpt><trkpt lat="45.0799588445471" lon="8.30468152049637"><ele>155.75</ele><time>2026-03-28T12:45:16.999Z</time></trkpt><trkpt lat="45.07992303393854" lon="8.304836654038215"><ele>155.5</ele><time>2026-03-28T12:45:17.999Z</time></trkpt><trkpt lat="45.079870952014154" lon="8.305003435398717"><ele>155.25</ele><time>2026-03-28T12:45:18.999Z</time></trkpt><trkpt lat="45.07979926027652" lon="8.30517474901745"><ele>155.0</ele><time>2026-03-28T12:45:19.999Z</time></trkpt><trkpt lat="45.07973222346861" lon="8.305338870703789"><ele>155.0</ele><time>2026-03-28T12:45:20.999Z</time></trkpt><trkpt lat="45.07963778312359" lon="8.305525584061456"><ele>155.0</ele><time>2026-03-28T12:45:21.999Z</time></trkpt><trkpt lat="45.07955024922287" lon="8.305712729582437"><ele>155.0</ele><time>2026-03-28T12:45:22.999Z</time></trkpt><trkpt lat="45.07945135987827" lon="8.30591662000429"><ele>155.66666666666666</ele><time>2026-03-28T12:45:23.999Z</time></trkpt><trkpt lat="45.07933743166417" lon="8.306146053623785"><ele>156.33333333333334</ele><time>2026-03-28T12:45:24.999Z</time></trkpt><trkpt lat="45.07924102433791" lon="8.306350484853287"><ele>157.0</ele><time>2026-03-28T12:45:25.999Z</time></trkpt><trkpt lat="45.079156426064465" lon="8.306521218155186"><ele>156.79999999999998</ele><time>2026-03-28T12:45:27Z</time></trkpt><trkpt lat="45.07908671697167" lon="8.306660874740835"><ele>156.6</ele><time>2026-03-28T12:45:28Z</time></trkpt><trkpt lat="45.079026973129054" lon="8.306762962110966"><ele>156.39999999999998</ele><time>2026-03-28T12:45:29Z</time></trkpt><trkpt lat="45.078987776893555" lon="8.306845299163008"><ele>156.2</ele><time>2026-03-28T12:45:30Z</time></trkpt><trkpt lat="45.07894847519421" lon="8.306932652830486"><ele>156.0</ele><time>2026-03-28T12:45:32Z</time></trkpt><trkpt lat="45.07902175161124" lon="8.307066891563613"><ele>156.2</ele><time>2026-03-28T12:45:35Z</time></trkpt><trkpt lat="45.07911722051371" lon="8.307106489988906"><ele>156.39999999999998</ele><time>2026-03-28T12:45:36Z</time></trkpt><trkpt lat="45.07922990198081" lon="8.307138633316338"><ele>156.6</ele><time>2026-03-28T12:45:37Z</time></trkpt><trkpt lat="45.079331771772196" lon="8.307184522775572"><ele>156.79999999999998</ele><time>2026-03-28T12:45:38Z</time></trkpt><trkpt lat="45.07941624123728" lon="8.307225339579393"><ele>157.0</ele><time>2026-03-28T12:45:39Z</time></trkpt><trkpt lat="45.07944468484934" lon="8.307379492632512"><ele>157.0</ele><time>2026-03-28T12:45:41Z</time></trkpt><trkpt lat="45.079381081217186" lon="8.307472628821445"><ele>157.0</ele><time>2026-03-28T12:45:42Z</time></trkpt><trkpt lat="45.07933964936557" lon="8.30763189572263"><ele>157.0</ele><time>2026-03-28T12:45:43Z</time></trkpt><trkpt lat="45.079283884803054" lon="8.307778112283168"><ele>157.0</ele><time>2026-03-28T12:45:44Z</time></trkpt><trkpt lat="45.07923526213932" lon="8.307956122889651"><ele>157.25</ele><time>2026-03-28T12:45:45Z</time></trkpt><trkpt lat="45.07918447967135" lon="8.308141320651714"><ele>157.5</ele><time>2026-03-28T12:45:46Z</time></trkpt><trkpt lat="45.079121448277284" lon="8.30831963453587"><ele>157.75</ele><time>2026-03-28T12:45:47Z</time></trkpt><trkpt lat="45.07905723924104" lon="8.3085120949274"><ele>158.0</ele><time>2026-03-28T12:45:48Z</time></trkpt><trkpt lat="45.07899265492382" lon="8.308712574291455"><ele>158.25</ele><time>2026-03-28T12:45:49Z</time></trkpt><trkpt lat="45.07893009508531" lon="8.308914537004943"><ele>158.5</ele><time>2026-03-28T12:45:50Z</time></trkpt><trkpt lat="45.07886902885393" lon="8.30911650699248"><ele>158.75</ele><time>2026-03-28T12:45:51Z</time></trkpt><trkpt lat="45.07882225562956" lon="8.309290647748798"><ele>159.0</ele><time>2026-03-28T12:45:52Z</time></trkpt><trkpt lat="45.07879050865681" lon="8.309442191443745"><ele>159.0</ele><time>2026-03-28T12:45:53Z</time></trkpt><trkpt lat="45.07875195639686" lon="8.309575623044523"><ele>159.0</ele><time>2026-03-28T12:45:54Z</time></trkpt><trkpt lat="45.078696094659264" lon="8.309673038400584"><ele>159.0</ele><time>2026-03-28T12:45:55Z</time></trkpt><trkpt lat="45.078614452232046" lon="8.309752206795567"><ele>159.0</ele><time>2026-03-28T12:45:56Z</time></trkpt><trkpt lat="45.07851871797277" lon="8.309826970912935"><ele>159.0</ele><time>2026-03-28T12:45:57Z</time></trkpt><trkpt lat="45.07840664804506" lon="8.309866049655511"><ele>159.0</ele><time>2026-03-28T12:45:58Z</time></trkpt><trkpt lat="45.07830372087566" lon="8.309854149875724"><ele>159.0</ele><time>2026-03-28T12:45:59Z</time></trkpt><trkpt lat="45.07818750261526" lon="8.309878002492406"><ele>159.0</ele><time>2026-03-28T12:46:00Z</time></trkpt><trkpt lat="45.07805265495398" lon="8.309841135052704"><ele>159.0</ele><time>2026-03-28T12:46:01Z</time></trkpt><trkpt lat="45.077889977332156" lon="8.309776159169108"><ele>158.66666666666666</ele><time>2026-03-28T12:46:02Z</time></trkpt><trkpt lat="45.07771968534753" lon="8.309694091851185"><ele>158.33333333333331</ele><time>2026-03-28T12:46:03Z</time></trkpt><trkpt lat="45.07754113276347" lon="8.309557630147498"><ele>158.0</ele><time>2026-03-28T12:46:04Z</time></trkpt><trkpt lat="45.07738894594387" lon="8.30947201870136"><ele>159.0</ele><time>2026-03-28T12:46:05Z</time></trkpt><trkpt lat="45.07727319931501" lon="8.309406941316162"><ele>160.0</ele><time>2026-03-28T12:46:06Z</time></trkpt><trkpt lat="45.077183184390464" lon="8.309364196937263"><ele>161.0</ele><time>2026-03-28T12:46:07Z</time></trkpt><trkpt lat="45.077119396101466" lon="8.30937918146971"><ele>162.0</ele><time>2026-03-28T12:46:08Z</time></trkpt><trkpt lat="45.07702292508578" lon="8.309475821282048"><ele>163.0</ele><time>2026-03-28T12:46:10Z</time></trkpt><trkpt lat="45.077004834950394" lon="8.309596811961667"><ele>163.0</ele><time>2026-03-28T12:46:11Z</time></trkpt><trkpt lat="45.07697893010397" lon="8.309737547570576"><ele>163.0</ele><time>2026-03-28T12:46:12Z</time></trkpt><trkpt lat="45.07692010430045" lon="8.309889625559324"><ele>163.0</ele><time>2026-03-28T12:46:13Z</time></trkpt><trkpt lat="45.07685184782883" lon="8.310054925727618"><ele>163.0</ele><time>2026-03-28T12:46:14Z</time></trkpt><trkpt lat="45.07677527630029" lon="8.310229532204012"><ele>163.25</ele><time>2026-03-28T12:46:15Z</time></trkpt><trkpt lat="45.0766930177406" lon="8.310399415826437"><ele>163.5</ele><time>2026-03-28T12:46:16Z</time></trkpt><trkpt lat="45.076605456676695" lon="8.310553366037476"><ele>163.75</ele><time>2026-03-28T12:46:17Z</time></trkpt><trkpt lat="45.076508197524596" lon="8.3107005753522"><ele>164.0</ele><time>2026-03-28T12:46:18Z</time></trkpt><trkpt lat="45.07639485559265" lon="8.310821550605862"><ele>166.2</ele><time>2026-03-28T12:46:19Z</time></trkpt><trkpt lat="45.07628204491908" lon="8.310913312221192"><ele>168.39999999999998</ele><time>2026-03-28T12:46:20Z</time></trkpt><trkpt lat="45.0761994715236" lon="8.31089693076808"><ele>170.6</ele><time>2026-03-28T12:46:22.001Z</time></trkpt><trkpt lat="45.07611734649323" lon="8.310858387163568"><ele>172.8</ele><time>2026-03-28T12:46:24.001Z</time></trkpt><trkpt lat="45.07604107335244" lon="8.310835209918434"><ele>175.0</ele><time>2026-03-28T12:46:26.001Z</time></trkpt><trkpt lat="45.07594190866914" lon="8.310767270490022"><ele>175.0</ele><time>2026-03-28T12:46:27.001Z</time></trkpt><trkpt lat="45.0758252136255" lon="8.310653892289478"><ele>175.0</ele><time>2026-03-28T12:46:28.001Z</time></trkpt><trkpt lat="45.07574470074275" lon="8.310540880470572"><ele>175.0</ele><time>2026-03-28T12:46:29.001Z</time></trkpt><trkpt lat="45.07565340517777" lon="8.310376093596101"><ele>175.0</ele><time>2026-03-28T12:46:30.001Z</time></trkpt><trkpt lat="45.075546676876165" lon="8.310213812419413"><ele>177.0</ele><time>2026-03-28T12:46:31.001Z</time></trkpt><trkpt lat="45.07544815129151" lon="8.310074036017664"><ele>179.0</ele><time>2026-03-28T12:46:32.001Z</time></trkpt><trkpt lat="45.074856735546525" lon="8.310432088761122"><ele>179.75</ele><time>2026-03-28T12:46:33.001Z</time></trkpt><trkpt lat="45.074722559950295" lon="8.310346327090343"><ele>180.5</ele><time>2026-03-28T12:46:34.001Z</time></trkpt><trkpt lat="45.074610647029616" lon="8.310239397892312"><ele>181.25</ele><time>2026-03-28T12:46:35.001Z</time></trkpt><trkpt lat="45.07451777298622" lon="8.310160410650195"><ele>182.0</ele><time>2026-03-28T12:46:36.001Z</time></trkpt><trkpt lat="45.07442799976436" lon="8.31007551512842"><ele>182.0</ele><time>2026-03-28T12:46:37.001Z</time></trkpt><trkpt lat="45.07434818124612" lon="8.30999460636742"><ele>182.0</ele><time>2026-03-28T12:46:38.001Z</time></trkpt><trkpt lat="45.074234867940724" lon="8.30990450453943"><ele>182.0</ele><time>2026-03-28T12:46:39.001Z</time></trkpt><trkpt lat="45.074119626028114" lon="8.30979587115599"><ele>182.0</ele><time>2026-03-28T12:46:40.001Z</time></trkpt><trkpt lat="45.074003650263215" lon="8.309680322522302"><ele>189.25</ele><time>2026-03-28T12:46:41.001Z</time></trkpt><trkpt lat="45.07388895566571" lon="8.30957574640079"><ele>196.5</ele><time>2026-03-28T12:46:42.001Z</time></trkpt><trkpt lat="45.07378891453885" lon="8.309503687266696"><ele>203.75</ele><time>2026-03-28T12:46:43.001Z</time></trkpt><trkpt lat="45.0736859634568" lon="8.309476754446573"><ele>211.0</ele><time>2026-03-28T12:46:44.001Z</time></trkpt><trkpt lat="45.07356589345245" lon="8.30947693462051"><ele>211.0</ele><time>2026-03-28T12:46:45.001Z</time></trkpt><trkpt lat="45.073424683112684" lon="8.309497473331396"><ele>211.0</ele><time>2026-03-28T12:46:46.001Z</time></trkpt><trkpt lat="45.07327802406734" lon="8.309483402876678"><ele>211.0</ele><time>2026-03-28T12:46:47.001Z</time></trkpt><trkpt lat="45.07312437199437" lon="8.309462149211504"><ele>211.0</ele><time>2026-03-28T12:46:48.001Z</time></trkpt><trkpt lat="45.07296745491167" lon="8.309432848778433"><ele>213.5</ele><time>2026-03-28T12:46:49.001Z</time></trkpt><trkpt lat="45.07282572966749" lon="8.309417844358986"><ele>216.0</ele><time>2026-03-28T12:46:50.001Z</time></trkpt><trkpt lat="45.07269412788911" lon="8.30943701358028"><ele>218.5</ele><time>2026-03-28T12:46:51.001Z</time></trkpt><trkpt lat="45.07256536038957" lon="8.309429106207924"><ele>221.0</ele><time>2026-03-28T12:46:52.001Z</time></trkpt><trkpt lat="45.072428945142974" lon="8.309403177611243"><ele>223.5</ele><time>2026-03-28T12:46:53.001Z</time></trkpt><trkpt lat="45.07228011499752" lon="8.309381539923807"><ele>226.0</ele><time>2026-03-28T12:46:54.001Z</time></trkpt><trkpt lat="45.07215013905584" lon="8.309362831071837"><ele>228.5</ele><time>2026-03-28T12:46:55.001Z</time></trkpt><trkpt lat="45.07205116631707" lon="8.309322885525434"><ele>231.0</ele><time>2026-03-28T12:46:56.001Z</time></trkpt><trkpt lat="45.071955889092074" lon="8.30928538605931"><ele>231.0</ele><time>2026-03-28T12:46:58.001Z</time></trkpt><trkpt lat="45.071958944935076" lon="8.309149096223612"><ele>231.00000000000003</ele><time>2026-03-28T12:47:00.001Z</time></trkpt><trkpt lat="45.071991939695955" lon="8.30907022487337"><ele>231.00000000000003</ele><time>2026-03-28T12:47:01.001Z</time></trkpt><trkpt lat="45.07209392880537" lon="8.308960971568393"><ele>231.0</ele><time>2026-03-28T12:47:03.001Z</time></trkpt><trkpt lat="45.07216413761172" lon="8.308925713432663"><ele>231.0</ele><time>2026-03-28T12:47:04.001Z</time></trkpt><trkpt lat="45.07225027855614" lon="8.308858547868207"><ele>232.4</ele><time>2026-03-28T12:47:05.001Z</time></trkpt><trkpt lat="45.07234046181323" lon="8.308751072770788"><ele>233.8</ele><time>2026-03-28T12:47:06.001Z</time></trkpt><trkpt lat="45.07241715228626" lon="8.308666234676203"><ele>235.20000000000002</ele><time>2026-03-28T12:47:07.001Z</time></trkpt><trkpt lat="45.072496237385984" lon="8.308587213049641"><ele>236.60000000000002</ele><time>2026-03-28T12:47:08.001Z</time></trkpt><trkpt lat="45.072614154939885" lon="8.308529940055847"><ele>238.0</ele><time>2026-03-28T12:47:09.001Z</time></trkpt><trkpt lat="45.07271596466267" lon="8.30847378171588"><ele>238.0</ele><time>2026-03-28T12:47:10.001Z</time></trkpt><trkpt lat="45.07282806763588" lon="8.30839138277386"><ele>238.0</ele><time>2026-03-28T12:47:11.001Z</time></trkpt><trkpt lat="45.07291841850438" lon="8.308337620298513"><ele>238.0</ele><time>2026-03-28T12:47:12.001Z</time></trkpt><trkpt lat="45.073000855371255" lon="8.308336871923606"><ele>238.0</ele><time>2026-03-28T12:47:13.001Z</time></trkpt><trkpt lat="45.07308422976303" lon="8.308382886500638"><ele>238.0</ele><time>2026-03-28T12:47:14.001Z</time></trkpt><trkpt lat="45.073167166776656" lon="8.30837102265957"><ele>238.0</ele><time>2026-03-28T12:47:16Z</time></trkpt><trkpt lat="45.073094030273175" lon="8.308264009211182"><ele>238.0</ele><time>2026-03-28T12:47:39Z</time></trkpt><trkpt lat="45.07303951510058" lon="8.30820600871302"><ele>238.0</ele><time>2026-03-28T12:47:40Z</time></trkpt><trkpt lat="45.07298185815709" lon="8.308156713949774"><ele>238.0</ele><time>2026-03-28T12:47:41Z</time></trkpt><trkpt lat="45.07289715310927" lon="8.308097495273902"><ele>238.0</ele><time>2026-03-28T12:47:42Z</time></trkpt><trkpt lat="45.07280007766669" lon="8.307998336058322"><ele>237.8</ele><time>2026-03-28T12:47:43Z</time></trkpt><trkpt lat="45.0727084245329" lon="8.307910130790637"><ele>237.60000000000002</ele><time>2026-03-28T12:47:44Z</time></trkpt><trkpt lat="45.07260996276744" lon="8.307810839015094"><ele>237.39999999999998</ele><time>2026-03-28T12:47:45Z</time></trkpt><trkpt lat="45.072539318612996" lon="8.307755007931467"><ele>237.2</ele><time>2026-03-28T12:47:46Z</time></trkpt><trkpt lat="45.07245697922459" lon="8.30771991444124"><ele>237.0</ele><time>2026-03-28T12:47:47Z</time></trkpt><trkpt lat="45.072374361921376" lon="8.307716319480441"><ele>239.16666666666666</ele><time>2026-03-28T12:47:48Z</time></trkpt><trkpt lat="45.072298576523146" lon="8.307716201093989"><ele>241.33333333333331</ele><time>2026-03-28T12:47:49Z</time></trkpt><trkpt lat="45.0722330044493" lon="8.30773544211202"><ele>243.5</ele><time>2026-03-28T12:47:50Z</time></trkpt><trkpt lat="45.07214710655326" lon="8.307785754390093"><ele>245.66666666666666</ele><time>2026-03-28T12:47:51Z</time></trkpt><trkpt lat="45.07206461962492" lon="8.307797755243092"><ele>247.83333333333331</ele><time>2026-03-28T12:47:52Z</time></trkpt><trkpt lat="45.071988074910735" lon="8.307756246763294"><ele>250.0</ele><time>2026-03-28T12:47:53Z</time></trkpt><trkpt lat="45.0719080155061" lon="8.307689244143134"><ele>250.0</ele><time>2026-03-28T12:47:54Z</time></trkpt><trkpt lat="45.07182307895545" lon="8.307624527468603"><ele>250.0</ele><time>2026-03-28T12:47:55Z</time></trkpt><trkpt lat="45.07176666357769" lon="8.307527935928459"><ele>250.0</ele><time>2026-03-28T12:47:56Z</time></trkpt><trkpt lat="45.07170941651608" lon="8.307412045289997"><ele>250.0</ele><time>2026-03-28T12:47:57Z</time></trkpt><trkpt lat="45.07164249568992" lon="8.30730288766227"><ele>250.0</ele><time>2026-03-28T12:47:58Z</time></trkpt><trkpt lat="45.07159537090787" lon="8.307164292388325"><ele>250.6</ele><time>2026-03-28T12:47:59Z</time></trkpt><trkpt lat="45.0715387558673" lon="8.30703772398809"><ele>251.2</ele><time>2026-03-28T12:48:00Z</time></trkpt><trkpt lat="45.071478287604535" lon="8.306925918964787"><ele>251.8</ele><time>2026-03-28T12:48:01Z</time></trkpt><trkpt lat="45.07141784533723" lon="8.306820774399219"><ele>252.4</ele><time>2026-03-28T12:48:02Z</time></trkpt><trkpt lat="45.0713713979724" lon="8.306714661603085"><ele>253.0</ele><time>2026-03-28T12:48:03Z</time></trkpt><trkpt lat="45.071314375906695" lon="8.306620713888995"><ele>253.0</ele><time>2026-03-28T12:48:04Z</time></trkpt><trkpt lat="45.07125055718904" lon="8.306502898772239"><ele>253.0</ele><time>2026-03-28T12:48:05Z</time></trkpt><trkpt lat="45.07118003693476" lon="8.306378358071095"><ele>253.0</ele><time>2026-03-28T12:48:06Z</time></trkpt><trkpt lat="45.07110757476644" lon="8.306252107258862"><ele>253.0</ele><time>2026-03-28T12:48:07Z</time></trkpt><trkpt lat="45.07104099823807" lon="8.306128594686749"><ele>253.0</ele><time>2026-03-28T12:48:08Z</time></trkpt><trkpt lat="45.070948051989845" lon="8.306007172934216"><ele>254.75</ele><time>2026-03-28T12:48:09Z</time></trkpt><trkpt lat="45.070860761400134" lon="8.305887608767549"><ele>256.5</ele><time>2026-03-28T12:48:10Z</time></trkpt><trkpt lat="45.07077340503991" lon="8.305758565128981"><ele>258.25</ele><time>2026-03-28T12:48:11Z</time></trkpt><trkpt lat="45.0706835929744" lon="8.305663720538835"><ele>260.0</ele><time>2026-03-28T12:48:12Z</time></trkpt><trkpt lat="45.07058060619168" lon="8.305558516609851"><ele>262.6</ele><time>2026-03-28T12:48:13Z</time></trkpt><trkpt lat="45.070494602131696" lon="8.305471849181968"><ele>265.2</ele><time>2026-03-28T12:48:14Z</time></trkpt><trkpt lat="45.07043606630037" lon="8.305379826367888"><ele>267.8</ele><time>2026-03-28T12:48:15Z</time></trkpt><trkpt lat="45.07038160695644" lon="8.305301778028905"><ele>270.4</ele><time>2026-03-28T12:48:16Z</time></trkpt><trkpt lat="45.07031145460016" lon="8.30521070550476"><ele>273.0</ele><time>2026-03-28T12:48:17Z</time></trkpt><trkpt lat="45.07024513063406" lon="8.305086375198838"><ele>273.0</ele><time>2026-03-28T12:48:18Z</time></trkpt><trkpt lat="45.07017642610024" lon="8.304947917610702"><ele>273.0</ele><time>2026-03-28T12:48:19Z</time></trkpt><trkpt lat="45.07010833950636" lon="8.304808793821458"><ele>273.0</ele><time>2026-03-28T12:48:20Z</time></trkpt><trkpt lat="45.070025364393395" lon="8.304678287336495"><ele>273.0</ele><time>2026-03-28T12:48:21.001Z</time></trkpt><trkpt lat="45.06994614937094" lon="8.304602048141437"><ele>269.25</ele><time>2026-03-28T12:48:22.001Z</time></trkpt><trkpt lat="45.0698572521657" lon="8.30449455907608"><ele>265.5</ele><time>2026-03-28T12:48:23.001Z</time></trkpt><trkpt lat="45.06974746911555" lon="8.304410541584776"><ele>261.75</ele><time>2026-03-28T12:48:24.001Z</time></trkpt><trkpt lat="45.0696322741762" lon="8.304317659113172"><ele>258.0</ele><time>2026-03-28T12:48:25.001Z</time></trkpt><trkpt lat="45.06951362330796" lon="8.304231598784018"><ele>258.0</ele><time>2026-03-28T12:48:26.001Z</time></trkpt><trkpt lat="45.06940466273368" lon="8.304142131526337"><ele>258.0</ele><time>2026-03-28T12:48:27.001Z</time></trkpt><trkpt lat="45.069294621467094" lon="8.304048122941795"><ele>258.0</ele><time>2026-03-28T12:48:28.001Z</time></trkpt><trkpt lat="45.06920429517237" lon="8.30396662672434"><ele>258.0</ele><time>2026-03-28T12:48:29.001Z</time></trkpt><trkpt lat="45.069117983688834" lon="8.303895745833918"><ele>256.8</ele><time>2026-03-28T12:48:30.001Z</time></trkpt><trkpt lat="45.06902709015167" lon="8.30383576600394"><ele>255.60000000000002</ele><time>2026-03-28T12:48:31.001Z</time></trkpt><trkpt lat="45.06895103056116" lon="8.303757235310316"><ele>254.39999999999998</ele><time>2026-03-28T12:48:32.001Z</time></trkpt><trkpt lat="45.06887644112759" lon="8.303680242804266"><ele>253.2</ele><time>2026-03-28T12:48:33.001Z</time></trkpt><trkpt lat="45.06879916913935" lon="8.303612595557404"><ele>252.0</ele><time>2026-03-28T12:48:34.001Z</time></trkpt><trkpt lat="45.06872815441855" lon="8.303543323907315"><ele>252.0</ele><time>2026-03-28T12:48:35.001Z</time></trkpt><trkpt lat="45.06864169317286" lon="8.303485427245404"><ele>252.0</ele><time>2026-03-28T12:48:36.001Z</time></trkpt><trkpt lat="45.06855843026995" lon="8.303439955837035"><ele>252.0</ele><time>2026-03-28T12:48:37.001Z</time></trkpt><trkpt lat="45.068502902157675" lon="8.303356138577318"><ele>252.0</ele><time>2026-03-28T12:48:38.001Z</time></trkpt><trkpt lat="45.068457717769796" lon="8.303281777149936"><ele>252.0</ele><time>2026-03-28T12:48:39.001Z</time></trkpt><trkpt lat="45.06841146572143" lon="8.303197379766463"><ele>252.0</ele><time>2026-03-28T12:48:40.001Z</time></trkpt><trkpt lat="45.06836262856697" lon="8.303132490443753"><ele>252.0</ele><time>2026-03-28T12:48:41.001Z</time></trkpt><trkpt lat="45.068308501395826" lon="8.303044513027462"><ele>252.0</ele><time>2026-03-28T12:48:43.001Z</time></trkpt><trkpt lat="45.068345021455144" lon="8.303241349994941"><ele>252.0</ele><time>2026-03-28T12:48:46.001Z</time></trkpt><trkpt lat="45.06837082087846" lon="8.303365895372051"><ele>252.0</ele><time>2026-03-28T12:48:47.001Z</time></trkpt><trkpt lat="45.06843010413736" lon="8.303496739939476"><ele>252.0</ele><time>2026-03-28T12:48:48.001Z</time></trkpt><trkpt lat="45.06850407685422" lon="8.303666869854164"><ele>252.0</ele><time>2026-03-28T12:48:49.001Z</time></trkpt><trkpt lat="45.06858807647239" lon="8.303781477704268"><ele>252.0</ele><time>2026-03-28T12:48:50.001Z</time></trkpt><trkpt lat="45.068638255838025" lon="8.303912648480669"><ele>252.0</ele><time>2026-03-28T12:48:51.001Z</time></trkpt><trkpt lat="45.06863866530323" lon="8.304055403612317"><ele>252.0</ele><time>2026-03-28T12:48:52.001Z</time></trkpt><trkpt lat="45.06861398351185" lon="8.304213072258054"><ele>252.0</ele><time>2026-03-28T12:48:53.001Z</time></trkpt><trkpt lat="45.06859147680596" lon="8.304367475980865"><ele>249.25</ele><time>2026-03-28T12:48:54.001Z</time></trkpt><trkpt lat="45.068563625359296" lon="8.304547748306833"><ele>246.5</ele><time>2026-03-28T12:48:55.001Z</time></trkpt><trkpt lat="45.068512403400476" lon="8.304684527605469"><ele>243.75</ele><time>2026-03-28T12:48:56.001Z</time></trkpt><trkpt lat="45.068477954132256" lon="8.304851756691354"><ele>241.0</ele><time>2026-03-28T12:48:57.001Z</time></trkpt><trkpt lat="45.06845745851173" lon="8.305006352182595"><ele>238.75</ele><time>2026-03-28T12:48:58.001Z</time></trkpt><trkpt lat="45.06847465219879" lon="8.305171985477573"><ele>236.5</ele><time>2026-03-28T12:48:59.001Z</time></trkpt><trkpt lat="45.06848432979302" lon="8.305344052872968"><ele>234.25</ele><time>2026-03-28T12:49:00.001Z</time></trkpt><trkpt lat="45.06848118921185" lon="8.305519956159044"><ele>232.0</ele><time>2026-03-28T12:49:01.001Z</time></trkpt><trkpt lat="45.068434683873036" lon="8.305710845673929"><ele>229.5</ele><time>2026-03-28T12:49:02.001Z</time></trkpt><trkpt lat="45.06842057571282" lon="8.30587514005766"><ele>227.0</ele><time>2026-03-28T12:49:03.001Z</time></trkpt><trkpt lat="45.068437586941194" lon="8.30603654118891"><ele>224.5</ele><time>2026-03-28T12:49:04.001Z</time></trkpt><trkpt lat="45.06847893437335" lon="8.306174413184182"><ele>222.0</ele><time>2026-03-28T12:49:05.001Z</time></trkpt><trkpt lat="45.06854897288672" lon="8.306308419926113"><ele>219.5</ele><time>2026-03-28T12:49:06.001Z</time></trkpt><trkpt lat="45.06862901159788" lon="8.306439854049865"><ele>217.0</ele><time>2026-03-28T12:49:07.001Z</time></trkpt><trkpt lat="45.06872724704058" lon="8.306570793748172"><ele>214.5</ele><time>2026-03-28T12:49:08.001Z</time></trkpt><trkpt lat="45.06882696870014" lon="8.30670099210887"><ele>212.0</ele><time>2026-03-28T12:49:09.001Z</time></trkpt><trkpt lat="45.06889541823153" lon="8.306859021685336"><ele>212.0</ele><time>2026-03-28T12:49:10.001Z</time></trkpt><trkpt lat="45.068960845695024" lon="8.307015685203272"><ele>212.0</ele><time>2026-03-28T12:49:11.001Z</time></trkpt><trkpt lat="45.06901515130389" lon="8.307177242106885"><ele>212.0</ele><time>2026-03-28T12:49:12.001Z</time></trkpt><trkpt lat="45.0690342467073" lon="8.307309153247907"><ele>212.0</ele><time>2026-03-28T12:49:13.001Z</time></trkpt><trkpt lat="45.06905407286866" lon="8.307410508765429"><ele>212.0</ele><time>2026-03-28T12:49:14.001Z</time></trkpt><trkpt lat="45.06907496744838" lon="8.307517326585664"><ele>213.2</ele><time>2026-03-28T12:49:15.001Z</time></trkpt><trkpt lat="45.06911169138227" lon="8.307614774588767"><ele>214.39999999999998</ele><time>2026-03-28T12:49:16.001Z</time></trkpt><trkpt lat="45.069178412982204" lon="8.30768353563438"><ele>215.60000000000002</ele><time>2026-03-28T12:49:17.001Z</time></trkpt><trkpt lat="45.06930227235231" lon="8.307614039238587"><ele>216.8</ele><time>2026-03-28T12:49:18.001Z</time></trkpt><trkpt lat="45.06937901193379" lon="8.30755523869854"><ele>218.0</ele><time>2026-03-28T12:49:19.001Z</time></trkpt><trkpt lat="45.069459543786515" lon="8.307531764695572"><ele>218.0</ele><time>2026-03-28T12:49:20.001Z</time></trkpt><trkpt lat="45.069527698180934" lon="8.307524175819228"><ele>218.0</ele><time>2026-03-28T12:49:21Z</time></trkpt><trkpt lat="45.06961220019824" lon="8.307581949792363"><ele>218.0</ele><time>2026-03-28T12:49:23Z</time></trkpt><trkpt lat="45.06959394268498" lon="8.307709727659203"><ele>218.0</ele><time>2026-03-28T12:49:24Z</time></trkpt><trkpt lat="45.069593692107546" lon="8.307839943973025"><ele>218.0</ele><time>2026-03-28T12:49:25Z</time></trkpt><trkpt lat="45.06955541976586" lon="8.307982422292316"><ele>215.5</ele><time>2026-03-28T12:49:26Z</time></trkpt><trkpt lat="45.06948266859303" lon="8.30809287344366"><ele>213.0</ele><time>2026-03-28T12:49:27Z</time></trkpt><trkpt lat="45.06937698212802" lon="8.308187243928192"><ele>210.5</ele><time>2026-03-28T12:49:28Z</time></trkpt><trkpt lat="45.069260678517054" lon="8.308323624207333"><ele>208.0</ele><time>2026-03-28T12:49:29Z</time></trkpt><trkpt lat="45.06913452949474" lon="8.30846952429293"><ele>205.33333333333331</ele><time>2026-03-28T12:49:30Z</time></trkpt><trkpt lat="45.068996984212994" lon="8.308626441413924"><ele>202.66666666666669</ele><time>2026-03-28T12:49:31Z</time></trkpt><trkpt lat="45.06886528649682" lon="8.30880315869501"><ele>200.0</ele><time>2026-03-28T12:49:32Z</time></trkpt><trkpt lat="45.06872518662099" lon="8.308934381182388"><ele>199.25</ele><time>2026-03-28T12:49:33Z</time></trkpt><trkpt lat="45.06860707371976" lon="8.309062615933339"><ele>198.5</ele><time>2026-03-28T12:49:34Z</time></trkpt><trkpt lat="45.0685131530625" lon="8.309164062036261"><ele>197.75</ele><time>2026-03-28T12:49:35Z</time></trkpt><trkpt lat="45.06845284515829" lon="8.309274233752788"><ele>197.0</ele><time>2026-03-28T12:49:36Z</time></trkpt><trkpt lat="45.068391996301806" lon="8.309365687873722"><ele>197.0</ele><time>2026-03-28T12:49:37Z</time></trkpt><trkpt lat="45.06836697765321" lon="8.309496455491583"><ele>197.0</ele><time>2026-03-28T12:49:38Z</time></trkpt><trkpt lat="45.068347641738065" lon="8.30964893157289"><ele>197.0</ele><time>2026-03-28T12:49:39Z</time></trkpt><trkpt lat="45.068336613093805" lon="8.30983482224901"><ele>197.0</ele><time>2026-03-28T12:49:40Z</time></trkpt><trkpt lat="45.068341344020084" lon="8.310029225919685"><ele>196.0</ele><time>2026-03-28T12:49:41Z</time></trkpt><trkpt lat="45.068341240964216" lon="8.310228220861523"><ele>195.0</ele><time>2026-03-28T12:49:42Z</time></trkpt><trkpt lat="45.06835680846694" lon="8.31044125920519"><ele>194.0</ele><time>2026-03-28T12:49:43Z</time></trkpt><trkpt lat="45.06836433826643" lon="8.310697096889005"><ele>194.0</ele><time>2026-03-28T12:49:44Z</time></trkpt><trkpt lat="45.06835023397162" lon="8.310979755084226"><ele>194.0</ele><time>2026-03-28T12:49:45Z</time></trkpt><trkpt lat="45.068333317916824" lon="8.311261521031984"><ele>194.0</ele><time>2026-03-28T12:49:46Z</time></trkpt><trkpt lat="45.06831616841692" lon="8.311551355611527"><ele>194.0</ele><time>2026-03-28T12:49:47Z</time></trkpt><trkpt lat="45.06831500321985" lon="8.311805271560724"><ele>194.0</ele><time>2026-03-28T12:49:48Z</time></trkpt><trkpt lat="45.0683208986776" lon="8.312034381481602"><ele>194.0</ele><time>2026-03-28T12:49:49Z</time></trkpt><trkpt lat="45.06833710198621" lon="8.312238863428957"><ele>193.39999999999998</ele><time>2026-03-28T12:49:50Z</time></trkpt><trkpt lat="45.06834057231418" lon="8.31241833659058"><ele>192.8</ele><time>2026-03-28T12:49:51Z</time></trkpt><trkpt lat="45.068350926553805" lon="8.31257911257495"><ele>192.2</ele><time>2026-03-28T12:49:52Z</time></trkpt><trkpt lat="45.06835326502837" lon="8.31270432243967"><ele>191.60000000000002</ele><time>2026-03-28T12:49:53Z</time></trkpt><trkpt lat="45.06835129201187" lon="8.312810944592975"><ele>191.0</ele><time>2026-03-28T12:49:54Z</time></trkpt><trkpt lat="45.0683085287676" lon="8.31290935029289"><ele>191.75</ele><time>2026-03-28T12:49:56Z</time></trkpt><trkpt lat="45.06816028999485" lon="8.312812757466748"><ele>192.5</ele><time>2026-03-28T12:49:58Z</time></trkpt><trkpt lat="45.06805255432555" lon="8.312753421175769"><ele>193.25</ele><time>2026-03-28T12:49:59Z</time></trkpt><trkpt lat="45.06792850303721" lon="8.312690752663695"><ele>194.0</ele><time>2026-03-28T12:50:00Z</time></trkpt><trkpt lat="45.06782022470196" lon="8.312597896212734"><ele>194.0</ele><time>2026-03-28T12:50:01Z</time></trkpt><trkpt lat="45.06773933950633" lon="8.312495406420013"><ele>194.0</ele><time>2026-03-28T12:50:02Z</time></trkpt><trkpt lat="45.06765533632221" lon="8.312422526547515"><ele>194.0</ele><time>2026-03-28T12:50:03Z</time></trkpt><trkpt lat="45.067575450934406" lon="8.312404507780222"><ele>194.0</ele><time>2026-03-28T12:50:04Z</time></trkpt><trkpt lat="45.06748978986464" lon="8.312437329342284"><ele>194.0</ele><time>2026-03-28T12:50:05Z</time></trkpt><trkpt lat="45.06740139749706" lon="8.312492275542482"><ele>197.6</ele><time>2026-03-28T12:50:06Z</time></trkpt><trkpt lat="45.06729515854867" lon="8.312534090139101"><ele>201.2</ele><time>2026-03-28T12:50:07Z</time></trkpt><trkpt lat="45.06719624425195" lon="8.312589245440607"><ele>204.79999999999998</ele><time>2026-03-28T12:50:08Z</time></trkpt><trkpt lat="45.06711702770047" lon="8.312610811067351"><ele>208.39999999999998</ele><time>2026-03-28T12:50:09Z</time></trkpt><trkpt lat="45.06706724062965" lon="8.31273623041833"><ele>212.0</ele><time>2026-03-28T12:50:11Z</time></trkpt><trkpt lat="45.06705883152612" lon="8.312828130489521"><ele>212.00000000000003</ele><time>2026-03-28T12:50:13Z</time></trkpt><trkpt lat="45.06709057176637" lon="8.31292124878884"><ele>212.0</ele><time>2026-03-28T12:50:14.001Z</time></trkpt><trkpt lat="45.067092157788565" lon="8.3130295031915"><ele>212.0</ele><time>2026-03-28T12:50:15.001Z</time></trkpt><trkpt lat="45.06704542942355" lon="8.313127123405401"><ele>212.0</ele><time>2026-03-28T12:50:16.001Z</time></trkpt><trkpt lat="45.06694188042029" lon="8.313187081335768"><ele>212.00000000000003</ele><time>2026-03-28T12:50:17.001Z</time></trkpt><trkpt lat="45.06685042482766" lon="8.313249437852019"><ele>212.0</ele><time>2026-03-28T12:50:18.001Z</time></trkpt><trkpt lat="45.06678045397499" lon="8.313294538470359"><ele>213.39999999999998</ele><time>2026-03-28T12:50:19.001Z</time></trkpt><trkpt lat="45.06672271805009" lon="8.31333424287004"><ele>214.79999999999998</ele><time>2026-03-28T12:50:20.001Z</time></trkpt><trkpt lat="45.0666293034158" lon="8.313347375923646"><ele>216.2</ele><time>2026-03-28T12:50:21.001Z</time></trkpt><trkpt lat="45.066529440708" lon="8.3133641135435"><ele>217.6</ele><time>2026-03-28T12:50:22.001Z</time></trkpt><trkpt lat="45.06644051839352" lon="8.313375498037633"><ele>219.0</ele><time>2026-03-28T12:50:23.001Z</time></trkpt><trkpt lat="45.06633250911046" lon="8.31339978515063"><ele>221.75</ele><time>2026-03-28T12:50:24.001Z</time></trkpt><trkpt lat="45.06620673151008" lon="8.313419568903452"><ele>224.5</ele><time>2026-03-28T12:50:25.001Z</time></trkpt><trkpt lat="45.06608490389706" lon="8.313414184172741"><ele>227.25</ele><time>2026-03-28T12:50:26.001Z</time></trkpt><trkpt lat="45.06598079341369" lon="8.313383286041915"><ele>230.0</ele><time>2026-03-28T12:50:27.001Z</time></trkpt><trkpt lat="45.06588115219312" lon="8.313331905765608"><ele>230.0</ele><time>2026-03-28T12:50:28.001Z</time></trkpt><trkpt lat="45.06578239427525" lon="8.313236830140168"><ele>230.0</ele><time>2026-03-28T12:50:29.001Z</time></trkpt><trkpt lat="45.065695048795384" lon="8.313138858199602"><ele>230.0</ele><time>2026-03-28T12:50:30.001Z</time></trkpt><trkpt lat="45.06560945266502" lon="8.313030432206657"><ele>230.0</ele><time>2026-03-28T12:50:31.001Z</time></trkpt><trkpt lat="45.065501985679845" lon="8.312959476582323"><ele>232.8</ele><time>2026-03-28T12:50:32.001Z</time></trkpt><trkpt lat="45.065378568913474" lon="8.312944430506922"><ele>235.6</ele><time>2026-03-28T12:50:33.001Z</time></trkpt><trkpt lat="45.06527314287379" lon="8.31293934357825"><ele>238.39999999999998</ele><time>2026-03-28T12:50:34.001Z</time></trkpt><trkpt lat="45.065171231257935" lon="8.31288900895193"><ele>241.2</ele><time>2026-03-28T12:50:35.001Z</time></trkpt><trkpt lat="45.065113963737836" lon="8.31278988007361"><ele>244.0</ele><time>2026-03-28T12:50:36.001Z</time></trkpt><trkpt lat="45.06501995635728" lon="8.312675351698587"><ele>244.39999999999998</ele><time>2026-03-28T12:50:38.001Z</time></trkpt><trkpt lat="45.064933356111716" lon="8.312645448189192"><ele>244.79999999999998</ele><time>2026-03-28T12:50:39.001Z</time></trkpt><trkpt lat="45.06483380788661" lon="8.312621640325974"><ele>245.20000000000002</ele><time>2026-03-28T12:50:40.001Z</time></trkpt><trkpt lat="45.0647469085889" lon="8.312588622463165"><ele>245.60000000000002</ele><time>2026-03-28T12:50:41.001Z</time></trkpt><trkpt lat="45.06465176709564" lon="8.312569149836227"><ele>246.0</ele><time>2026-03-28T12:50:42.001Z</time></trkpt><trkpt lat="45.064551275099596" lon="8.31258658986762"><ele>246.0</ele><time>2026-03-28T12:50:43.001Z</time></trkpt><trkpt lat="45.06442327839882" lon="8.312631998961265"><ele>246.00000000000003</ele><time>2026-03-28T12:50:44.001Z</time></trkpt><trkpt lat="45.06433600769837" lon="8.312693664138756"><ele>246.00000000000003</ele><time>2026-03-28T12:50:45.001Z</time></trkpt><trkpt lat="45.06427091727261" lon="8.312742082186693"><ele>246.0</ele><time>2026-03-28T12:50:46.001Z</time></trkpt><trkpt lat="45.06419707502878" lon="8.312758663144264"><ele>246.0</ele><time>2026-03-28T12:50:47.001Z</time></trkpt><trkpt lat="45.06410727910192" lon="8.312784640162802"><ele>250.0</ele><time>2026-03-28T12:50:48.001Z</time></trkpt><trkpt lat="45.06402235060529" lon="8.31283055655251"><ele>254.00000000000003</ele><time>2026-03-28T12:50:49.001Z</time></trkpt><trkpt lat="45.0639404833763" lon="8.31288765732204"><ele>258.0</ele><time>2026-03-28T12:50:50.001Z</time></trkpt><trkpt lat="45.06384682280379" lon="8.312963410384489"><ele>262.0</ele><time>2026-03-28T12:50:51.001Z</time></trkpt><trkpt lat="45.06374290643035" lon="8.313045685037501"><ele>266.0</ele><time>2026-03-28T12:50:52.001Z</time></trkpt><trkpt lat="45.06365862617362" lon="8.313095710878054"><ele>266.8</ele><time>2026-03-28T12:50:53.001Z</time></trkpt><trkpt lat="45.06360126196714" lon="8.313140066602223"><ele>267.6</ele><time>2026-03-28T12:50:54.001Z</time></trkpt><trkpt lat="45.063594336136504" lon="8.313299209770046"><ele>268.4</ele><time>2026-03-28T12:50:56.001Z</time></trkpt><trkpt lat="45.063627159751604" lon="8.31344677498513"><ele>269.2</ele><time>2026-03-28T12:50:57.001Z</time></trkpt><trkpt lat="45.06366743925301" lon="8.31356071034463"><ele>270.0</ele><time>2026-03-28T12:50:58.001Z</time></trkpt><trkpt lat="45.06362884434197" lon="8.31373721161747"><ele>270.0</ele><time>2026-03-28T12:51:00.001Z</time></trkpt><trkpt lat="45.06359106538832" lon="8.313848727673621"><ele>270.0</ele><time>2026-03-28T12:51:01.001Z</time></trkpt><trkpt lat="45.06356550666812" lon="8.313963735120502"><ele>270.0</ele><time>2026-03-28T12:51:02.001Z</time></trkpt><trkpt lat="45.06354651272506" lon="8.314082248980174"><ele>270.0</ele><time>2026-03-28T12:51:03.001Z</time></trkpt><trkpt lat="45.06353662524588" lon="8.314224149825373"><ele>270.0</ele><time>2026-03-28T12:51:04.001Z</time></trkpt><trkpt lat="45.063540493180184" lon="8.314381883988787"><ele>270.5</ele><time>2026-03-28T12:51:05.001Z</time></trkpt><trkpt lat="45.063547926442155" lon="8.31452563970596"><ele>271.0</ele><time>2026-03-28T12:51:06.001Z</time></trkpt><trkpt lat="45.06355959499046" lon="8.314712720718797"><ele>271.5</ele><time>2026-03-28T12:51:07.001Z</time></trkpt><trkpt lat="45.06356345691628" lon="8.31493581301616"><ele>272.0</ele><time>2026-03-28T12:51:08.001Z</time></trkpt><trkpt lat="45.06357384713733" lon="8.315207100515094"><ele>273.5</ele><time>2026-03-28T12:51:09.001Z</time></trkpt><trkpt lat="45.063566531069455" lon="8.315424643546056"><ele>275.0</ele><time>2026-03-28T12:51:10.001Z</time></trkpt><trkpt lat="45.0635791149554" lon="8.315621215577238"><ele>276.5</ele><time>2026-03-28T12:51:11.001Z</time></trkpt><trkpt lat="45.06362186966273" lon="8.315805616636396"><ele>278.0</ele><time>2026-03-28T12:51:12.001Z</time></trkpt><trkpt lat="45.063663547139534" lon="8.315959110622275"><ele>278.0</ele><time>2026-03-28T12:51:13.001Z</time></trkpt><trkpt lat="45.063689849681474" lon="8.31608070743552"><ele>278.0</ele><time>2026-03-28T12:51:14.001Z</time></trkpt><trkpt lat="45.063688949438706" lon="8.316169838818471"><ele>278.0</ele><time>2026-03-28T12:51:17.001Z</time></trkpt><trkpt lat="45.063632568887165" lon="8.31621645373691"><ele>278.0</ele><time>2026-03-28T12:51:29Z</time></trkpt><trkpt lat="45.063575008773185" lon="8.316363566032077"><ele>278.0</ele><time>2026-03-28T12:51:31Z</time></trkpt><trkpt lat="45.063531328976204" lon="8.316447071090412"><ele>278.0</ele><time>2026-03-28T12:51:32Z</time></trkpt><trkpt lat="45.06349469768643" lon="8.316570612423531"><ele>278.0</ele><time>2026-03-28T12:51:33Z</time></trkpt><trkpt lat="45.063481383115494" lon="8.316716846417341"><ele>278.0</ele><time>2026-03-28T12:51:34Z</time></trkpt><trkpt lat="45.06347755621298" lon="8.316854752908469"><ele>278.0</ele><time>2026-03-28T12:51:35Z</time></trkpt><trkpt lat="45.06346071990309" lon="8.316988556049964"><ele>278.0</ele><time>2026-03-28T12:51:36Z</time></trkpt><trkpt lat="45.06344296101251" lon="8.317108703294995"><ele>278.0</ele><time>2026-03-28T12:51:37Z</time></trkpt><trkpt lat="45.0633982506069" lon="8.31721804831853"><ele>278.0</ele><time>2026-03-28T12:51:38Z</time></trkpt><trkpt lat="45.06332203129931" lon="8.317361280137495"><ele>278.0</ele><time>2026-03-28T12:51:39Z</time></trkpt><trkpt lat="45.06328451144843" lon="8.31752449973377"><ele>278.0</ele><time>2026-03-28T12:51:40Z</time></trkpt><trkpt lat="45.06328937927914" lon="8.317676385511971"><ele>278.0</ele><time>2026-03-28T12:51:41Z</time></trkpt><trkpt lat="45.063335414817914" lon="8.317797577576492"><ele>278.0</ele><time>2026-03-28T12:51:42Z</time></trkpt><trkpt lat="45.06344231537136" lon="8.31793473716796"><ele>278.0</ele><time>2026-03-28T12:51:43Z</time></trkpt><trkpt lat="45.06350925515215" lon="8.31809842553247"><ele>278.0</ele><time>2026-03-28T12:51:44Z</time></trkpt><trkpt lat="45.06357166037928" lon="8.318268028892689"><ele>278.0</ele><time>2026-03-28T12:51:45Z</time></trkpt><trkpt lat="45.06365513577658" lon="8.318399804028763"><ele>279.2</ele><time>2026-03-28T12:51:46Z</time></trkpt><trkpt lat="45.06373121610179" lon="8.318489246915147"><ele>280.4</ele><time>2026-03-28T12:51:47Z</time></trkpt><trkpt lat="45.063765652534286" lon="8.31858919442328"><ele>281.59999999999997</ele><time>2026-03-28T12:51:48Z</time></trkpt><trkpt lat="45.06371884807096" lon="8.318680301586502"><ele>282.8</ele><time>2026-03-28T12:51:49Z</time></trkpt><trkpt lat="45.063649794243794" lon="8.318759221503507"><ele>284.0</ele><time>2026-03-28T12:51:50Z</time></trkpt><trkpt lat="45.063544993525994" lon="8.318746028306457"><ele>284.0</ele><time>2026-03-28T12:51:52Z</time></trkpt><trkpt lat="45.06352667577593" lon="8.318637293335973"><ele>284.0</ele><time>2026-03-28T12:51:54Z</time></trkpt><trkpt lat="45.06350229478971" lon="8.318517923298877"><ele>284.0</ele><time>2026-03-28T12:51:58Z</time></trkpt><trkpt lat="45.0634525946651" lon="8.318426909932903"><ele>284.0</ele><time>2026-03-28T12:51:59Z</time></trkpt><trkpt lat="45.063401111426636" lon="8.318329518763123"><ele>284.0</ele><time>2026-03-28T12:52:00Z</time></trkpt><trkpt lat="45.06332294119387" lon="8.318207329352054"><ele>285.75</ele><time>2026-03-28T12:52:01Z</time></trkpt><trkpt lat="45.0632463110748" lon="8.31807957396471"><ele>287.5</ele><time>2026-03-28T12:52:02Z</time></trkpt><trkpt lat="45.063151279691056" lon="8.317937187502224"><ele>289.25</ele><time>2026-03-28T12:52:03Z</time></trkpt><trkpt lat="45.06304832856872" lon="8.317838434269987"><ele>291.0</ele><time>2026-03-28T12:52:04Z</time></trkpt><trkpt lat="45.06296584390894" lon="8.317771346812895"><ele>291.0</ele><time>2026-03-28T12:52:05Z</time></trkpt><trkpt lat="45.06285932778026" lon="8.317748708012418"><ele>291.0</ele><time>2026-03-28T12:52:06Z</time></trkpt><trkpt lat="45.0627419052978" lon="8.317708665522797"><ele>291.0</ele><time>2026-03-28T12:52:07Z</time></trkpt><trkpt lat="45.06268250869017" lon="8.317673624749798"><ele>291.0</ele><time>2026-03-28T12:52:08Z</time></trkpt><trkpt lat="45.06269275740164" lon="8.31783766091214"><ele>291.0</ele><time>2026-03-28T12:52:12Z</time></trkpt><trkpt lat="45.062692593641444" lon="8.317973910570398"><ele>292.2</ele><time>2026-03-28T12:52:13Z</time></trkpt><trkpt lat="45.06270744664802" lon="8.318130431817403"><ele>293.40000000000003</ele><time>2026-03-28T12:52:14Z</time></trkpt><trkpt lat="45.06270159855642" lon="8.318286171430747"><ele>294.6</ele><time>2026-03-28T12:52:15Z</time></trkpt><trkpt lat="45.06269459057836" lon="8.318436646775984"><ele>295.8</ele><time>2026-03-28T12:52:16Z</time></trkpt><trkpt lat="45.062674648554214" lon="8.3185637951046"><ele>297.0</ele><time>2026-03-28T12:52:17Z</time></trkpt><trkpt lat="45.06264619397339" lon="8.318673367536112"><ele>297.0</ele><time>2026-03-28T12:52:18Z</time></trkpt><trkpt lat="45.06256883117907" lon="8.318763596475625"><ele>297.0</ele><time>2026-03-28T12:52:19Z</time></trkpt><trkpt lat="45.06245359646364" lon="8.318875800787465"><ele>297.0</ele><time>2026-03-28T12:52:20Z</time></trkpt><trkpt lat="45.06235436902588" lon="8.319017411975627"><ele>297.0</ele><time>2026-03-28T12:52:21Z</time></trkpt><trkpt lat="45.06228001835334" lon="8.31913403926715"><ele>297.25</ele><time>2026-03-28T12:52:22Z</time></trkpt><trkpt lat="45.06223261119834" lon="8.319292325556127"><ele>297.5</ele><time>2026-03-28T12:52:23.001Z</time></trkpt><trkpt lat="45.06218531453923" lon="8.319435727998739"><ele>297.75</ele><time>2026-03-28T12:52:24.001Z</time></trkpt><trkpt lat="45.062133818783906" lon="8.319559655872792"><ele>298.0</ele><time>2026-03-28T12:52:25.001Z</time></trkpt><trkpt lat="45.06205889295585" lon="8.319724489821192"><ele>301.25</ele><time>2026-03-28T12:52:26.001Z</time></trkpt><trkpt lat="45.0619568034559" lon="8.319903548395922"><ele>304.5</ele><time>2026-03-28T12:52:27.001Z</time></trkpt><trkpt lat="45.06186015192793" lon="8.320045663810316"><ele>307.75</ele><time>2026-03-28T12:52:28.001Z</time></trkpt><trkpt lat="45.0617823429079" lon="8.32014078570253"><ele>311.0</ele><time>2026-03-28T12:52:29.001Z</time></trkpt><trkpt lat="45.061741605628725" lon="8.32023906130291"><ele>311.0</ele><time>2026-03-28T12:52:30.001Z</time></trkpt><trkpt lat="45.06173191254194" lon="8.320336178891285"><ele>311.0</ele><time>2026-03-28T12:52:31.001Z</time></trkpt><trkpt lat="45.06175840004039" lon="8.320475837554888"><ele>311.0</ele><time>2026-03-28T12:52:32.001Z</time></trkpt><trkpt lat="45.061825223210136" lon="8.320655656050603"><ele>311.0</ele><time>2026-03-28T12:52:33.001Z</time></trkpt><trkpt lat="45.0618924442016" lon="8.320786717878834"><ele>311.0</ele><time>2026-03-28T12:52:34.001Z</time></trkpt><trkpt lat="45.06197934402282" lon="8.320905407219916"><ele>311.40000000000003</ele><time>2026-03-28T12:52:35.001Z</time></trkpt><trkpt lat="45.062074058850285" lon="8.321008690275542"><ele>311.8</ele><time>2026-03-28T12:52:36.001Z</time></trkpt><trkpt lat="45.06213877010368" lon="8.321128690782796"><ele>312.20000000000005</ele><time>2026-03-28T12:52:37.001Z</time></trkpt><trkpt lat="45.06218175452027" lon="8.321270329948018"><ele>312.6</ele><time>2026-03-28T12:52:38.001Z</time></trkpt><trkpt lat="45.062187930709825" lon="8.321411592563576"><ele>313.0</ele><time>2026-03-28T12:52:39.001Z</time></trkpt><trkpt lat="45.062163372930264" lon="8.321577278313402"><ele>313.0</ele><time>2026-03-28T12:52:40.001Z</time></trkpt><trkpt lat="45.062099583176675" lon="8.321785949169312"><ele>313.0</ele><time>2026-03-28T12:52:41.001Z</time></trkpt><trkpt lat="45.06201313062144" lon="8.322011415006298"><ele>313.0</ele><time>2026-03-28T12:52:42.001Z</time></trkpt><trkpt lat="45.06193981588184" lon="8.322195001023765"><ele>312.75</ele><time>2026-03-28T12:52:43.001Z</time></trkpt><trkpt lat="45.061901001454636" lon="8.3223697713733"><ele>312.5</ele><time>2026-03-28T12:52:44.001Z</time></trkpt><trkpt lat="45.061889637896435" lon="8.322543420102418"><ele>312.25</ele><time>2026-03-28T12:52:45.001Z</time></trkpt><trkpt lat="45.06191602454178" lon="8.322724686877605"><ele>312.0</ele><time>2026-03-28T12:52:46.001Z</time></trkpt><trkpt lat="45.061930912160285" lon="8.322883407165145"><ele>312.3333333333333</ele><time>2026-03-28T12:52:47.001Z</time></trkpt><trkpt lat="45.06189682201871" lon="8.323067332448398"><ele>312.66666666666663</ele><time>2026-03-28T12:52:48.001Z</time></trkpt><trkpt lat="45.061830563835905" lon="8.323284967434144"><ele>313.0</ele><time>2026-03-28T12:52:49.001Z</time></trkpt><trkpt lat="45.0617682128848" lon="8.323511043678904"><ele>313.0</ele><time>2026-03-28T12:52:50.001Z</time></trkpt><trkpt lat="45.061729801869745" lon="8.323696097009"><ele>313.0</ele><time>2026-03-28T12:52:51.001Z</time></trkpt><trkpt lat="45.06168537712145" lon="8.323883295969994"><ele>313.0</ele><time>2026-03-28T12:52:52.001Z</time></trkpt><trkpt lat="45.061639655566005" lon="8.324043185881171"><ele>313.0</ele><time>2026-03-28T12:52:53.001Z</time></trkpt><trkpt lat="45.06159020866842" lon="8.324203032894719"><ele>313.0</ele><time>2026-03-28T12:52:54.001Z</time></trkpt><trkpt lat="45.06152304843058" lon="8.324356949674552"><ele>313.0</ele><time>2026-03-28T12:52:55.001Z</time></trkpt><trkpt lat="45.061428629582224" lon="8.324454248824368"><ele>313.0</ele><time>2026-03-28T12:52:56.001Z</time></trkpt><trkpt lat="45.06132201940855" lon="8.324504034747077"><ele>313.0</ele><time>2026-03-28T12:52:57.001Z</time></trkpt><trkpt lat="45.06121522533873" lon="8.324577038594807"><ele>313.0</ele><time>2026-03-28T12:52:58.001Z</time></trkpt><trkpt lat="45.06110919428285" lon="8.324637745580421"><ele>313.0</ele><time>2026-03-28T12:52:59.001Z</time></trkpt><trkpt lat="45.0610087538081" lon="8.32468667509923"><ele>313.0</ele><time>2026-03-28T12:53:00.001Z</time></trkpt><trkpt lat="45.06093049413367" lon="8.324706713776648"><ele>313.0</ele><time>2026-03-28T12:53:01.001Z</time></trkpt><trkpt lat="45.06088884439589" lon="8.324607349884278"><ele>313.0</ele><time>2026-03-28T12:53:03.001Z</time></trkpt><trkpt lat="45.060822847549204" lon="8.324615153209908"><ele>313.0</ele><time>2026-03-28T12:53:13.001Z</time></trkpt><trkpt lat="45.06068789626312" lon="8.324745910485408"><ele>314.0</ele><time>2026-03-28T12:53:15.001Z</time></trkpt><trkpt lat="45.060602821652175" lon="8.324848572393504"><ele>315.0</ele><time>2026-03-28T12:53:16.001Z</time></trkpt><trkpt lat="45.0605082921137" lon="8.324952095985864"><ele>316.0</ele><time>2026-03-28T12:53:17.001Z</time></trkpt><trkpt lat="45.060362564866374" lon="8.325072739994525"><ele>317.0</ele><time>2026-03-28T12:53:18.001Z</time></trkpt><trkpt lat="45.06020893742338" lon="8.32522254203971"><ele>317.0</ele><time>2026-03-28T12:53:19.001Z</time></trkpt><trkpt lat="45.06005721970217" lon="8.325349243348244"><ele>317.0</ele><time>2026-03-28T12:53:20.001Z</time></trkpt><trkpt lat="45.05988649213816" lon="8.325444982938748"><ele>317.0</ele><time>2026-03-28T12:53:21.001Z</time></trkpt><trkpt lat="45.05973205038502" lon="8.325507581941123"><ele>313.75</ele><time>2026-03-28T12:53:22.001Z</time></trkpt><trkpt lat="45.05961545598799" lon="8.325576451194362"><ele>310.5</ele><time>2026-03-28T12:53:23.001Z</time></trkpt><trkpt lat="45.05952542770578" lon="8.325678804094952"><ele>307.25</ele><time>2026-03-28T12:53:24.001Z</time></trkpt><trkpt lat="45.0594408149704" lon="8.325803931334619"><ele>304.0</ele><time>2026-03-28T12:53:25.002Z</time></trkpt><trkpt lat="45.05940960891674" lon="8.325980507301479"><ele>304.0</ele><time>2026-03-28T12:53:26.002Z</time></trkpt><trkpt lat="45.059430477182104" lon="8.32635209865621"><ele>304.0</ele><time>2026-03-28T12:53:28.002Z</time></trkpt><trkpt lat="45.05943537315336" lon="8.326501349898495"><ele>304.0</ele><time>2026-03-28T12:53:29.002Z</time></trkpt><trkpt lat="45.05942210266401" lon="8.326687721900843"><ele>305.5</ele><time>2026-03-28T12:53:30.002Z</time></trkpt><trkpt lat="45.05939724537248" lon="8.326882178269807"><ele>307.0</ele><time>2026-03-28T12:53:31.002Z</time></trkpt><trkpt lat="45.05933515635508" lon="8.327080485266238"><ele>308.5</ele><time>2026-03-28T12:53:32.002Z</time></trkpt><trkpt lat="45.05929478895524" lon="8.327257455120325"><ele>310.0</ele><time>2026-03-28T12:53:33Z</time></trkpt><trkpt lat="45.05930183655515" lon="8.327485435291823"><ele>310.0</ele><time>2026-03-28T12:53:34Z</time></trkpt><trkpt lat="45.05933280923611" lon="8.32767542902574"><ele>310.0</ele><time>2026-03-28T12:53:35Z</time></trkpt><trkpt lat="45.059315031713325" lon="8.327807774397401"><ele>310.0</ele><time>2026-03-28T12:53:36Z</time></trkpt><trkpt lat="45.05927764130901" lon="8.32789192266869"><ele>310.0</ele><time>2026-03-28T12:53:37Z</time></trkpt><trkpt lat="45.05920936241136" lon="8.328017071339781"><ele>310.0</ele><time>2026-03-28T12:53:38Z</time></trkpt><trkpt lat="45.05914575710247" lon="8.32815942388605"><ele>306.75</ele><time>2026-03-28T12:53:39Z</time></trkpt><trkpt lat="45.0590219699822" lon="8.328282954566664"><ele>303.5</ele><time>2026-03-28T12:53:40Z</time></trkpt><trkpt lat="45.05890918700984" lon="8.328330690648077"><ele>300.25</ele><time>2026-03-28T12:53:41Z</time></trkpt><trkpt lat="45.05878343103689" lon="8.32837018747956"><ele>297.0</ele><time>2026-03-28T12:53:42Z</time></trkpt><trkpt lat="45.058658828080425" lon="8.328416087412608"><ele>297.0</ele><time>2026-03-28T12:53:43Z</time></trkpt><trkpt lat="45.058544770012944" lon="8.328503436661661"><ele>297.0</ele><time>2026-03-28T12:53:44Z</time></trkpt><trkpt lat="45.05842136707215" lon="8.328587052054411"><ele>297.0</ele><time>2026-03-28T12:53:45Z</time></trkpt><trkpt lat="45.05829918346995" lon="8.328657487637713"><ele>297.0</ele><time>2026-03-28T12:53:46Z</time></trkpt><trkpt lat="45.05815346989886" lon="8.32869470192507"><ele>294.25</ele><time>2026-03-28T12:53:47Z</time></trkpt><trkpt lat="45.058035042570175" lon="8.3287444544643"><ele>291.5</ele><time>2026-03-28T12:53:48Z</time></trkpt><trkpt lat="45.05792971600695" lon="8.328804506692512"><ele>288.75</ele><time>2026-03-28T12:53:49Z</time></trkpt><trkpt lat="45.05782183189071" lon="8.328817040602845"><ele>286.0</ele><time>2026-03-28T12:53:50Z</time></trkpt><trkpt lat="45.05767633625137" lon="8.328805497409727"><ele>286.0</ele><time>2026-03-28T12:53:51Z</time></trkpt><trkpt lat="45.05754255721839" lon="8.328777254750888"><ele>286.0</ele><time>2026-03-28T12:53:52Z</time></trkpt><trkpt lat="45.057433524660865" lon="8.328753114083936"><ele>286.0</ele><time>2026-03-28T12:53:53Z</time></trkpt><trkpt lat="45.05734139805909" lon="8.32875119860983"><ele>286.0</ele><time>2026-03-28T12:53:54Z</time></trkpt><trkpt lat="45.05727610460298" lon="8.32876028521008"><ele>286.0</ele><time>2026-03-28T12:53:55Z</time></trkpt><trkpt lat="45.05720300852471" lon="8.328889512873499"><ele>284.0</ele><time>2026-03-28T12:53:57Z</time></trkpt><trkpt lat="45.05718519739485" lon="8.329025651065491"><ele>282.0</ele><time>2026-03-28T12:53:58Z</time></trkpt><trkpt lat="45.05714784441978" lon="8.329210240342537"><ele>280.0</ele><time>2026-03-28T12:53:59Z</time></trkpt><trkpt lat="45.05708680032197" lon="8.329392251217858"><ele>278.0</ele><time>2026-03-28T12:54:00Z</time></trkpt><trkpt lat="45.057020741856924" lon="8.329559989286318"><ele>278.0</ele><time>2026-03-28T12:54:01Z</time></trkpt><trkpt lat="45.056946162372945" lon="8.329719994823929"><ele>278.0</ele><time>2026-03-28T12:54:02Z</time></trkpt><trkpt lat="45.056868790163634" lon="8.32987553032931"><ele>278.0</ele><time>2026-03-28T12:54:03Z</time></trkpt><trkpt lat="45.056763736564385" lon="8.329997800557107"><ele>278.0</ele><time>2026-03-28T12:54:04Z</time></trkpt><trkpt lat="45.056620332103726" lon="8.330143253371418"><ele>277.0</ele><time>2026-03-28T12:54:05Z</time></trkpt><trkpt lat="45.05646443821614" lon="8.330332729528042"><ele>276.0</ele><time>2026-03-28T12:54:06Z</time></trkpt><trkpt lat="45.056320748286055" lon="8.330520160950812"><ele>275.0</ele><time>2026-03-28T12:54:07Z</time></trkpt><trkpt lat="45.056197135660696" lon="8.330641536020066"><ele>275.0</ele><time>2026-03-28T12:54:08Z</time></trkpt><trkpt lat="45.05607847234679" lon="8.33071980911563"><ele>275.0</ele><time>2026-03-28T12:54:09Z</time></trkpt><trkpt lat="45.05596861268669" lon="8.330789363329556"><ele>275.0</ele><time>2026-03-28T12:54:10Z</time></trkpt><trkpt lat="45.055865285822655" lon="8.330884622910604"><ele>275.0</ele><time>2026-03-28T12:54:11Z</time></trkpt><trkpt lat="45.05579687618904" lon="8.330976133449067"><ele>272.5</ele><time>2026-03-28T12:54:12Z</time></trkpt><trkpt lat="45.05573687166132" lon="8.33107997966169"><ele>270.0</ele><time>2026-03-28T12:54:13Z</time></trkpt><trkpt lat="45.055694788442715" lon="8.331180549013027"><ele>267.5</ele><time>2026-03-28T12:54:14Z</time></trkpt><trkpt lat="45.0556632368811" lon="8.331284839626996"><ele>265.0</ele><time>2026-03-28T12:54:15Z</time></trkpt><trkpt lat="45.0556302414114" lon="8.331406422135938"><ele>262.5</ele><time>2026-03-28T12:54:16Z</time></trkpt><trkpt lat="45.05558241622981" lon="8.331507376097917"><ele>260.0</ele><time>2026-03-28T12:54:17Z</time></trkpt><trkpt lat="45.05544636282531" lon="8.33173238622334"><ele>260.0</ele><time>2026-03-28T12:54:19Z</time></trkpt><trkpt lat="45.05539487724488" lon="8.33180878511649"><ele>260.0</ele><time>2026-03-28T12:54:20Z</time></trkpt><trkpt lat="45.05536732872093" lon="8.331889489694696"><ele>260.0</ele><time>2026-03-28T12:54:22Z</time></trkpt><trkpt lat="45.05530633864398" lon="8.331864972834255"><ele>260.0</ele><time>2026-03-28T12:55:41Z</time></trkpt><trkpt lat="45.055371957924045" lon="8.331803440465222"><ele>260.0</ele><time>2026-03-28T12:55:43Z</time></trkpt><trkpt lat="45.05546923886396" lon="8.331687406051568"><ele>260.0</ele><time>2026-03-28T12:55:45Z</time></trkpt><trkpt lat="45.055529870915734" lon="8.331552840445521"><ele>260.0</ele><time>2026-03-28T12:55:46Z</time></trkpt><trkpt lat="45.05560717467376" lon="8.331395909374331"><ele>260.0</ele><time>2026-03-28T12:55:47Z</time></trkpt><trkpt lat="45.055683762467645" lon="8.331266069997753"><ele>260.0</ele><time>2026-03-28T12:55:48Z</time></trkpt><trkpt lat="45.05573199700961" lon="8.331130594814582"><ele>260.0</ele><time>2026-03-28T12:55:49Z</time></trkpt><trkpt lat="45.055774829391595" lon="8.331023136706095"><ele>260.0</ele><time>2026-03-28T12:55:50Z</time></trkpt><trkpt lat="45.05580705290281" lon="8.33094502867676"><ele>262.5</ele><time>2026-03-28T12:55:51Z</time></trkpt><trkpt lat="45.05587161802293" lon="8.330861012134482"><ele>265.0</ele><time>2026-03-28T12:55:52Z</time></trkpt><trkpt lat="45.05594550072121" lon="8.330790437518392"><ele>267.5</ele><time>2026-03-28T12:55:53Z</time></trkpt><trkpt lat="45.05600669305991" lon="8.33074797017943"><ele>270.0</ele><time>2026-03-28T12:55:54Z</time></trkpt><trkpt lat="45.05610814558634" lon="8.3306772625888"><ele>272.5</ele><time>2026-03-28T12:55:56Z</time></trkpt><trkpt lat="45.05618315169129" lon="8.330635583565147"><ele>275.0</ele><time>2026-03-28T12:55:58Z</time></trkpt><trkpt lat="45.05624087556618" lon="8.330595442057833"><ele>272.33333333333337</ele><time>2026-03-28T12:56:00Z</time></trkpt><trkpt lat="45.05630463436326" lon="8.330536947826616"><ele>269.6666666666667</ele><time>2026-03-28T12:56:02Z</time></trkpt><trkpt lat="45.05636798496869" lon="8.330477408749108"><ele>267.0</ele><time>2026-03-28T12:56:04Z</time></trkpt><trkpt lat="45.05642655361055" lon="8.33040798604625"><ele>264.3333333333333</ele><time>2026-03-28T12:57:02.001Z</time></trkpt><trkpt lat="45.056504573989486" lon="8.330301640711925"><ele>261.66666666666663</ele><time>2026-03-28T12:57:04.001Z</time></trkpt><trkpt lat="45.056549395829556" lon="8.3302384677234"><ele>259.0</ele><time>2026-03-28T12:57:05.001Z</time></trkpt><trkpt lat="45.056604688938485" lon="8.33016437191135"><ele>261.3333333333333</ele><time>2026-03-28T12:57:06.001Z</time></trkpt><trkpt lat="45.05666532115132" lon="8.330090282123406"><ele>263.66666666666663</ele><time>2026-03-28T12:57:07.001Z</time></trkpt><trkpt lat="45.05671825790108" lon="8.330024883951713"><ele>266.0</ele><time>2026-03-28T12:57:08.001Z</time></trkpt><trkpt lat="45.05678101471342" lon="8.329956372359065"><ele>268.3333333333333</ele><time>2026-03-28T12:57:09.001Z</time></trkpt><trkpt lat="45.056836986071886" lon="8.32988759009249"><ele>270.6666666666667</ele><time>2026-03-28T12:57:10.001Z</time></trkpt><trkpt lat="45.056889282585225" lon="8.329812367939722"><ele>273.0</ele><time>2026-03-28T12:57:11.001Z</time></trkpt><trkpt lat="45.0569531756716" lon="8.329710647119862"><ele>274.0</ele><time>2026-03-28T12:57:12.001Z</time></trkpt><trkpt lat="45.05700376426181" lon="8.329598637739643"><ele>275.0</ele><time>2026-03-28T12:57:13.001Z</time></trkpt><trkpt lat="45.057060387495426" lon="8.329469165695942"><ele>276.0</ele><time>2026-03-28T12:57:14.002Z</time></trkpt><trkpt lat="45.05711201312787" lon="8.32935050321372"><ele>277.0</ele><time>2026-03-28T12:57:15.002Z</time></trkpt><trkpt lat="45.0571440218382" lon="8.329234027581736"><ele>278.0</ele><time>2026-03-28T12:57:16.002Z</time></trkpt><trkpt lat="45.057177921146376" lon="8.329103325305912"><ele>278.0</ele><time>2026-03-28T12:57:17.002Z</time></trkpt><trkpt lat="45.05721030682063" lon="8.328998921078718"><ele>278.0</ele><time>2026-03-28T12:57:18.002Z</time></trkpt><trkpt lat="45.057223498954386" lon="8.328901726429297"><ele>278.0</ele><time>2026-03-28T12:57:19.002Z</time></trkpt><trkpt lat="45.05724724057844" lon="8.328818493442363"><ele>278.0</ele><time>2026-03-28T12:57:20.002Z</time></trkpt><trkpt lat="45.05734834010843" lon="8.328742628709891"><ele>278.0</ele><time>2026-03-28T12:57:22.002Z</time></trkpt><trkpt lat="45.05741794712055" lon="8.32874564554953"><ele>278.0</ele><time>2026-03-28T12:57:23.002Z</time></trkpt><trkpt lat="45.05749611774222" lon="8.328760183146976"><ele>279.6</ele><time>2026-03-28T12:57:24.002Z</time></trkpt><trkpt lat="45.05759175967044" lon="8.328777284117248"><ele>281.20000000000005</ele><time>2026-03-28T12:57:25.002Z</time></trkpt><trkpt lat="45.05769148126724" lon="8.32879920598514"><ele>282.8</ele><time>2026-03-28T12:57:26.002Z</time></trkpt><trkpt lat="45.05779602971331" lon="8.328812472170151"><ele>284.40000000000003</ele><time>2026-03-28T12:57:27.002Z</time></trkpt><trkpt lat="45.05789247344465" lon="8.328810961273094"><ele>286.0</ele><time>2026-03-28T12:57:28.002Z</time></trkpt><trkpt lat="45.05798890168067" lon="8.328794465812695"><ele>286.0</ele><time>2026-03-28T12:57:29.002Z</time></trkpt><trkpt lat="45.05809043842016" lon="8.328743549780896"><ele>286.0</ele><time>2026-03-28T12:57:30.002Z</time></trkpt><trkpt lat="45.05820273373539" lon="8.32867331048483"><ele>286.0</ele><time>2026-03-28T12:57:31.002Z</time></trkpt><trkpt lat="45.058330589156704" lon="8.32861457940373"><ele>286.0</ele><time>2026-03-28T12:57:32.002Z</time></trkpt><trkpt lat="45.05843818924085" lon="8.32858631657258"><ele>288.75</ele><time>2026-03-28T12:57:33.002Z</time></trkpt><trkpt lat="45.05852344647953" lon="8.328537203451003"><ele>291.5</ele><time>2026-03-28T12:57:34.002Z</time></trkpt><trkpt lat="45.05861608562349" lon="8.328476094485227"><ele>294.25</ele><time>2026-03-28T12:57:35.002Z</time></trkpt><trkpt lat="45.058739852009055" lon="8.328375554061065"><ele>297.0</ele><time>2026-03-28T12:57:36.002Z</time></trkpt><trkpt lat="45.058849481875754" lon="8.328327674885433"><ele>297.0</ele><time>2026-03-28T12:57:37.002Z</time></trkpt><trkpt lat="45.05896917003725" lon="8.328278830840965"><ele>297.0</ele><time>2026-03-28T12:57:38.002Z</time></trkpt><trkpt lat="45.0590781486682" lon="8.328222783890686"><ele>297.0</ele><time>2026-03-28T12:57:39.002Z</time></trkpt><trkpt lat="45.05916213500599" lon="8.32814354152703"><ele>297.0</ele><time>2026-03-28T12:57:40.002Z</time></trkpt><trkpt lat="45.05923468064585" lon="8.328015391680369"><ele>300.25</ele><time>2026-03-28T12:57:41.002Z</time></trkpt><trkpt lat="45.05929232400429" lon="8.327849497859132"><ele>303.5</ele><time>2026-03-28T12:57:42.002Z</time></trkpt><trkpt lat="45.05933864306629" lon="8.327652189287333"><ele>306.75</ele><time>2026-03-28T12:57:43.002Z</time></trkpt><trkpt lat="45.059354778926256" lon="8.327488417769873"><ele>310.0</ele><time>2026-03-28T12:57:44.002Z</time></trkpt><trkpt lat="45.05933674130985" lon="8.327341416063014"><ele>310.0</ele><time>2026-03-28T12:57:45Z</time></trkpt><trkpt lat="45.0593231774346" lon="8.327217039393748"><ele>310.0</ele><time>2026-03-28T12:57:46Z</time></trkpt><trkpt lat="45.059308950287914" lon="8.327099580258512"><ele>310.0</ele><time>2026-03-28T12:57:47Z</time></trkpt><trkpt lat="45.0593308243469" lon="8.326971563448799"><ele>310.0</ele><time>2026-03-28T12:57:48Z</time></trkpt><trkpt lat="45.05936310486955" lon="8.326828214938425"><ele>310.0</ele><time>2026-03-28T12:57:49Z</time></trkpt><trkpt lat="45.05939373074785" lon="8.326666587781295"><ele>310.0</ele><time>2026-03-28T12:57:50Z</time></trkpt><trkpt lat="45.059417500935524" lon="8.326537480495572"><ele>310.0</ele><time>2026-03-28T12:57:51Z</time></trkpt><trkpt lat="45.05943367651525" lon="8.32643537497292"><ele>310.0</ele><time>2026-03-28T12:57:52Z</time></trkpt><trkpt lat="45.05943341213204" lon="8.326339244709166"><ele>310.0</ele><time>2026-03-28T12:57:53Z</time></trkpt><trkpt lat="45.0594401231943" lon="8.326133297279357"><ele>310.0</ele><time>2026-03-28T12:57:55Z</time></trkpt><trkpt lat="45.05943980147424" lon="8.326005275142995"><ele>308.8</ele><time>2026-03-28T12:57:56Z</time></trkpt><trkpt lat="45.05944850766153" lon="8.325873239393564"><ele>307.6</ele><time>2026-03-28T12:57:57Z</time></trkpt><trkpt lat="45.05948367328565" lon="8.3257353438371"><ele>306.4</ele><time>2026-03-28T12:57:58Z</time></trkpt><trkpt lat="45.05954805000416" lon="8.32563730279109"><ele>305.2</ele><time>2026-03-28T12:57:59Z</time></trkpt><trkpt lat="45.05964106033658" lon="8.325531549003042"><ele>304.0</ele><time>2026-03-28T12:58:00Z</time></trkpt><trkpt lat="45.059755674619296" lon="8.325452633766995"><ele>302.25</ele><time>2026-03-28T12:58:01Z</time></trkpt><trkpt lat="45.05988904650497" lon="8.325393448270608"><ele>300.5</ele><time>2026-03-28T12:58:02Z</time></trkpt><trkpt lat="45.06004429870226" lon="8.32533812233602"><ele>298.75</ele><time>2026-03-28T12:58:03Z</time></trkpt><trkpt lat="45.06016249547481" lon="8.32526651404557"><ele>297.0</ele><time>2026-03-28T12:58:04Z</time></trkpt><trkpt lat="45.0602665147019" lon="8.3251937314797"><ele>302.0</ele><time>2026-03-28T12:58:05Z</time></trkpt><trkpt lat="45.0603594107162" lon="8.32510213332395"><ele>307.0</ele><time>2026-03-28T12:58:06Z</time></trkpt><trkpt lat="45.060454385187256" lon="8.325001859173044"><ele>312.0</ele><time>2026-03-28T12:58:07Z</time></trkpt><trkpt lat="45.06055323073129" lon="8.324906440979923"><ele>317.0</ele><time>2026-03-28T12:58:08Z</time></trkpt><trkpt lat="45.060650073592676" lon="8.324810854346"><ele>317.0</ele><time>2026-03-28T12:58:09Z</time></trkpt><trkpt lat="45.060731562243014" lon="8.324712452262613"><ele>317.0</ele><time>2026-03-28T12:58:10Z</time></trkpt><trkpt lat="45.06080940677896" lon="8.324647830689685"><ele>317.0</ele><time>2026-03-28T12:58:11Z</time></trkpt><trkpt lat="45.06092469540457" lon="8.324610682918538"><ele>317.0</ele><time>2026-03-28T12:58:13Z</time></trkpt><trkpt lat="45.06102796934009" lon="8.32463806399057"><ele>317.0</ele><time>2026-03-28T12:58:14Z</time></trkpt><trkpt lat="45.06114478011798" lon="8.324619297826493"><ele>316.0</ele><time>2026-03-28T12:58:15Z</time></trkpt><trkpt lat="45.06127023594498" lon="8.324539790004536"><ele>315.0</ele><time>2026-03-28T12:58:16Z</time></trkpt><trkpt lat="45.06139015836518" lon="8.324428396574516"><ele>314.0</ele><time>2026-03-28T12:58:17Z</time></trkpt><trkpt lat="45.061480995769735" lon="8.324348007877614"><ele>313.0</ele><time>2026-03-28T12:58:18Z</time></trkpt><trkpt lat="45.061553059248354" lon="8.324255021026442"><ele>313.0</ele><time>2026-03-28T12:58:19Z</time></trkpt><trkpt lat="45.06160603733546" lon="8.324144122865524"><ele>313.0</ele><time>2026-03-28T12:58:20Z</time></trkpt><trkpt lat="45.06165745198913" lon="8.323993546394123"><ele>313.0</ele><time>2026-03-28T12:58:21Z</time></trkpt><trkpt lat="45.06170655314851" lon="8.323836924711568"><ele>313.0</ele><time>2026-03-28T12:58:22Z</time></trkpt><trkpt lat="45.06174833360274" lon="8.32369237583242"><ele>313.0</ele><time>2026-03-28T12:58:23Z</time></trkpt><trkpt lat="45.06178191276544" lon="8.32354537302688"><ele>313.0</ele><time>2026-03-28T12:58:24Z</time></trkpt><trkpt lat="45.06181187605188" lon="8.323393106809078"><ele>313.0</ele><time>2026-03-28T12:58:25Z</time></trkpt><trkpt lat="45.06184459980807" lon="8.323233104504425"><ele>313.0</ele><time>2026-03-28T12:58:26Z</time></trkpt><trkpt lat="45.06188008077959" lon="8.32306724834791"><ele>313.0</ele><time>2026-03-28T12:58:27Z</time></trkpt><trkpt lat="45.061923002706294" lon="8.322935587909395"><ele>312.75</ele><time>2026-03-28T12:58:28.001Z</time></trkpt><trkpt lat="45.06195528387788" lon="8.322797423186872"><ele>312.5</ele><time>2026-03-28T12:58:29.001Z</time></trkpt><trkpt lat="45.06196908694188" lon="8.322649188090905"><ele>312.25</ele><time>2026-03-28T12:58:30.001Z</time></trkpt><trkpt lat="45.061941797874816" lon="8.32248553617987"><ele>312.0</ele><time>2026-03-28T12:58:31.001Z</time></trkpt><trkpt lat="45.06192118935079" lon="8.322303130358637"><ele>312.25</ele><time>2026-03-28T12:58:32.001Z</time></trkpt><trkpt lat="45.06196328259347" lon="8.322080638767401"><ele>312.5</ele><time>2026-03-28T12:58:33.001Z</time></trkpt><trkpt lat="45.062020619662974" lon="8.321910824872095"><ele>312.75</ele><time>2026-03-28T12:58:34.001Z</time></trkpt><trkpt lat="45.06206676886019" lon="8.321770903814345"><ele>313.0</ele><time>2026-03-28T12:58:35.001Z</time></trkpt><trkpt lat="45.062122068329344" lon="8.321594546876131"><ele>313.0</ele><time>2026-03-28T12:58:36.001Z</time></trkpt><trkpt lat="45.06215027047912" lon="8.321437047906098"><ele>313.0</ele><time>2026-03-28T12:58:37.001Z</time></trkpt><trkpt lat="45.06214900614151" lon="8.321299977152451"><ele>313.0</ele><time>2026-03-28T12:58:38.001Z</time></trkpt><trkpt lat="45.06215407678423" lon="8.321167867754387"><ele>313.0</ele><time>2026-03-28T12:58:39.001Z</time></trkpt><trkpt lat="45.06212780985456" lon="8.321063452457487"><ele>313.0</ele><time>2026-03-28T12:58:40.001Z</time></trkpt><trkpt lat="45.06205543951672" lon="8.320939660125402"><ele>313.2</ele><time>2026-03-28T12:58:41.001Z</time></trkpt><trkpt lat="45.06196709506697" lon="8.320824876344142"><ele>313.4</ele><time>2026-03-28T12:58:42.001Z</time></trkpt><trkpt lat="45.06189888977623" lon="8.320728185319373"><ele>313.59999999999997</ele><time>2026-03-28T12:58:43.001Z</time></trkpt><trkpt lat="45.061826077537816" lon="8.320656131501572"><ele>313.8</ele><time>2026-03-28T12:58:44.001Z</time></trkpt><trkpt lat="45.061802289071125" lon="8.320569247685276"><ele>314.0</ele><time>2026-03-28T12:58:45.001Z</time></trkpt><trkpt lat="45.06177174861922" lon="8.32042921660735"><ele>313.4</ele><time>2026-03-28T12:58:46.001Z</time></trkpt><trkpt lat="45.061759319413255" lon="8.320320237440407"><ele>312.79999999999995</ele><time>2026-03-28T12:58:47.001Z</time></trkpt><trkpt lat="45.061766204088215" lon="8.32020945435765"><ele>312.20000000000005</ele><time>2026-03-28T12:58:48.001Z</time></trkpt><trkpt lat="45.06181568641507" lon="8.320045698568904"><ele>311.6</ele><time>2026-03-28T12:58:50.001Z</time></trkpt><trkpt lat="45.061891539322886" lon="8.319962619444377"><ele>311.0</ele><time>2026-03-28T12:58:51.001Z</time></trkpt><trkpt lat="45.06197838358146" lon="8.319866163742997"><ele>311.0</ele><time>2026-03-28T12:58:52.001Z</time></trkpt><trkpt lat="45.06205768577202" lon="8.31973943107991"><ele>311.0</ele><time>2026-03-28T12:58:53.001Z</time></trkpt><trkpt lat="45.06212283035198" lon="8.319617655213156"><ele>311.0</ele><time>2026-03-28T12:58:54.001Z</time></trkpt><trkpt lat="45.06217102211691" lon="8.319491341985481"><ele>311.0</ele><time>2026-03-28T12:58:55.001Z</time></trkpt><trkpt lat="45.06221951114463" lon="8.319362075384854"><ele>311.0</ele><time>2026-03-28T12:58:56.001Z</time></trkpt><trkpt lat="45.06227214185806" lon="8.319239902800712"><ele>308.40000000000003</ele><time>2026-03-28T12:58:57.001Z</time></trkpt><trkpt lat="45.062316960584404" lon="8.319106255840254"><ele>305.8</ele><time>2026-03-28T12:58:58.001Z</time></trkpt><trkpt lat="45.0623574340347" lon="8.318999902609507"><ele>303.20000000000005</ele><time>2026-03-28T12:58:59.001Z</time></trkpt><trkpt lat="45.06241586573994" lon="8.318886601450096"><ele>300.6</ele><time>2026-03-28T12:59:00.001Z</time></trkpt><trkpt lat="45.062486199307045" lon="8.318793440500524"><ele>298.0</ele><time>2026-03-28T12:59:01.001Z</time></trkpt><trkpt lat="45.062572862721844" lon="8.318715752217988"><ele>297.8333333333333</ele><time>2026-03-28T12:59:02.001Z</time></trkpt><trkpt lat="45.062650885072465" lon="8.31861685782511"><ele>297.66666666666663</ele><time>2026-03-28T12:59:03.001Z</time></trkpt><trkpt lat="45.06269945282403" lon="8.318502287556091"><ele>297.5</ele><time>2026-03-28T12:59:04.001Z</time></trkpt><trkpt lat="45.06271821109248" lon="8.318395950966538"><ele>297.3333333333333</ele><time>2026-03-28T12:59:05.001Z</time></trkpt><trkpt lat="45.06272477765378" lon="8.318283156582536"><ele>297.1666666666667</ele><time>2026-03-28T12:59:06.001Z</time></trkpt><trkpt lat="45.06271988755835" lon="8.318167591753289"><ele>297.0</ele><time>2026-03-28T12:59:07.001Z</time></trkpt><trkpt lat="45.06272954216083" lon="8.318054326562"><ele>295.8</ele><time>2026-03-28T12:59:08.001Z</time></trkpt><trkpt lat="45.062733976852506" lon="8.317906673071533"><ele>294.6</ele><time>2026-03-28T12:59:09.001Z</time></trkpt><trkpt lat="45.06272334563731" lon="8.317784900969793"><ele>293.40000000000003</ele><time>2026-03-28T12:59:10.001Z</time></trkpt><trkpt lat="45.06270692068205" lon="8.31767239263614"><ele>292.2</ele><time>2026-03-28T12:59:11.001Z</time></trkpt><trkpt lat="45.06271191476825" lon="8.317573513115223"><ele>291.0</ele><time>2026-03-28T12:59:12.001Z</time></trkpt><trkpt lat="45.06275595593909" lon="8.31740980992753"><ele>291.0</ele><time>2026-03-28T12:59:14.001Z</time></trkpt><trkpt lat="45.06277442938651" lon="8.317303326246837"><ele>291.0</ele><time>2026-03-28T12:59:15.001Z</time></trkpt><trkpt lat="45.06277639997986" lon="8.317204390106737"><ele>291.0</ele><time>2026-03-28T12:59:16.001Z</time></trkpt><trkpt lat="45.06273175890368" lon="8.317113896813828"><ele>291.0</ele><time>2026-03-28T12:59:18.001Z</time></trkpt><trkpt lat="45.06268053218042" lon="8.317048595124888"><ele>291.0</ele><time>2026-03-28T12:59:20.001Z</time></trkpt><trkpt lat="45.06264947096375" lon="8.316881007296315"><ele>291.0</ele><time>2026-03-28T12:59:22.001Z</time></trkpt><trkpt lat="45.06262041889461" lon="8.31678830445803"><ele>291.0</ele><time>2026-03-28T12:59:23.001Z</time></trkpt><trkpt lat="45.06261200138539" lon="8.316651728307631"><ele>291.0</ele><time>2026-03-28T12:59:25.001Z</time></trkpt><trkpt lat="45.06266109202379" lon="8.316530039927107"><ele>291.0</ele><time>2026-03-28T12:59:27.001Z</time></trkpt><trkpt lat="45.062688924591505" lon="8.316438092363791"><ele>291.0</ele><time>2026-03-28T12:59:28.001Z</time></trkpt><trkpt lat="45.062704383240856" lon="8.31629805880267"><ele>291.0</ele><time>2026-03-28T12:59:29.001Z</time></trkpt><trkpt lat="45.06270720555856" lon="8.316173446299487"><ele>291.1666666666667</ele><time>2026-03-28T12:59:30.001Z</time></trkpt><trkpt lat="45.062711085986315" lon="8.316053840918467"><ele>291.3333333333333</ele><time>2026-03-28T12:59:31.001Z</time></trkpt><trkpt lat="45.06273649412211" lon="8.315915190341245"><ele>291.5</ele><time>2026-03-28T12:59:32.001Z</time></trkpt><trkpt lat="45.062752292063095" lon="8.315775050284442"><ele>291.66666666666663</ele><time>2026-03-28T12:59:33.001Z</time></trkpt><trkpt lat="45.06276426946035" lon="8.315672652233756"><ele>291.8333333333333</ele><time>2026-03-28T12:59:34.001Z</time></trkpt><trkpt lat="45.06277513744017" lon="8.315566539180523"><ele>292.0</ele><time>2026-03-28T12:59:35.002Z</time></trkpt><trkpt lat="45.06277687157181" lon="8.315455529182998"><ele>292.8</ele><time>2026-03-28T12:59:36.002Z</time></trkpt><trkpt lat="45.06276715620217" lon="8.315330220179478"><ele>293.6</ele><time>2026-03-28T12:59:37.002Z</time></trkpt><trkpt lat="45.06274110465264" lon="8.315212917053463"><ele>294.40000000000003</ele><time>2026-03-28T12:59:38.002Z</time></trkpt><trkpt lat="45.06272005625616" lon="8.315080484298928"><ele>295.2</ele><time>2026-03-28T12:59:39.002Z</time></trkpt><trkpt lat="45.062700466593206" lon="8.314925205871099"><ele>296.0</ele><time>2026-03-28T12:59:40.002Z</time></trkpt><trkpt lat="45.06268008168118" lon="8.314769436876022"><ele>296.0</ele><time>2026-03-28T12:59:41.002Z</time></trkpt><trkpt lat="45.06265084741797" lon="8.31461352011659"><ele>296.0</ele><time>2026-03-28T12:59:42.002Z</time></trkpt><trkpt lat="45.06262355791893" lon="8.314452474833196"><ele>296.0</ele><time>2026-03-28T12:59:43.002Z</time></trkpt><trkpt lat="45.06259793299991" lon="8.314296112682028"><ele>296.0</ele><time>2026-03-28T12:59:44.002Z</time></trkpt><trkpt lat="45.062563107761726" lon="8.31415521470661"><ele>296.0</ele><time>2026-03-28T12:59:45.002Z</time></trkpt><trkpt lat="45.06249825418597" lon="8.314052444227082"><ele>296.0</ele><time>2026-03-28T12:59:46.002Z</time></trkpt><trkpt lat="45.06241420340762" lon="8.313959108448877"><ele>296.0</ele><time>2026-03-28T12:59:47.002Z</time></trkpt><trkpt lat="45.062319284082356" lon="8.313877034880417"><ele>296.0</ele><time>2026-03-28T12:59:48.002Z</time></trkpt><trkpt lat="45.06221569984569" lon="8.313812369688405"><ele>296.0</ele><time>2026-03-28T12:59:49.002Z</time></trkpt><trkpt lat="45.06211192439208" lon="8.313737019037118"><ele>297.83333333333337</ele><time>2026-03-28T12:59:50.002Z</time></trkpt><trkpt lat="45.06201725248058" lon="8.313674259485913"><ele>299.6666666666667</ele><time>2026-03-28T12:59:51Z</time></trkpt><trkpt lat="45.06193534974458" lon="8.31363878530634"><ele>301.5</ele><time>2026-03-28T12:59:52Z</time></trkpt><trkpt lat="45.06185390562042" lon="8.313611815857934"><ele>303.3333333333333</ele><time>2026-03-28T12:59:53Z</time></trkpt><trkpt lat="45.06178813912503" lon="8.31358665341344"><ele>305.16666666666663</ele><time>2026-03-28T12:59:54Z</time></trkpt><trkpt lat="45.06172230062869" lon="8.313570455595192"><ele>307.0</ele><time>2026-03-28T12:59:55Z</time></trkpt><trkpt lat="45.06164962022663" lon="8.313553568998744"><ele>308.8333333333333</ele><time>2026-03-28T12:59:56Z</time></trkpt><trkpt lat="45.061578732267854" lon="8.313541581169947"><ele>310.66666666666663</ele><time>2026-03-28T12:59:57Z</time></trkpt><trkpt lat="45.06149240144247" lon="8.313532539467854"><ele>312.5</ele><time>2026-03-28T12:59:58Z</time></trkpt><trkpt lat="45.061411063772155" lon="8.313507512262818"><ele>314.3333333333333</ele><time>2026-03-28T12:59:59Z</time></trkpt><trkpt lat="45.06134434495049" lon="8.313486630130067"><ele>316.1666666666667</ele><time>2026-03-28T13:00:00Z</time></trkpt><trkpt lat="45.06127183826938" lon="8.313473999238274"><ele>318.0</ele><time>2026-03-28T13:00:01Z</time></trkpt><trkpt lat="45.06119881953535" lon="8.313457578056072"><ele>318.0</ele><time>2026-03-28T13:00:02Z</time></trkpt><trkpt lat="45.06110265556802" lon="8.313443723774053"><ele>318.0</ele><time>2026-03-28T13:00:03Z</time></trkpt><trkpt lat="45.060993502225664" lon="8.313420342817707"><ele>318.0</ele><time>2026-03-28T13:00:04Z</time></trkpt><trkpt lat="45.06089006802623" lon="8.31339258523637"><ele>318.0</ele><time>2026-03-28T13:00:05Z</time></trkpt><trkpt lat="45.06079071804216" lon="8.313378048155892"><ele>318.0</ele><time>2026-03-28T13:00:06Z</time></trkpt><trkpt lat="45.06069421756404" lon="8.3133503118462"><ele>322.2</ele><time>2026-03-28T13:00:07Z</time></trkpt><trkpt lat="45.06060160590681" lon="8.313320533269023"><ele>326.4</ele><time>2026-03-28T13:00:08Z</time></trkpt><trkpt lat="45.06051749522442" lon="8.313261932826999"><ele>330.59999999999997</ele><time>2026-03-28T13:00:09Z</time></trkpt><trkpt lat="45.06044110838358" lon="8.313173328232727"><ele>334.8</ele><time>2026-03-28T13:00:10Z</time></trkpt><trkpt lat="45.0603934722588" lon="8.313078612319288"><ele>339.0</ele><time>2026-03-28T13:00:11Z</time></trkpt><trkpt lat="45.06033264478589" lon="8.312972047978846"><ele>340.6</ele><time>2026-03-28T13:00:12Z</time></trkpt><trkpt lat="45.06026209855228" lon="8.312859470668526"><ele>342.2</ele><time>2026-03-28T13:00:13Z</time></trkpt><trkpt lat="45.06019443841284" lon="8.31274746945951"><ele>343.8</ele><time>2026-03-28T13:00:14Z</time></trkpt><trkpt lat="45.06013523877603" lon="8.31263395567111"><ele>345.40000000000003</ele><time>2026-03-28T13:00:15Z</time></trkpt><trkpt lat="45.06008825393265" lon="8.312534182298178"><ele>347.0</ele><time>2026-03-28T13:00:16Z</time></trkpt><trkpt lat="45.06004468771621" lon="8.312443299892735"><ele>347.0</ele><time>2026-03-28T13:00:17Z</time></trkpt><trkpt lat="45.06001381799818" lon="8.312360030329703"><ele>347.0</ele><time>2026-03-28T13:00:18Z</time></trkpt><trkpt lat="45.06000486623448" lon="8.312224832779876"><ele>347.0</ele><time>2026-03-28T13:00:20Z</time></trkpt><trkpt lat="45.060070498781634" lon="8.312119352509395"><ele>347.0</ele><time>2026-03-28T13:00:22Z</time></trkpt><trkpt lat="45.06015146747169" lon="8.312084383405999"><ele>347.0</ele><time>2026-03-28T13:00:25Z</time></trkpt><trkpt lat="45.060260780363706" lon="8.312100708627465"><ele>348.0</ele><time>2026-03-28T13:00:27Z</time></trkpt><trkpt lat="45.06034019311729" lon="8.312098690051862"><ele>349.0</ele><time>2026-03-28T13:00:29Z</time></trkpt><trkpt lat="45.06044488009469" lon="8.312109247538483"><ele>350.0</ele><time>2026-03-28T13:00:31Z</time></trkpt><trkpt lat="45.060542931293455" lon="8.312061080080513"><ele>351.0</ele><time>2026-03-28T13:00:33Z</time></trkpt><trkpt lat="45.060608383633834" lon="8.311986848343912"><ele>352.0</ele><time>2026-03-28T13:00:35Z</time></trkpt><trkpt lat="45.060712848330766" lon="8.311974701718501"><ele>350.3333333333333</ele><time>2026-03-28T13:00:37Z</time></trkpt><trkpt lat="45.06078285070202" lon="8.311926575980992"><ele>348.66666666666663</ele><time>2026-03-28T13:00:38Z</time></trkpt><trkpt lat="45.06086841481641" lon="8.311887999326952"><ele>347.0</ele><time>2026-03-28T13:00:39Z</time></trkpt><trkpt lat="45.060956878127165" lon="8.31181282676176"><ele>345.3333333333333</ele><time>2026-03-28T13:00:40Z</time></trkpt><trkpt lat="45.06100733392329" lon="8.31172471593977"><ele>343.6666666666667</ele><time>2026-03-28T13:00:41Z</time></trkpt><trkpt lat="45.061023552338945" lon="8.311626174822916"><ele>342.0</ele><time>2026-03-28T13:00:42Z</time></trkpt><trkpt lat="45.06100981350565" lon="8.31150332438014"><ele>344.0</ele><time>2026-03-28T13:00:43Z</time></trkpt><trkpt lat="45.061014209641314" lon="8.311382598723755"><ele>346.0</ele><time>2026-03-28T13:00:44.001Z</time></trkpt><trkpt lat="45.06103457371771" lon="8.311216491599101"><ele>348.0</ele><time>2026-03-28T13:00:45.001Z</time></trkpt><trkpt lat="45.061019484832975" lon="8.311068786491024"><ele>350.0</ele><time>2026-03-28T13:00:46.001Z</time></trkpt><trkpt lat="45.06099874221737" lon="8.310938245831876"><ele>352.0</ele><time>2026-03-28T13:00:47.001Z</time></trkpt><trkpt lat="45.06095883944033" lon="8.310812018972694"><ele>352.0</ele><time>2026-03-28T13:00:48.001Z</time></trkpt><trkpt lat="45.06091996517167" lon="8.31068327281366"><ele>352.0</ele><time>2026-03-28T13:00:49.001Z</time></trkpt><trkpt lat="45.06085272931265" lon="8.310553116623598"><ele>352.0</ele><time>2026-03-28T13:00:50.001Z</time></trkpt><trkpt lat="45.060808885854016" lon="8.310412553897807"><ele>352.0</ele><time>2026-03-28T13:00:51.001Z</time></trkpt><trkpt lat="45.06077556265686" lon="8.310306269379451"><ele>352.0</ele><time>2026-03-28T13:00:52.001Z</time></trkpt><trkpt lat="45.060781278946884" lon="8.310187692543261"><ele>351.8</ele><time>2026-03-28T13:00:53.001Z</time></trkpt><trkpt lat="45.06079544638276" lon="8.310045473566428"><ele>351.6</ele><time>2026-03-28T13:00:54.001Z</time></trkpt><trkpt lat="45.06080156137036" lon="8.309890307175614"><ele>351.40000000000003</ele><time>2026-03-28T13:00:55.001Z</time></trkpt><trkpt lat="45.060830127034286" lon="8.309794475225557"><ele>351.20000000000005</ele><time>2026-03-28T13:00:56.001Z</time></trkpt><trkpt lat="45.060890188272246" lon="8.309731462954865"><ele>351.0</ele><time>2026-03-28T13:00:57.001Z</time></trkpt><trkpt lat="45.060979713239696" lon="8.309669877024863"><ele>351.0</ele><time>2026-03-28T13:00:58.001Z</time></trkpt><trkpt lat="45.06102458023232" lon="8.309549486659106"><ele>351.0</ele><time>2026-03-28T13:00:59.001Z</time></trkpt><trkpt lat="45.06105994863285" lon="8.309404684462812"><ele>351.0</ele><time>2026-03-28T13:01:00.001Z</time></trkpt><trkpt lat="45.061063594894314" lon="8.309270424903922"><ele>351.0</ele><time>2026-03-28T13:01:01.001Z</time></trkpt><trkpt lat="45.06104496962633" lon="8.309162623759185"><ele>351.0</ele><time>2026-03-28T13:01:02.001Z</time></trkpt><trkpt lat="45.06091795478006" lon="8.309057648031276"><ele>351.0</ele><time>2026-03-28T13:01:04.001Z</time></trkpt><trkpt lat="45.060807441704036" lon="8.309057044031444"><ele>351.0</ele><time>2026-03-28T13:01:05.001Z</time></trkpt><trkpt lat="45.060705779385806" lon="8.309033885948132"><ele>351.0</ele><time>2026-03-28T13:01:06.001Z</time></trkpt><trkpt lat="45.0605951967483" lon="8.30898857330032"><ele>351.0</ele><time>2026-03-28T13:01:07.001Z</time></trkpt><trkpt lat="45.06050060119517" lon="8.308957065715468"><ele>351.0</ele><time>2026-03-28T13:01:08.001Z</time></trkpt><trkpt lat="45.060377941580064" lon="8.30893248678458"><ele>352.4</ele><time>2026-03-28T13:01:09.001Z</time></trkpt><trkpt lat="45.06027169349689" lon="8.308912791872897"><ele>353.8</ele><time>2026-03-28T13:01:10.001Z</time></trkpt><trkpt lat="45.060203734349805" lon="8.308857838153283"><ele>355.2</ele><time>2026-03-28T13:01:11.001Z</time></trkpt><trkpt lat="45.06013057147644" lon="8.308730457572974"><ele>356.59999999999997</ele><time>2026-03-28T13:01:13.001Z</time></trkpt><trkpt lat="45.060099306298774" lon="8.308598951959135"><ele>358.0</ele><time>2026-03-28T13:01:14.001Z</time></trkpt><trkpt lat="45.060092145390946" lon="8.308405497074661"><ele>358.0</ele><time>2026-03-28T13:01:15.001Z</time></trkpt><trkpt lat="45.06009552954308" lon="8.308254473935982"><ele>358.0</ele><time>2026-03-28T13:01:16.001Z</time></trkpt><trkpt lat="45.06009914373596" lon="8.308107017178349"><ele>358.0</ele><time>2026-03-28T13:01:17.001Z</time></trkpt><trkpt lat="45.060119012524126" lon="8.30801709773856"><ele>358.0</ele><time>2026-03-28T13:01:18.001Z</time></trkpt><trkpt lat="45.06005666947119" lon="8.307848291141031"><ele>358.0</ele><time>2026-03-28T13:01:20.001Z</time></trkpt><trkpt lat="45.05997714424272" lon="8.307766201386583"><ele>360.4</ele><time>2026-03-28T13:01:21.001Z</time></trkpt><trkpt lat="45.059906089308605" lon="8.307671856418025"><ele>362.79999999999995</ele><time>2026-03-28T13:01:22.001Z</time></trkpt><trkpt lat="45.05980513061761" lon="8.307534392128558"><ele>365.2</ele><time>2026-03-28T13:01:24.001Z</time></trkpt><trkpt lat="45.05975333957643" lon="8.307436361086552"><ele>367.6</ele><time>2026-03-28T13:01:25.001Z</time></trkpt><trkpt lat="45.05972671408761" lon="8.307352960290244"><ele>370.0</ele><time>2026-03-28T13:01:26.001Z</time></trkpt><trkpt lat="45.059722571459666" lon="8.307226508455305"><ele>370.0</ele><time>2026-03-28T13:01:28.001Z</time></trkpt><trkpt lat="45.05973844698093" lon="8.307111937773874"><ele>370.0</ele><time>2026-03-28T13:01:30.001Z</time></trkpt><trkpt lat="45.059756441622234" lon="8.30700463924677"><ele>370.0</ele><time>2026-03-28T13:01:35.001Z</time></trkpt><trkpt lat="45.05976631521208" lon="8.306916312637874"><ele>370.0</ele><time>2026-03-28T13:01:37.001Z</time></trkpt><trkpt lat="45.05980381469444" lon="8.306823931309602"><ele>370.0</ele><time>2026-03-28T13:01:39.001Z</time></trkpt><trkpt lat="45.05985414427669" lon="8.306668843913243"><ele>370.0</ele><time>2026-03-28T13:01:41.001Z</time></trkpt><trkpt lat="45.05991230056379" lon="8.306545588745598"><ele>366.75</ele><time>2026-03-28T13:01:43.001Z</time></trkpt><trkpt lat="45.05997051701408" lon="8.306368188724834"><ele>363.5</ele><time>2026-03-28T13:01:45.002Z</time></trkpt><trkpt lat="45.05999432320828" lon="8.30624697582895"><ele>360.25</ele><time>2026-03-28T13:01:46.002Z</time></trkpt><trkpt lat="45.06005904560703" lon="8.306109599059024"><ele>357.0</ele><time>2026-03-28T13:01:47.002Z</time></trkpt><trkpt lat="45.06011362496891" lon="8.305974611884357"><ele>357.0</ele><time>2026-03-28T13:01:48.002Z</time></trkpt><trkpt lat="45.060165520310676" lon="8.30585274550707"><ele>357.0</ele><time>2026-03-28T13:01:49.002Z</time></trkpt><trkpt lat="45.06021313903322" lon="8.305740713010008"><ele>357.0</ele><time>2026-03-28T13:01:50.002Z</time></trkpt><trkpt lat="45.06027417534593" lon="8.30564223975252"><ele>357.0</ele><time>2026-03-28T13:01:51.002Z</time></trkpt><trkpt lat="45.06032604305031" lon="8.3055462825564"><ele>357.0</ele><time>2026-03-28T13:01:52.002Z</time></trkpt><trkpt lat="45.0603653150059" lon="8.305442940514626"><ele>357.6666666666667</ele><time>2026-03-28T13:01:53.002Z</time></trkpt><trkpt lat="45.06035006016182" lon="8.305317904818477"><ele>358.3333333333333</ele><time>2026-03-28T13:01:55.002Z</time></trkpt><trkpt lat="45.060447069139954" lon="8.305270527625687"><ele>359.0</ele><time>2026-03-28T13:01:58.999Z</time></trkpt><trkpt lat="45.06051451598924" lon="8.30525341368978"><ele>359.66666666666663</ele><time>2026-03-28T13:01:59.999Z</time></trkpt><trkpt lat="45.06058381088317" lon="8.305229775661843"><ele>360.3333333333333</ele><time>2026-03-28T13:02:00.999Z</time></trkpt><trkpt lat="45.060689909708834" lon="8.305197883923523"><ele>361.0</ele><time>2026-03-28T13:02:02.999Z</time></trkpt><trkpt lat="45.0606915315591" lon="8.3050832976093"><ele>361.0</ele><time>2026-03-28T13:02:04.999Z</time></trkpt><trkpt lat="45.06062350679626" lon="8.304966967902171"><ele>361.0</ele><time>2026-03-28T13:02:06.999Z</time></trkpt><trkpt lat="45.06059465361951" lon="8.304863381726145"><ele>361.0</ele><time>2026-03-28T13:02:08.999Z</time></trkpt><trkpt lat="45.06058524205849" lon="8.304728276528241"><ele>361.0</ele><time>2026-03-28T13:02:11Z</time></trkpt><trkpt lat="45.06058735160485" lon="8.30461021863116"><ele>361.0</ele><time>2026-03-28T13:02:13Z</time></trkpt><trkpt lat="45.06060165098825" lon="8.304457564679627"><ele>361.16666666666663</ele><time>2026-03-28T13:02:15Z</time></trkpt><trkpt lat="45.06060333104933" lon="8.304348548757448"><ele>361.3333333333333</ele><time>2026-03-28T13:02:17Z</time></trkpt><trkpt lat="45.060597375442164" lon="8.304211544888533"><ele>361.5</ele><time>2026-03-28T13:02:19Z</time></trkpt><trkpt lat="45.06054404483317" lon="8.304064038465931"><ele>361.6666666666667</ele><time>2026-03-28T13:02:21Z</time></trkpt><trkpt lat="45.06050162610854" lon="8.303984166609593"><ele>361.83333333333337</ele><time>2026-03-28T13:02:22Z</time></trkpt><trkpt lat="45.06045981915074" lon="8.303902099451637"><ele>362.0</ele><time>2026-03-28T13:02:23Z</time></trkpt><trkpt lat="45.0604441093591" lon="8.30375467235246"><ele>360.33333333333337</ele><time>2026-03-28T13:02:25Z</time></trkpt><trkpt lat="45.06042486354038" lon="8.303661391116234"><ele>358.6666666666667</ele><time>2026-03-28T13:02:27Z</time></trkpt><trkpt lat="45.060410722257224" lon="8.303502727718449"><ele>357.0</ele><time>2026-03-28T13:02:29Z</time></trkpt><trkpt lat="45.060347003830124" lon="8.303396991406224"><ele>355.3333333333333</ele><time>2026-03-28T13:02:31Z</time></trkpt><trkpt lat="45.06029042346924" lon="8.303347173470133"><ele>353.66666666666663</ele><time>2026-03-28T13:02:33Z</time></trkpt><trkpt lat="45.060240406597636" lon="8.303292804707302"><ele>352.0</ele><time>2026-03-28T13:02:35Z</time></trkpt><trkpt lat="45.06018513302878" lon="8.303179469854722"><ele>352.0</ele><time>2026-03-28T13:02:38Z</time></trkpt><trkpt lat="45.060181507296235" lon="8.303080843616838"><ele>352.0</ele><time>2026-03-28T13:03:08.001Z</time></trkpt><trkpt lat="45.06014234370545" lon="8.303006156529204"><ele>352.0</ele><time>2026-03-28T13:03:10.001Z</time></trkpt><trkpt lat="45.06016218350201" lon="8.30291682828036"><ele>352.0</ele><time>2026-03-28T13:03:12.001Z</time></trkpt><trkpt lat="45.06019803661247" lon="8.302839414406055"><ele>352.0</ele><time>2026-03-28T13:03:15.001Z</time></trkpt><trkpt lat="45.060256330994044" lon="8.302723440105204"><ele>352.0</ele><time>2026-03-28T13:03:17.001Z</time></trkpt><trkpt lat="45.060307468573455" lon="8.30263015913493"><ele>352.0</ele><time>2026-03-28T13:03:19.001Z</time></trkpt><trkpt lat="45.06035551657062" lon="8.302512547241085"><ele>352.0</ele><time>2026-03-28T13:03:20.001Z</time></trkpt><trkpt lat="45.060415793860436" lon="8.30241874718523"><ele>352.0</ele><time>2026-03-28T13:03:21.001Z</time></trkpt><trkpt lat="45.06046453890875" lon="8.302347075449992"><ele>352.0</ele><time>2026-03-28T13:03:22.001Z</time></trkpt><trkpt lat="45.060508584574805" lon="8.302257579165621"><ele>352.0</ele><time>2026-03-28T13:03:23.001Z</time></trkpt><trkpt lat="45.06054624682973" lon="8.302148938073014"><ele>352.0</ele><time>2026-03-28T13:03:24.001Z</time></trkpt><trkpt lat="45.0605880416111" lon="8.302014685376495"><ele>352.66666666666663</ele><time>2026-03-28T13:03:25.001Z</time></trkpt><trkpt lat="45.060621692031106" lon="8.301903870034206"><ele>353.3333333333333</ele><time>2026-03-28T13:03:26.001Z</time></trkpt><trkpt lat="45.06061234726036" lon="8.301798006451342"><ele>354.0</ele><time>2026-03-28T13:03:27.001Z</time></trkpt><trkpt lat="45.06061287106977" lon="8.30170426292204"><ele>354.6666666666667</ele><time>2026-03-28T13:03:28.001Z</time></trkpt><trkpt lat="45.060664314469804" lon="8.301628567200924"><ele>355.33333333333337</ele><time>2026-03-28T13:03:31.001Z</time></trkpt><trkpt lat="45.06073543499521" lon="8.30158711011942"><ele>356.0</ele><time>2026-03-28T13:03:34.001Z</time></trkpt><trkpt lat="45.060811759534225" lon="8.301517555408166"><ele>353.33333333333337</ele><time>2026-03-28T13:03:35.001Z</time></trkpt><trkpt lat="45.06088376025833" lon="8.30138308786637"><ele>350.6666666666667</ele><time>2026-03-28T13:03:37.001Z</time></trkpt><trkpt lat="45.06088580063399" lon="8.301247007195911"><ele>348.0</ele><time>2026-03-28T13:03:38.001Z</time></trkpt><trkpt lat="45.060883854985754" lon="8.301141924535237"><ele>345.3333333333333</ele><time>2026-03-28T13:03:39.001Z</time></trkpt><trkpt lat="45.06087999048473" lon="8.30104383905126"><ele>342.66666666666663</ele><time>2026-03-28T13:03:40.001Z</time></trkpt><trkpt lat="45.06088518373556" lon="8.300929867955515"><ele>340.0</ele><time>2026-03-28T13:03:42.001Z</time></trkpt><trkpt lat="45.06094534008323" lon="8.300843777642186"><ele>340.0</ele><time>2026-03-28T13:03:44.001Z</time></trkpt><trkpt lat="45.06102175826664" lon="8.300834099543142"><ele>340.0</ele><time>2026-03-28T13:04:31Z</time></trkpt><trkpt lat="45.061096990908425" lon="8.30077534693498"><ele>340.0</ele><time>2026-03-28T13:04:48.001Z</time></trkpt><trkpt lat="45.061160681418" lon="8.300651255284654"><ele>340.0</ele><time>2026-03-28T13:04:50.001Z</time></trkpt><trkpt lat="45.06120348813988" lon="8.30057136609437"><ele>340.0</ele><time>2026-03-28T13:04:51.001Z</time></trkpt><trkpt lat="45.061252410540725" lon="8.300514967087"><ele>340.0</ele><time>2026-03-28T13:04:52.001Z</time></trkpt><trkpt lat="45.061310954977" lon="8.300428900442128"><ele>341.0</ele><time>2026-03-28T13:04:53.001Z</time></trkpt><trkpt lat="45.06133700472331" lon="8.300345871808666"><ele>342.0</ele><time>2026-03-28T13:04:54.001Z</time></trkpt><trkpt lat="45.06129038774359" lon="8.300188321534556"><ele>343.0</ele><time>2026-03-28T13:04:56.001Z</time></trkpt><trkpt lat="45.061229780634456" lon="8.300104691969986"><ele>344.0</ele><time>2026-03-28T13:04:58.001Z</time></trkpt><trkpt lat="45.0611961109152" lon="8.30002085409782"><ele>345.0</ele><time>2026-03-28T13:04:59.001Z</time></trkpt><trkpt lat="45.06114412404362" lon="8.299942999465017"><ele>346.0</ele><time>2026-03-28T13:05:00.001Z</time></trkpt><trkpt lat="45.06109455027153" lon="8.299785186350132"><ele>345.8333333333333</ele><time>2026-03-28T13:05:02.001Z</time></trkpt><trkpt lat="45.06109929069709" lon="8.299621245422564"><ele>345.66666666666663</ele><time>2026-03-28T13:05:04.001Z</time></trkpt><trkpt lat="45.06112076461255" lon="8.299524118008557"><ele>345.5</ele><time>2026-03-28T13:05:05.001Z</time></trkpt><trkpt lat="45.06115842225282" lon="8.299437210385191"><ele>345.3333333333333</ele><time>2026-03-28T13:05:06.001Z</time></trkpt><trkpt lat="45.06118970497817" lon="8.299333639820876"><ele>345.1666666666667</ele><time>2026-03-28T13:05:07.001Z</time></trkpt><trkpt lat="45.06122637381772" lon="8.299223252308625"><ele>345.0</ele><time>2026-03-28T13:05:08.001Z</time></trkpt><trkpt lat="45.06129058440201" lon="8.299101186202254"><ele>345.0</ele><time>2026-03-28T13:05:09.001Z</time></trkpt><trkpt lat="45.061363871954896" lon="8.299005718574067"><ele>345.0</ele><time>2026-03-28T13:05:10.001Z</time></trkpt><trkpt lat="45.06143856986651" lon="8.298918940515048"><ele>345.0</ele><time>2026-03-28T13:05:11.001Z</time></trkpt><trkpt lat="45.061485662343074" lon="8.298835052029649"><ele>345.0</ele><time>2026-03-28T13:05:12.001Z</time></trkpt><trkpt lat="45.0615332394413" lon="8.298751725585808"><ele>345.0</ele><time>2026-03-28T13:07:41.002Z</time></trkpt><trkpt lat="45.061590537710046" lon="8.298609605374912"><ele>343.8</ele><time>2026-03-28T13:08:56.001Z</time></trkpt><trkpt lat="45.061623645798775" lon="8.298519945939816"><ele>342.6</ele><time>2026-03-28T13:08:58.001Z</time></trkpt><trkpt lat="45.061700574912756" lon="8.298454392962993"><ele>341.4</ele><time>2026-03-28T13:09:01.001Z</time></trkpt><trkpt lat="45.061806972103085" lon="8.298452371278078"><ele>340.2</ele><time>2026-03-28T13:09:03.001Z</time></trkpt><trkpt lat="45.061878017703016" lon="8.298468203958539"><ele>339.0</ele><time>2026-03-28T13:09:04.001Z</time></trkpt><trkpt lat="45.06199635443109" lon="8.298503184003632"><ele>339.0</ele><time>2026-03-28T13:09:06.001Z</time></trkpt><trkpt lat="45.06208664658349" lon="8.298587257103181"><ele>339.0</ele><time>2026-03-28T13:09:08.001Z</time></trkpt><trkpt lat="45.06220870360061" lon="8.29849152047172"><ele>339.0</ele><time>2026-03-28T13:09:10.001Z</time></trkpt><trkpt lat="45.06229041540242" lon="8.298386792450325"><ele>339.0</ele><time>2026-03-28T13:09:12.001Z</time></trkpt><trkpt lat="45.06231734120567" lon="8.298296149223617"><ele>339.0</ele><time>2026-03-28T13:09:13.001Z</time></trkpt><trkpt lat="45.06236411571305" lon="8.298235443329522"><ele>339.0</ele><time>2026-03-28T13:09:14.001Z</time></trkpt><trkpt lat="45.062414653453" lon="8.298148528200464"><ele>339.0</ele><time>2026-03-28T13:09:16.001Z</time></trkpt><trkpt lat="45.06248904682631" lon="8.298117755742526"><ele>339.0</ele><time>2026-03-28T13:09:18.001Z</time></trkpt><trkpt lat="45.062567422453775" lon="8.298157389254486"><ele>339.0</ele><time>2026-03-28T13:09:20.001Z</time></trkpt><trkpt lat="45.06261586244567" lon="8.298293851690222"><ele>339.0</ele><time>2026-03-28T13:09:22.001Z</time></trkpt><trkpt lat="45.06262912800524" lon="8.298382292036834"><ele>339.0</ele><time>2026-03-28T13:09:23.001Z</time></trkpt><trkpt lat="45.062619451993896" lon="8.298515434825006"><ele>336.6</ele><time>2026-03-28T13:09:25.001Z</time></trkpt><trkpt lat="45.062637889125654" lon="8.298631746969518"><ele>334.2</ele><time>2026-03-28T13:09:27.001Z</time></trkpt><trkpt lat="45.06270116404986" lon="8.298726850238578"><ele>331.8</ele><time>2026-03-28T13:09:30.001Z</time></trkpt><trkpt lat="45.06278942046035" lon="8.298737350799158"><ele>329.40000000000003</ele><time>2026-03-28T13:09:32.001Z</time></trkpt><trkpt lat="45.06289387388328" lon="8.29861722093474"><ele>327.0</ele><time>2026-03-28T13:09:34.001Z</time></trkpt><trkpt lat="45.06298542787357" lon="8.29852898786797"><ele>327.0</ele><time>2026-03-28T13:09:35.001Z</time></trkpt><trkpt lat="45.06308294256385" lon="8.2984621676448"><ele>327.0</ele><time>2026-03-28T13:09:37.001Z</time></trkpt><trkpt lat="45.06315033717006" lon="8.29847178938582"><ele>327.0</ele><time>2026-03-28T13:09:38.001Z</time></trkpt><trkpt lat="45.063217962290096" lon="8.298480626137541"><ele>327.0</ele><time>2026-03-28T13:09:39.001Z</time></trkpt><trkpt lat="45.06330557792565" lon="8.298518642183257"><ele>327.0</ele><time>2026-03-28T13:09:40.001Z</time></trkpt><trkpt lat="45.06342098543663" lon="8.298564985877388"><ele>324.5</ele><time>2026-03-28T13:09:41.001Z</time></trkpt><trkpt lat="45.063493047385165" lon="8.29860189700348"><ele>322.0</ele><time>2026-03-28T13:09:42.001Z</time></trkpt><trkpt lat="45.06357922651644" lon="8.298593871459753"><ele>319.5</ele><time>2026-03-28T13:09:43.001Z</time></trkpt><trkpt lat="45.06364495659792" lon="8.298614043334899"><ele>317.0</ele><time>2026-03-28T13:09:44.002Z</time></trkpt><trkpt lat="45.06372018771319" lon="8.298635544467372"><ele>314.5</ele><time>2026-03-28T13:09:45.002Z</time></trkpt><trkpt lat="45.06379673905145" lon="8.298635086182733"><ele>312.0</ele><time>2026-03-28T13:09:46.002Z</time></trkpt><trkpt lat="45.063885632796264" lon="8.298647681187893"><ele>312.0</ele><time>2026-03-28T13:09:47.002Z</time></trkpt><trkpt lat="45.064014618647576" lon="8.298655586639091"><ele>312.0</ele><time>2026-03-28T13:09:49.002Z</time></trkpt><trkpt lat="45.06413377340173" lon="8.298536302599354"><ele>312.0</ele><time>2026-03-28T13:09:51.002Z</time></trkpt><trkpt lat="45.06421907112296" lon="8.29843858669337"><ele>312.0</ele><time>2026-03-28T13:09:52.002Z</time></trkpt><trkpt lat="45.064281965043236" lon="8.29840310578988"><ele>309.6666666666667</ele><time>2026-03-28T13:09:53.002Z</time></trkpt><trkpt lat="45.06434373033266" lon="8.298340951671202"><ele>307.3333333333333</ele><time>2026-03-28T13:09:54.002Z</time></trkpt><trkpt lat="45.06442094035395" lon="8.29835311188847"><ele>305.0</ele><time>2026-03-28T13:09:55.002Z</time></trkpt><trkpt lat="45.06452150136689" lon="8.29834312638143"><ele>302.66666666666663</ele><time>2026-03-28T13:09:56.002Z</time></trkpt><trkpt lat="45.06461871731811" lon="8.298336055607509"><ele>300.3333333333333</ele><time>2026-03-28T13:09:57.002Z</time></trkpt><trkpt lat="45.064714799708085" lon="8.298328074485724"><ele>298.0</ele><time>2026-03-28T13:09:58.002Z</time></trkpt><trkpt lat="45.064810401096835" lon="8.298320665149694"><ele>298.0</ele><time>2026-03-28T13:09:59.002Z</time></trkpt><trkpt lat="45.064891528432554" lon="8.298313739688187"><ele>298.0</ele><time>2026-03-28T13:10:00.002Z</time></trkpt><trkpt lat="45.06495558644292" lon="8.298311202830813"><ele>298.0</ele><time>2026-03-28T13:10:01.002Z</time></trkpt><trkpt lat="45.06499111714066" lon="8.298220740743194"><ele>298.0</ele><time>2026-03-28T13:10:03.002Z</time></trkpt><trkpt lat="45.0649531623343" lon="8.298086267007008"><ele>298.0</ele><time>2026-03-28T13:10:05.002Z</time></trkpt><trkpt lat="45.064923324288756" lon="8.29797923851714"><ele>298.0</ele><time>2026-03-28T13:10:06.002Z</time></trkpt><trkpt lat="45.064889304980866" lon="8.297843288457555"><ele>299.2</ele><time>2026-03-28T13:10:07.002Z</time></trkpt><trkpt lat="45.06486403035705" lon="8.297709416363489"><ele>300.4</ele><time>2026-03-28T13:10:08.002Z</time></trkpt><trkpt lat="45.06483924256959" lon="8.297579689547742"><ele>301.59999999999997</ele><time>2026-03-28T13:10:09.002Z</time></trkpt><trkpt lat="45.06479610432501" lon="8.297455335905692"><ele>302.8</ele><time>2026-03-28T13:10:10.002Z</time></trkpt><trkpt lat="45.064745391212426" lon="8.297332025836017"><ele>304.0</ele><time>2026-03-28T13:10:11.002Z</time></trkpt><trkpt lat="45.06468177297382" lon="8.297237682235334"><ele>299.5</ele><time>2026-03-28T13:10:12.002Z</time></trkpt><trkpt lat="45.06459991351453" lon="8.297143598536357"><ele>295.0</ele><time>2026-03-28T13:10:13.002Z</time></trkpt><trkpt lat="45.06449171906553" lon="8.297059159324197"><ele>290.5</ele><time>2026-03-28T13:10:14.002Z</time></trkpt><trkpt lat="45.0643708792845" lon="8.296986522456917"><ele>286.0</ele><time>2026-03-28T13:10:15.002Z</time></trkpt><trkpt lat="45.06427848764252" lon="8.296914851995293"><ele>286.0</ele><time>2026-03-28T13:10:16.002Z</time></trkpt><trkpt lat="45.06421976973929" lon="8.296797459257569"><ele>286.0</ele><time>2026-03-28T13:10:17.002Z</time></trkpt><trkpt lat="45.06417922224235" lon="8.296625344582749"><ele>286.0</ele><time>2026-03-28T13:10:18.002Z</time></trkpt><trkpt lat="45.06411920402794" lon="8.29644745579075"><ele>286.0</ele><time>2026-03-28T13:10:19.002Z</time></trkpt><trkpt lat="45.0640683683363" lon="8.296304292540484"><ele>292.8</ele><time>2026-03-28T13:10:20.002Z</time></trkpt><trkpt lat="45.06400501895127" lon="8.296186701092608"><ele>299.6</ele><time>2026-03-28T13:10:21.001Z</time></trkpt><trkpt lat="45.06398264927718" lon="8.296051491671074"><ele>306.4</ele><time>2026-03-28T13:10:22.001Z</time></trkpt><trkpt lat="45.06399637951948" lon="8.295928402608192"><ele>313.2</ele><time>2026-03-28T13:10:23.001Z</time></trkpt><trkpt lat="45.06403015401938" lon="8.295785962442848"><ele>320.0</ele><time>2026-03-28T13:10:24.001Z</time></trkpt><trkpt lat="45.06408227627402" lon="8.295583453720715"><ele>320.0</ele><time>2026-03-28T13:10:25.001Z</time></trkpt><trkpt lat="45.06415998929791" lon="8.29540393291651"><ele>320.0</ele><time>2026-03-28T13:10:26.001Z</time></trkpt><trkpt lat="45.06418621919531" lon="8.295269825872806"><ele>320.0</ele><time>2026-03-28T13:10:27.001Z</time></trkpt><trkpt lat="45.06418265730324" lon="8.295143432572642"><ele>320.0</ele><time>2026-03-28T13:10:28.001Z</time></trkpt><trkpt lat="45.0641329903993" lon="8.29504015963866"><ele>320.0</ele><time>2026-03-28T13:10:29.001Z</time></trkpt><trkpt lat="45.064062431209436" lon="8.294939952927953"><ele>320.0</ele><time>2026-03-28T13:10:30.001Z</time></trkpt><trkpt lat="45.063961442142514" lon="8.29480923216498"><ele>320.0</ele><time>2026-03-28T13:10:31.001Z</time></trkpt><trkpt lat="45.06391224967547" lon="8.294673045768363"><ele>320.0</ele><time>2026-03-28T13:10:32.001Z</time></trkpt><trkpt lat="45.06390811392267" lon="8.29453336312584"><ele>320.0</ele><time>2026-03-28T13:10:33.001Z</time></trkpt><trkpt lat="45.06395430922371" lon="8.294388667603855"><ele>321.0</ele><time>2026-03-28T13:10:34.001Z</time></trkpt><trkpt lat="45.06403617353285" lon="8.294232966205064"><ele>322.0</ele><time>2026-03-28T13:10:35.001Z</time></trkpt><trkpt lat="45.0641492773722" lon="8.294069484360955"><ele>323.0</ele><time>2026-03-28T13:10:36.001Z</time></trkpt><trkpt lat="45.06421385087581" lon="8.293953712621889"><ele>324.0</ele><time>2026-03-28T13:10:37.001Z</time></trkpt><trkpt lat="45.0642465325061" lon="8.29383698360076"><ele>316.25</ele><time>2026-03-28T13:10:38.001Z</time></trkpt><trkpt lat="45.06425007713069" lon="8.293693044525751"><ele>308.5</ele><time>2026-03-28T13:10:39.001Z</time></trkpt><trkpt lat="45.06422749643909" lon="8.293524754071704"><ele>300.75</ele><time>2026-03-28T13:10:40.001Z</time></trkpt><trkpt lat="45.06420053782125" lon="8.293345952420934"><ele>293.0</ele><time>2026-03-28T13:10:41.001Z</time></trkpt><trkpt lat="45.064135274058984" lon="8.293150744036739"><ele>294.8</ele><time>2026-03-28T13:10:42.001Z</time></trkpt><trkpt lat="45.06410621441536" lon="8.293003109117848"><ele>296.6</ele><time>2026-03-28T13:10:43.001Z</time></trkpt><trkpt lat="45.06411700605863" lon="8.292898988961856"><ele>298.4</ele><time>2026-03-28T13:10:44.001Z</time></trkpt><trkpt lat="45.06420125067098" lon="8.292837571680844"><ele>300.2</ele><time>2026-03-28T13:10:45.001Z</time></trkpt><trkpt lat="45.064320759746046" lon="8.292794028330867"><ele>302.0</ele><time>2026-03-28T13:10:46.001Z</time></trkpt><trkpt lat="45.0644770498956" lon="8.292765146935084"><ele>302.0</ele><time>2026-03-28T13:10:47.001Z</time></trkpt><trkpt lat="45.06460941859287" lon="8.292709929861283"><ele>302.0</ele><time>2026-03-28T13:10:48.001Z</time></trkpt><trkpt lat="45.064708989649866" lon="8.292645501657478"><ele>302.0</ele><time>2026-03-28T13:10:49.001Z</time></trkpt><trkpt lat="45.06477009295687" lon="8.292567487172539"><ele>302.0</ele><time>2026-03-28T13:10:50.001Z</time></trkpt><trkpt lat="45.06480998918126" lon="8.292462284902554"><ele>302.0</ele><time>2026-03-28T13:10:51.001Z</time></trkpt><trkpt lat="45.064774829416436" lon="8.29231110203515"><ele>303.0</ele><time>2026-03-28T13:10:52.001Z</time></trkpt><trkpt lat="45.06475795812074" lon="8.292134690874168"><ele>304.0</ele><time>2026-03-28T13:10:53.001Z</time></trkpt><trkpt lat="45.064727769903854" lon="8.291884422613158"><ele>305.0</ele><time>2026-03-28T13:10:54.001Z</time></trkpt><trkpt lat="45.064735394109015" lon="8.29170124187708"><ele>306.0</ele><time>2026-03-28T13:10:55.001Z</time></trkpt><trkpt lat="45.06471846638186" lon="8.291512243221378"><ele>303.0</ele><time>2026-03-28T13:10:56.001Z</time></trkpt><trkpt lat="45.064694280760364" lon="8.291365483908496"><ele>300.0</ele><time>2026-03-28T13:10:57.001Z</time></trkpt><trkpt lat="45.06466755326659" lon="8.291244664380631"><ele>297.0</ele><time>2026-03-28T13:10:58.001Z</time></trkpt><trkpt lat="45.0645971497061" lon="8.291124699190052"><ele>294.0</ele><time>2026-03-28T13:11:00.001Z</time></trkpt><trkpt lat="45.06452701359842" lon="8.291160783992161"><ele>291.0</ele><time>2026-03-28T13:11:02.001Z</time></trkpt><trkpt lat="45.06435571093885" lon="8.291241479422252"><ele>291.0</ele><time>2026-03-28T13:11:14.001Z</time></trkpt><trkpt lat="45.06426693637926" lon="8.29125599291902"><ele>291.0</ele><time>2026-03-28T13:11:15.001Z</time></trkpt><trkpt lat="45.06418535402164" lon="8.291208189597702"><ele>291.0</ele><time>2026-03-28T13:11:16.001Z</time></trkpt><trkpt lat="45.06411474042304" lon="8.291202204302197"><ele>291.0</ele><time>2026-03-28T13:11:17.001Z</time></trkpt><trkpt lat="45.064044109851466" lon="8.291189722000862"><ele>291.0</ele><time>2026-03-28T13:11:18.001Z</time></trkpt><trkpt lat="45.063960842062855" lon="8.29115594821781"><ele>291.0</ele><time>2026-03-28T13:11:19.001Z</time></trkpt><trkpt lat="45.06388181918522" lon="8.29110376784155"><ele>291.8333333333333</ele><time>2026-03-28T13:11:20.001Z</time></trkpt><trkpt lat="45.06381971455946" lon="8.291011436376813"><ele>292.6666666666667</ele><time>2026-03-28T13:11:21.001Z</time></trkpt><trkpt lat="45.06378001617008" lon="8.290906118383985"><ele>293.5</ele><time>2026-03-28T13:11:22.001Z</time></trkpt><trkpt lat="45.06373100758773" lon="8.290782426716726"><ele>294.33333333333337</ele><time>2026-03-28T13:11:23.001Z</time></trkpt><trkpt lat="45.06367779949986" lon="8.290685705200792"><ele>295.1666666666667</ele><time>2026-03-28T13:11:24.001Z</time></trkpt><trkpt lat="45.06361715674802" lon="8.29059777698225"><ele>296.0</ele><time>2026-03-28T13:11:25.001Z</time></trkpt><trkpt lat="45.063544485917014" lon="8.29047701098001"><ele>293.40000000000003</ele><time>2026-03-28T13:11:26.001Z</time></trkpt><trkpt lat="45.06347289575226" lon="8.290397662457996"><ele>290.8</ele><time>2026-03-28T13:11:27.001Z</time></trkpt><trkpt lat="45.06340496157148" lon="8.29029284631714"><ele>288.20000000000005</ele><time>2026-03-28T13:11:28.001Z</time></trkpt><trkpt lat="45.063343236742284" lon="8.290170763663001"><ele>285.6</ele><time>2026-03-28T13:11:29.001Z</time></trkpt><trkpt lat="45.06327004589188" lon="8.290083297634595"><ele>283.0</ele><time>2026-03-28T13:11:30.001Z</time></trkpt><trkpt lat="45.063204530232476" lon="8.289980129830962"><ele>283.0</ele><time>2026-03-28T13:11:31.001Z</time></trkpt><trkpt lat="45.063142486838416" lon="8.289884987815194"><ele>283.0</ele><time>2026-03-28T13:11:32.001Z</time></trkpt><trkpt lat="45.06307453573123" lon="8.289800807848183"><ele>283.0</ele><time>2026-03-28T13:11:33.001Z</time></trkpt><trkpt lat="45.06300104242606" lon="8.289738281700208"><ele>283.0</ele><time>2026-03-28T13:11:34.001Z</time></trkpt><trkpt lat="45.062927626489746" lon="8.289658188236418"><ele>283.0</ele><time>2026-03-28T13:11:35.001Z</time></trkpt><trkpt lat="45.06285594966948" lon="8.289565448486647"><ele>278.25</ele><time>2026-03-28T13:11:36.001Z</time></trkpt><trkpt lat="45.06272001340026" lon="8.289568332260936"><ele>273.5</ele><time>2026-03-28T13:11:37.001Z</time></trkpt><trkpt lat="45.06260520411433" lon="8.28952476068092"><ele>268.75</ele><time>2026-03-28T13:11:38.001Z</time></trkpt><trkpt lat="45.06251490608818" lon="8.289481932903955"><ele>264.0</ele><time>2026-03-28T13:11:39.001Z</time></trkpt><trkpt lat="45.06239801157679" lon="8.28943732676459"><ele>262.4</ele><time>2026-03-28T13:11:40.001Z</time></trkpt><trkpt lat="45.06231759017228" lon="8.289412741546114"><ele>260.79999999999995</ele><time>2026-03-28T13:11:41.001Z</time></trkpt><trkpt lat="45.06221977291945" lon="8.289391993260878"><ele>259.20000000000005</ele><time>2026-03-28T13:11:42.001Z</time></trkpt><trkpt lat="45.06211261789485" lon="8.289402486138194"><ele>257.6</ele><time>2026-03-28T13:11:43.001Z</time></trkpt><trkpt lat="45.06201297689442" lon="8.28943271342311"><ele>256.0</ele><time>2026-03-28T13:11:44.001Z</time></trkpt><trkpt lat="45.06191736438069" lon="8.28946126629552"><ele>256.0</ele><time>2026-03-28T13:11:45.001Z</time></trkpt><trkpt lat="45.0618257261691" lon="8.289508584739593"><ele>256.0</ele><time>2026-03-28T13:11:46.001Z</time></trkpt><trkpt lat="45.061741180668946" lon="8.28956106123662"><ele>256.0</ele><time>2026-03-28T13:11:47.001Z</time></trkpt><trkpt lat="45.06166038521379" lon="8.289648209047236"><ele>256.0</ele><time>2026-03-28T13:11:48.001Z</time></trkpt><trkpt lat="45.061554146640006" lon="8.289767721467362"><ele>256.0</ele><time>2026-03-28T13:11:49.001Z</time></trkpt><trkpt lat="45.0614184335804" lon="8.28986802339694"><ele>255.75</ele><time>2026-03-28T13:11:50.001Z</time></trkpt><trkpt lat="45.061305076578876" lon="8.289942636279953"><ele>255.5</ele><time>2026-03-28T13:11:51.001Z</time></trkpt><trkpt lat="45.06118782041436" lon="8.290028562001732"><ele>255.25</ele><time>2026-03-28T13:11:52.001Z</time></trkpt><trkpt lat="45.06107590364408" lon="8.29010699461123"><ele>255.0</ele><time>2026-03-28T13:11:53.001Z</time></trkpt><trkpt lat="45.06097664840563" lon="8.290207418955495"><ele>255.0</ele><time>2026-03-28T13:11:54.001Z</time></trkpt><trkpt lat="45.060874625093014" lon="8.290292961537908"><ele>255.0</ele><time>2026-03-28T13:11:55.001Z</time></trkpt><trkpt lat="45.060774212996556" lon="8.290380086792402"><ele>255.0</ele><time>2026-03-28T13:11:56.001Z</time></trkpt><trkpt lat="45.0606817994587" lon="8.290462782165609"><ele>255.0</ele><time>2026-03-28T13:11:57.001Z</time></trkpt><trkpt lat="45.06058743223065" lon="8.290546443751902"><ele>254.5</ele><time>2026-03-28T13:11:58.001Z</time></trkpt><trkpt lat="45.06048529119738" lon="8.290616293237122"><ele>254.0</ele><time>2026-03-28T13:11:59.001Z</time></trkpt><trkpt lat="45.060365242007094" lon="8.290675594207556"><ele>253.5</ele><time>2026-03-28T13:12:00.001Z</time></trkpt><trkpt lat="45.060242825398554" lon="8.290705689299772"><ele>253.0</ele><time>2026-03-28T13:12:01.001Z</time></trkpt><trkpt lat="45.060135231226155" lon="8.290740448750908"><ele>253.0</ele><time>2026-03-28T13:12:02.001Z</time></trkpt><trkpt lat="45.060019326208845" lon="8.290776037346003"><ele>253.0</ele><time>2026-03-28T13:12:03.001Z</time></trkpt><trkpt lat="45.05990041925428" lon="8.290810160971521"><ele>253.0</ele><time>2026-03-28T13:12:04.001Z</time></trkpt><trkpt lat="45.059784556149786" lon="8.290824140086125"><ele>253.0</ele><time>2026-03-28T13:12:05.001Z</time></trkpt><trkpt lat="45.059675123534426" lon="8.290809731792443"><ele>251.2</ele><time>2026-03-28T13:12:06.001Z</time></trkpt><trkpt lat="45.05957440472733" lon="8.290803232020622"><ele>249.4</ele><time>2026-03-28T13:12:07.001Z</time></trkpt><trkpt lat="45.059482476428165" lon="8.29083910585774"><ele>247.59999999999997</ele><time>2026-03-28T13:12:08.001Z</time></trkpt><trkpt lat="45.059380545912504" lon="8.290896174725873"><ele>245.79999999999998</ele><time>2026-03-28T13:12:09.001Z</time></trkpt><trkpt lat="45.0592724730111" lon="8.290963262258106"><ele>244.0</ele><time>2026-03-28T13:12:10.001Z</time></trkpt><trkpt lat="45.05917593819686" lon="8.291023360868216"><ele>242.0</ele><time>2026-03-28T13:12:11.001Z</time></trkpt><trkpt lat="45.05908458434484" lon="8.291062655316972"><ele>239.99999999999997</ele><time>2026-03-28T13:12:12.001Z</time></trkpt><trkpt lat="45.05898700700592" lon="8.29109482276822"><ele>237.99999999999997</ele><time>2026-03-28T13:12:13.001Z</time></trkpt><trkpt lat="45.05888395190098" lon="8.291115469883032"><ele>236.0</ele><time>2026-03-28T13:12:14.001Z</time></trkpt><trkpt lat="45.05878659163814" lon="8.291147083728568"><ele>234.0</ele><time>2026-03-28T13:12:15.001Z</time></trkpt><trkpt lat="45.05871128380337" lon="8.291160575477024"><ele>234.0</ele><time>2026-03-28T13:12:16.001Z</time></trkpt><trkpt lat="45.05858675477395" lon="8.291096607464098"><ele>234.0</ele><time>2026-03-28T13:12:18.001Z</time></trkpt><trkpt lat="45.0585397143856" lon="8.291028424943116"><ele>234.0</ele><time>2026-03-28T13:12:19.001Z</time></trkpt><trkpt lat="45.05848999622975" lon="8.290957475457878"><ele>234.0</ele><time>2026-03-28T13:12:20.001Z</time></trkpt><trkpt lat="45.05843351278393" lon="8.290873348576914"><ele>234.0</ele><time>2026-03-28T13:12:21.001Z</time></trkpt><trkpt lat="45.058386982338945" lon="8.290791020606443"><ele>234.0</ele><time>2026-03-28T13:12:22.001Z</time></trkpt><trkpt lat="45.058339928539695" lon="8.290712081707102"><ele>234.0</ele><time>2026-03-28T13:12:23.001Z</time></trkpt><trkpt lat="45.05831400216913" lon="8.290627031867546"><ele>234.0</ele><time>2026-03-28T13:12:24.001Z</time></trkpt><trkpt lat="45.058297749795365" lon="8.29051696680224"><ele>234.0</ele><time>2026-03-28T13:12:25.001Z</time></trkpt><trkpt lat="45.05829081330793" lon="8.290392263713587"><ele>234.0</ele><time>2026-03-28T13:12:26.001Z</time></trkpt><trkpt lat="45.05828632694107" lon="8.290261604576722"><ele>234.0</ele><time>2026-03-28T13:12:27Z</time></trkpt><trkpt lat="45.05828482124663" lon="8.29014306394696"><ele>234.0</ele><time>2026-03-28T13:12:28Z</time></trkpt><trkpt lat="45.058269409420234" lon="8.290031969264975"><ele>233.5</ele><time>2026-03-28T13:12:29Z</time></trkpt><trkpt lat="45.05823999924319" lon="8.289947822432437"><ele>233.0</ele><time>2026-03-28T13:12:30Z</time></trkpt><trkpt lat="45.058166987573635" lon="8.289872818565426"><ele>232.5</ele><time>2026-03-28T13:12:32Z</time></trkpt><trkpt lat="45.05809168756232" lon="8.289823328268167"><ele>232.0</ele><time>2026-03-28T13:12:34Z</time></trkpt><trkpt lat="45.058007148471944" lon="8.289923769333008"><ele>231.5</ele><time>2026-03-28T13:12:35Z</time></trkpt><trkpt lat="45.0579425283844" lon="8.289954738430438"><ele>231.0</ele><time>2026-03-28T13:12:36Z</time></trkpt><trkpt lat="45.057873899514775" lon="8.289968099696182"><ele>231.0</ele><time>2026-03-28T13:12:37Z</time></trkpt><trkpt lat="45.05780932943151" lon="8.289995215373866"><ele>231.0</ele><time>2026-03-28T13:12:38Z</time></trkpt><trkpt lat="45.05774943931498" lon="8.290035111932319"><ele>231.0</ele><time>2026-03-28T13:12:41Z</time></trkpt><trkpt lat="45.057687071848264" lon="8.29007618531017"><ele>231.0</ele><time>2026-03-28T13:12:42Z</time></trkpt><trkpt lat="45.05762832066453" lon="8.290132656581102"><ele>231.0</ele><time>2026-03-28T13:12:43Z</time></trkpt><trkpt lat="45.05757061531029" lon="8.290201128988393"><ele>231.0</ele><time>2026-03-28T13:12:44Z</time></trkpt><trkpt lat="45.057499738457025" lon="8.290270353796982"><ele>231.0</ele><time>2026-03-28T13:12:45Z</time></trkpt><trkpt lat="45.05741232088417" lon="8.290368723114105"><ele>229.0</ele><time>2026-03-28T13:12:46Z</time></trkpt><trkpt lat="45.05734464187721" lon="8.290530284451709"><ele>227.0</ele><time>2026-03-28T13:12:47Z</time></trkpt><trkpt lat="45.057289402883846" lon="8.290674917151025"><ele>225.0</ele><time>2026-03-28T13:12:48Z</time></trkpt><trkpt lat="45.05724185458372" lon="8.290819313995671"><ele>223.0</ele><time>2026-03-28T13:12:49Z</time></trkpt><trkpt lat="45.057193483732746" lon="8.290964375958776"><ele>222.75</ele><time>2026-03-28T13:12:50Z</time></trkpt><trkpt lat="45.05714256795008" lon="8.291115658168017"><ele>222.5</ele><time>2026-03-28T13:12:51Z</time></trkpt><trkpt lat="45.05707978648728" lon="8.29126269408716"><ele>222.25</ele><time>2026-03-28T13:12:52Z</time></trkpt><trkpt lat="45.05703033751895" lon="8.291415519249982"><ele>222.0</ele><time>2026-03-28T13:12:53Z</time></trkpt><trkpt lat="45.05697153366101" lon="8.29156695643194"><ele>223.75</ele><time>2026-03-28T13:12:54Z</time></trkpt><trkpt lat="45.05691971745909" lon="8.29171825717247"><ele>225.5</ele><time>2026-03-28T13:12:55Z</time></trkpt><trkpt lat="45.05685580384648" lon="8.291891834268421"><ele>227.25</ele><time>2026-03-28T13:12:56Z</time></trkpt><trkpt lat="45.05680387072024" lon="8.292033378465955"><ele>229.0</ele><time>2026-03-28T13:12:57Z</time></trkpt><trkpt lat="45.05674758953283" lon="8.29215882130374"><ele>229.83333333333331</ele><time>2026-03-28T13:12:58Z</time></trkpt><trkpt lat="45.056703527373735" lon="8.292286396811084"><ele>230.66666666666666</ele><time>2026-03-28T13:12:59Z</time></trkpt><trkpt lat="45.05667135668412" lon="8.292396417591496"><ele>231.5</ele><time>2026-03-28T13:13:00Z</time></trkpt><trkpt lat="45.0566872406074" lon="8.29256911971371"><ele>232.33333333333331</ele><time>2026-03-28T13:13:02Z</time></trkpt><trkpt lat="45.05674878732933" lon="8.292613454212844"><ele>233.16666666666666</ele><time>2026-03-28T13:13:03Z</time></trkpt><trkpt lat="45.056818648654875" lon="8.292591466845174"><ele>234.0</ele><time>2026-03-28T13:13:04Z</time></trkpt><trkpt lat="45.056877391620674" lon="8.292534141933215"><ele>234.0</ele><time>2026-03-28T13:13:05Z</time></trkpt><trkpt lat="45.056932560249486" lon="8.29241208269495"><ele>234.0</ele><time>2026-03-28T13:13:07Z</time></trkpt><trkpt lat="45.05704692236461" lon="8.292407204199455"><ele>234.0</ele><time>2026-03-28T13:13:08Z</time></trkpt><trkpt lat="45.05670696525939" lon="8.292650683408066"><ele>234.0</ele><time>2026-03-28T13:13:09Z</time></trkpt><trkpt lat="45.05665442417018" lon="8.29257563518961"><ele>234.0</ele><time>2026-03-28T13:13:10Z</time></trkpt><trkpt lat="45.05685291086043" lon="8.292676503043346"><ele>234.0</ele><time>2026-03-28T13:13:13Z</time></trkpt><trkpt lat="45.05686861498044" lon="8.292526669206364"><ele>234.0</ele><time>2026-03-28T13:15:04Z</time></trkpt><trkpt lat="45.056924556450234" lon="8.292454163919098"><ele>234.0</ele><time>2026-03-28T13:15:07Z</time></trkpt><trkpt lat="45.05698074111238" lon="8.292396179636787"><ele>233.99999999999997</ele><time>2026-03-28T13:15:09Z</time></trkpt><trkpt lat="45.057095403504945" lon="8.292422446227269"><ele>233.99999999999997</ele><time>2026-03-28T13:15:11Z</time></trkpt><trkpt lat="45.057163774177965" lon="8.292546362392606"><ele>234.0</ele><time>2026-03-28T13:15:13Z</time></trkpt><trkpt lat="45.057189510889614" lon="8.292693756406036"><ele>234.0</ele><time>2026-03-28T13:15:15Z</time></trkpt><trkpt lat="45.057216200057034" lon="8.292776994508035"><ele>234.0</ele><time>2026-03-28T13:15:16Z</time></trkpt><trkpt lat="45.057264591329734" lon="8.292916655746147"><ele>234.0</ele><time>2026-03-28T13:15:18Z</time></trkpt><trkpt lat="45.05730205933753" lon="8.292989037555893"><ele>234.0</ele><time>2026-03-28T13:15:20Z</time></trkpt><trkpt lat="45.05734581227592" lon="8.293073304650402"><ele>234.0</ele><time>2026-03-28T13:15:32Z</time></trkpt><trkpt lat="45.05739706184134" lon="8.293139748123547"><ele>234.0</ele><time>2026-03-28T13:15:35.001Z</time></trkpt><trkpt lat="45.057466075352686" lon="8.293162336952323"><ele>234.0</ele><time>2026-03-28T13:18:20.001Z</time></trkpt><trkpt lat="45.05738954909584" lon="8.293129424100954"><ele>234.0</ele><time>2026-03-28T13:18:51.998Z</time></trkpt></trkseg></trk></gpx>